<?xml version="1.0" encoding="UTF-8" standalone="no" ?>
<gpx xmlns="http://www.topografix.com/GPX/1/1" xmlns:xsi="http://www.w3.org/2001/XMLSchema-instance" xsi:schemaLocation="http://www.topografix.com/GPX/1/1 http://www.topografix.com/GPX/1/1/gpx.xsd" version="1.1" creator="VisuGPX - https://www.visugpx.com">
  <metadata>
    <name>Baie de Saint Raphaël</name>
    <desc><![CDATA[entrainement  en  kayak]]></desc>
  </metadata>
  <wpt lat="43.4026" lon="6.76596">
    <ele>8</ele>
  </wpt>
  <wpt lat="43.41716" lon="6.77452">
    <ele>1</ele>
  </wpt>
  <trk>
    <name><![CDATA[Baie de Saint Raphaël_1]]></name>
    <trkseg>
      <trkpt lat="43.4026" lon="6.76596">
        <ele>8</ele>
        <time>2012-06-29T13:32:09Z</time>
      </trkpt>
      <trkpt lat="43.40251" lon="6.76598">
        <ele>8</ele>
        <time>2012-06-29T13:32:12Z</time>
      </trkpt>
      <trkpt lat="43.40241" lon="6.76602">
        <ele>8</ele>
        <time>2012-06-29T13:32:17Z</time>
      </trkpt>
      <trkpt lat="43.40232" lon="6.76606">
        <ele>8</ele>
        <time>2012-06-29T13:32:23Z</time>
      </trkpt>
      <trkpt lat="43.40221" lon="6.76608">
        <ele>8</ele>
        <time>2012-06-29T13:32:30Z</time>
      </trkpt>
      <trkpt lat="43.40211" lon="6.76608">
        <ele>8</ele>
        <time>2012-06-29T13:32:35Z</time>
      </trkpt>
      <trkpt lat="43.40201" lon="6.7661">
        <ele>8</ele>
        <time>2012-06-29T13:32:41Z</time>
      </trkpt>
      <trkpt lat="43.40192" lon="6.76613">
        <ele>8</ele>
        <time>2012-06-29T13:32:47Z</time>
      </trkpt>
      <trkpt lat="43.40181" lon="6.76612">
        <ele>8</ele>
        <time>2012-06-29T13:32:52Z</time>
      </trkpt>
      <trkpt lat="43.4017" lon="6.76613">
        <ele>8</ele>
        <time>2012-06-29T13:32:56Z</time>
      </trkpt>
      <trkpt lat="43.40161" lon="6.76613">
        <ele>8</ele>
        <time>2012-06-29T13:33:00Z</time>
      </trkpt>
      <trkpt lat="43.4015" lon="6.76616">
        <ele>8</ele>
        <time>2012-06-29T13:33:05Z</time>
      </trkpt>
      <trkpt lat="43.40141" lon="6.76617">
        <ele>8</ele>
        <time>2012-06-29T13:33:10Z</time>
      </trkpt>
      <trkpt lat="43.4013" lon="6.76617">
        <ele>8</ele>
        <time>2012-06-29T13:33:15Z</time>
      </trkpt>
      <trkpt lat="43.4012" lon="6.76618">
        <ele>8</ele>
        <time>2012-06-29T13:33:19Z</time>
      </trkpt>
      <trkpt lat="43.40109" lon="6.7662">
        <ele>2</ele>
        <time>2012-06-29T13:33:23Z</time>
      </trkpt>
      <trkpt lat="43.40099" lon="6.76622">
        <ele>2</ele>
        <time>2012-06-29T13:33:27Z</time>
      </trkpt>
      <trkpt lat="43.40088" lon="6.7662">
        <ele>2</ele>
        <time>2012-06-29T13:33:31Z</time>
      </trkpt>
      <trkpt lat="43.40078" lon="6.76622">
        <ele>2</ele>
        <time>2012-06-29T13:33:35Z</time>
      </trkpt>
      <trkpt lat="43.40069" lon="6.76622">
        <ele>2</ele>
        <time>2012-06-29T13:33:39Z</time>
      </trkpt>
      <trkpt lat="43.40059" lon="6.76624">
        <ele>2</ele>
        <time>2012-06-29T13:33:43Z</time>
      </trkpt>
      <trkpt lat="43.40049" lon="6.76626">
        <ele>2</ele>
        <time>2012-06-29T13:33:48Z</time>
      </trkpt>
      <trkpt lat="43.4004" lon="6.76625">
        <ele>2</ele>
        <time>2012-06-29T13:33:52Z</time>
      </trkpt>
      <trkpt lat="43.4003" lon="6.76625">
        <ele>2</ele>
        <time>2012-06-29T13:33:56Z</time>
      </trkpt>
      <trkpt lat="43.4002" lon="6.76628">
        <ele>2</ele>
        <time>2012-06-29T13:34:00Z</time>
      </trkpt>
      <trkpt lat="43.40011" lon="6.7663">
        <ele>2</ele>
        <time>2012-06-29T13:34:04Z</time>
      </trkpt>
      <trkpt lat="43.40002" lon="6.76632">
        <ele>2</ele>
        <time>2012-06-29T13:34:08Z</time>
      </trkpt>
      <trkpt lat="43.39992" lon="6.76638">
        <ele>2</ele>
        <time>2012-06-29T13:34:13Z</time>
      </trkpt>
      <trkpt lat="43.39985" lon="6.76646">
        <ele>2</ele>
        <time>2012-06-29T13:34:19Z</time>
      </trkpt>
      <trkpt lat="43.39976" lon="6.76652">
        <ele>2</ele>
        <time>2012-06-29T13:34:28Z</time>
      </trkpt>
      <trkpt lat="43.39966" lon="6.76658">
        <ele>2</ele>
        <time>2012-06-29T13:34:35Z</time>
      </trkpt>
      <trkpt lat="43.39957" lon="6.76664">
        <ele>2</ele>
        <time>2012-06-29T13:34:41Z</time>
      </trkpt>
      <trkpt lat="43.39949" lon="6.76671">
        <ele>2</ele>
        <time>2012-06-29T13:34:46Z</time>
      </trkpt>
      <trkpt lat="43.39939" lon="6.76678">
        <ele>2</ele>
        <time>2012-06-29T13:34:52Z</time>
      </trkpt>
      <trkpt lat="43.39932" lon="6.76686">
        <ele>2</ele>
        <time>2012-06-29T13:34:58Z</time>
      </trkpt>
      <trkpt lat="43.39924" lon="6.76692">
        <ele>2</ele>
        <time>2012-06-29T13:35:03Z</time>
      </trkpt>
      <trkpt lat="43.39915" lon="6.76698">
        <ele>2</ele>
        <time>2012-06-29T13:35:08Z</time>
      </trkpt>
      <trkpt lat="43.39905" lon="6.76705">
        <ele>2</ele>
        <time>2012-06-29T13:35:13Z</time>
      </trkpt>
      <trkpt lat="43.39895" lon="6.76708">
        <ele>2</ele>
        <time>2012-06-29T13:35:18Z</time>
      </trkpt>
      <trkpt lat="43.39886" lon="6.76711">
        <ele>2</ele>
        <time>2012-06-29T13:35:22Z</time>
      </trkpt>
      <trkpt lat="43.39876" lon="6.76714">
        <ele>2</ele>
        <time>2012-06-29T13:35:26Z</time>
      </trkpt>
      <trkpt lat="43.39866" lon="6.76716">
        <ele>2</ele>
        <time>2012-06-29T13:35:30Z</time>
      </trkpt>
      <trkpt lat="43.39858" lon="6.7672">
        <ele>-3</ele>
        <time>2012-06-29T13:35:34Z</time>
      </trkpt>
      <trkpt lat="43.39848" lon="6.76723">
        <ele>-3</ele>
        <time>2012-06-29T13:35:38Z</time>
      </trkpt>
      <trkpt lat="43.39839" lon="6.76728">
        <ele>-3</ele>
        <time>2012-06-29T13:35:42Z</time>
      </trkpt>
      <trkpt lat="43.39829" lon="6.76731">
        <ele>-3</ele>
        <time>2012-06-29T13:35:46Z</time>
      </trkpt>
      <trkpt lat="43.39821" lon="6.76736">
        <ele>-3</ele>
        <time>2012-06-29T13:35:50Z</time>
      </trkpt>
      <trkpt lat="43.39812" lon="6.7674">
        <ele>-3</ele>
        <time>2012-06-29T13:35:54Z</time>
      </trkpt>
      <trkpt lat="43.39802" lon="6.76744">
        <ele>-3</ele>
        <time>2012-06-29T13:35:58Z</time>
      </trkpt>
      <trkpt lat="43.39793" lon="6.76749">
        <ele>-3</ele>
        <time>2012-06-29T13:36:02Z</time>
      </trkpt>
      <trkpt lat="43.39783" lon="6.76755">
        <ele>-3</ele>
        <time>2012-06-29T13:36:07Z</time>
      </trkpt>
      <trkpt lat="43.39774" lon="6.76759">
        <ele>-3</ele>
        <time>2012-06-29T13:36:11Z</time>
      </trkpt>
      <trkpt lat="43.39765" lon="6.76763">
        <ele>-3</ele>
        <time>2012-06-29T13:36:15Z</time>
      </trkpt>
      <trkpt lat="43.39756" lon="6.76768">
        <ele>-3</ele>
        <time>2012-06-29T13:36:19Z</time>
      </trkpt>
      <trkpt lat="43.39748" lon="6.76773">
        <ele>-3</ele>
        <time>2012-06-29T13:36:23Z</time>
      </trkpt>
      <trkpt lat="43.39738" lon="6.76777">
        <ele>-3</ele>
        <time>2012-06-29T13:36:27Z</time>
      </trkpt>
      <trkpt lat="43.39729" lon="6.76781">
        <ele>-3</ele>
        <time>2012-06-29T13:36:31Z</time>
      </trkpt>
      <trkpt lat="43.3972" lon="6.76784">
        <ele>-3</ele>
        <time>2012-06-29T13:36:35Z</time>
      </trkpt>
      <trkpt lat="43.3971" lon="6.76788">
        <ele>-3</ele>
        <time>2012-06-29T13:36:39Z</time>
      </trkpt>
      <trkpt lat="43.39701" lon="6.76793">
        <ele>-3</ele>
        <time>2012-06-29T13:36:43Z</time>
      </trkpt>
      <trkpt lat="43.39692" lon="6.76797">
        <ele>-3</ele>
        <time>2012-06-29T13:36:47Z</time>
      </trkpt>
      <trkpt lat="43.39683" lon="6.76802">
        <ele>-3</ele>
        <time>2012-06-29T13:36:51Z</time>
      </trkpt>
      <trkpt lat="43.39674" lon="6.76805">
        <ele>-3</ele>
        <time>2012-06-29T13:36:55Z</time>
      </trkpt>
      <trkpt lat="43.39664" lon="6.7681">
        <ele>-3</ele>
        <time>2012-06-29T13:36:59Z</time>
      </trkpt>
      <trkpt lat="43.39655" lon="6.76813">
        <ele>-3</ele>
        <time>2012-06-29T13:37:03Z</time>
      </trkpt>
      <trkpt lat="43.39645" lon="6.76817">
        <ele>-3</ele>
        <time>2012-06-29T13:37:07Z</time>
      </trkpt>
      <trkpt lat="43.39636" lon="6.7682">
        <ele>-3</ele>
        <time>2012-06-29T13:37:11Z</time>
      </trkpt>
      <trkpt lat="43.39626" lon="6.76825">
        <ele>-3</ele>
        <time>2012-06-29T13:37:15Z</time>
      </trkpt>
      <trkpt lat="43.39617" lon="6.76829">
        <ele>-3</ele>
        <time>2012-06-29T13:37:19Z</time>
      </trkpt>
      <trkpt lat="43.39607" lon="6.76831">
        <ele>-3</ele>
        <time>2012-06-29T13:37:23Z</time>
      </trkpt>
      <trkpt lat="43.39597" lon="6.76834">
        <ele>-3</ele>
        <time>2012-06-29T13:37:27Z</time>
      </trkpt>
      <trkpt lat="43.39587" lon="6.76837">
        <ele>-3</ele>
        <time>2012-06-29T13:37:31Z</time>
      </trkpt>
      <trkpt lat="43.39577" lon="6.76839">
        <ele>-3</ele>
        <time>2012-06-29T13:37:35Z</time>
      </trkpt>
      <trkpt lat="43.39567" lon="6.76844">
        <ele>-3</ele>
        <time>2012-06-29T13:37:39Z</time>
      </trkpt>
      <trkpt lat="43.39558" lon="6.76848">
        <ele>-3</ele>
        <time>2012-06-29T13:37:43Z</time>
      </trkpt>
      <trkpt lat="43.39548" lon="6.76853">
        <ele>-3</ele>
        <time>2012-06-29T13:37:47Z</time>
      </trkpt>
      <trkpt lat="43.39539" lon="6.76855">
        <ele>-3</ele>
        <time>2012-06-29T13:37:51Z</time>
      </trkpt>
      <trkpt lat="43.39529" lon="6.76859">
        <ele>-3</ele>
        <time>2012-06-29T13:37:55Z</time>
      </trkpt>
      <trkpt lat="43.3952" lon="6.76863">
        <ele>-3</ele>
        <time>2012-06-29T13:37:59Z</time>
      </trkpt>
      <trkpt lat="43.39511" lon="6.76867">
        <ele>-3</ele>
        <time>2012-06-29T13:38:03Z</time>
      </trkpt>
      <trkpt lat="43.39502" lon="6.7687">
        <ele>-3</ele>
        <time>2012-06-29T13:38:07Z</time>
      </trkpt>
      <trkpt lat="43.39492" lon="6.76873">
        <ele>-3</ele>
        <time>2012-06-29T13:38:11Z</time>
      </trkpt>
      <trkpt lat="43.39482" lon="6.76877">
        <ele>-3</ele>
        <time>2012-06-29T13:38:15Z</time>
      </trkpt>
      <trkpt lat="43.39473" lon="6.76881">
        <ele>-3</ele>
        <time>2012-06-29T13:38:19Z</time>
      </trkpt>
      <trkpt lat="43.39463" lon="6.76885">
        <ele>-3</ele>
        <time>2012-06-29T13:38:23Z</time>
      </trkpt>
      <trkpt lat="43.39453" lon="6.7689">
        <ele>-3</ele>
        <time>2012-06-29T13:38:27Z</time>
      </trkpt>
      <trkpt lat="43.39442" lon="6.76892">
        <ele>-3</ele>
        <time>2012-06-29T13:38:31Z</time>
      </trkpt>
      <trkpt lat="43.39433" lon="6.76896">
        <ele>-3</ele>
        <time>2012-06-29T13:38:35Z</time>
      </trkpt>
      <trkpt lat="43.39424" lon="6.769">
        <ele>-3</ele>
        <time>2012-06-29T13:38:39Z</time>
      </trkpt>
      <trkpt lat="43.39415" lon="6.76903">
        <ele>-3</ele>
        <time>2012-06-29T13:38:43Z</time>
      </trkpt>
      <trkpt lat="43.39406" lon="6.76906">
        <ele>-3</ele>
        <time>2012-06-29T13:38:47Z</time>
      </trkpt>
      <trkpt lat="43.39396" lon="6.76908">
        <ele>-3</ele>
        <time>2012-06-29T13:38:51Z</time>
      </trkpt>
      <trkpt lat="43.39386" lon="6.76912">
        <ele>-3</ele>
        <time>2012-06-29T13:38:55Z</time>
      </trkpt>
      <trkpt lat="43.39376" lon="6.76916">
        <ele>-3</ele>
        <time>2012-06-29T13:38:59Z</time>
      </trkpt>
      <trkpt lat="43.39366" lon="6.76919">
        <ele>-3</ele>
        <time>2012-06-29T13:39:03Z</time>
      </trkpt>
      <trkpt lat="43.39356" lon="6.76922">
        <ele>-3</ele>
        <time>2012-06-29T13:39:07Z</time>
      </trkpt>
      <trkpt lat="43.39347" lon="6.76925">
        <ele>-3</ele>
        <time>2012-06-29T13:39:11Z</time>
      </trkpt>
      <trkpt lat="43.39337" lon="6.76928">
        <ele>-3</ele>
        <time>2012-06-29T13:39:15Z</time>
      </trkpt>
      <trkpt lat="43.39328" lon="6.76931">
        <ele>-3</ele>
        <time>2012-06-29T13:39:19Z</time>
      </trkpt>
      <trkpt lat="43.39318" lon="6.76934">
        <ele>-3</ele>
        <time>2012-06-29T13:39:23Z</time>
      </trkpt>
      <trkpt lat="43.39308" lon="6.76936">
        <ele>-3</ele>
        <time>2012-06-29T13:39:27Z</time>
      </trkpt>
      <trkpt lat="43.39298" lon="6.76939">
        <ele>-3</ele>
        <time>2012-06-29T13:39:31Z</time>
      </trkpt>
      <trkpt lat="43.39287" lon="6.76942">
        <ele>-3</ele>
        <time>2012-06-29T13:39:35Z</time>
      </trkpt>
      <trkpt lat="43.39276" lon="6.76943">
        <ele>-3</ele>
        <time>2012-06-29T13:39:39Z</time>
      </trkpt>
      <trkpt lat="43.39265" lon="6.76945">
        <ele>-3</ele>
        <time>2012-06-29T13:39:43Z</time>
      </trkpt>
      <trkpt lat="43.39255" lon="6.76947">
        <ele>-3</ele>
        <time>2012-06-29T13:39:47Z</time>
      </trkpt>
      <trkpt lat="43.39246" lon="6.76949">
        <ele>-3</ele>
        <time>2012-06-29T13:39:50Z</time>
      </trkpt>
      <trkpt lat="43.39236" lon="6.76952">
        <ele>-3</ele>
        <time>2012-06-29T13:39:54Z</time>
      </trkpt>
      <trkpt lat="43.39227" lon="6.76954">
        <ele>-3</ele>
        <time>2012-06-29T13:39:58Z</time>
      </trkpt>
      <trkpt lat="43.39217" lon="6.76956">
        <ele>-3</ele>
        <time>2012-06-29T13:40:02Z</time>
      </trkpt>
      <trkpt lat="43.39208" lon="6.76959">
        <ele>-3</ele>
        <time>2012-06-29T13:40:06Z</time>
      </trkpt>
      <trkpt lat="43.39197" lon="6.76961">
        <ele>-3</ele>
        <time>2012-06-29T13:40:10Z</time>
      </trkpt>
      <trkpt lat="43.39187" lon="6.76964">
        <ele>-3</ele>
        <time>2012-06-29T13:40:14Z</time>
      </trkpt>
      <trkpt lat="43.39177" lon="6.76964">
        <ele>-3</ele>
        <time>2012-06-29T13:40:18Z</time>
      </trkpt>
      <trkpt lat="43.39166" lon="6.76967">
        <ele>-3</ele>
        <time>2012-06-29T13:40:22Z</time>
      </trkpt>
      <trkpt lat="43.39156" lon="6.7697">
        <ele>-3</ele>
        <time>2012-06-29T13:40:26Z</time>
      </trkpt>
      <trkpt lat="43.39146" lon="6.76972">
        <ele>-3</ele>
        <time>2012-06-29T13:40:30Z</time>
      </trkpt>
      <trkpt lat="43.39136" lon="6.76975">
        <ele>-3</ele>
        <time>2012-06-29T13:40:34Z</time>
      </trkpt>
      <trkpt lat="43.39127" lon="6.76979">
        <ele>-3</ele>
        <time>2012-06-29T13:40:38Z</time>
      </trkpt>
      <trkpt lat="43.39117" lon="6.76982">
        <ele>-3</ele>
        <time>2012-06-29T13:40:42Z</time>
      </trkpt>
      <trkpt lat="43.39107" lon="6.76985">
        <ele>-10</ele>
        <time>2012-06-29T13:40:46Z</time>
      </trkpt>
      <trkpt lat="43.39098" lon="6.76986">
        <ele>-5</ele>
        <time>2012-06-29T13:40:49Z</time>
      </trkpt>
      <trkpt lat="43.39087" lon="6.76988">
        <ele>-5</ele>
        <time>2012-06-29T13:40:53Z</time>
      </trkpt>
      <trkpt lat="43.39077" lon="6.76988">
        <ele>-5</ele>
        <time>2012-06-29T13:40:57Z</time>
      </trkpt>
      <trkpt lat="43.39066" lon="6.7699">
        <ele>-5</ele>
        <time>2012-06-29T13:41:01Z</time>
      </trkpt>
      <trkpt lat="43.39055" lon="6.76992">
        <ele>-5</ele>
        <time>2012-06-29T13:41:05Z</time>
      </trkpt>
      <trkpt lat="43.39045" lon="6.76994">
        <ele>-5</ele>
        <time>2012-06-29T13:41:09Z</time>
      </trkpt>
      <trkpt lat="43.39034" lon="6.76996">
        <ele>-5</ele>
        <time>2012-06-29T13:41:13Z</time>
      </trkpt>
      <trkpt lat="43.39024" lon="6.76997">
        <ele>-5</ele>
        <time>2012-06-29T13:41:17Z</time>
      </trkpt>
      <trkpt lat="43.39013" lon="6.76999">
        <ele>-5</ele>
        <time>2012-06-29T13:41:21Z</time>
      </trkpt>
      <trkpt lat="43.39002" lon="6.77001">
        <ele>-5</ele>
        <time>2012-06-29T13:41:25Z</time>
      </trkpt>
      <trkpt lat="43.38991" lon="6.77003">
        <ele>-5</ele>
        <time>2012-06-29T13:41:29Z</time>
      </trkpt>
      <trkpt lat="43.38981" lon="6.77005">
        <ele>-5</ele>
        <time>2012-06-29T13:41:33Z</time>
      </trkpt>
      <trkpt lat="43.3897" lon="6.77005">
        <ele>-5</ele>
        <time>2012-06-29T13:41:37Z</time>
      </trkpt>
      <trkpt lat="43.3896" lon="6.77006">
        <ele>-5</ele>
        <time>2012-06-29T13:41:41Z</time>
      </trkpt>
      <trkpt lat="43.38949" lon="6.77009">
        <ele>-5</ele>
        <time>2012-06-29T13:41:45Z</time>
      </trkpt>
      <trkpt lat="43.38938" lon="6.7701">
        <ele>-5</ele>
        <time>2012-06-29T13:41:49Z</time>
      </trkpt>
      <trkpt lat="43.38927" lon="6.7701">
        <ele>-5</ele>
        <time>2012-06-29T13:41:53Z</time>
      </trkpt>
      <trkpt lat="43.38916" lon="6.77011">
        <ele>-5</ele>
        <time>2012-06-29T13:41:57Z</time>
      </trkpt>
      <trkpt lat="43.38905" lon="6.77014">
        <ele>-5</ele>
        <time>2012-06-29T13:42:01Z</time>
      </trkpt>
      <trkpt lat="43.38895" lon="6.77016">
        <ele>-5</ele>
        <time>2012-06-29T13:42:05Z</time>
      </trkpt>
      <trkpt lat="43.38884" lon="6.77019">
        <ele>-5</ele>
        <time>2012-06-29T13:42:09Z</time>
      </trkpt>
      <trkpt lat="43.38874" lon="6.77022">
        <ele>-5</ele>
        <time>2012-06-29T13:42:13Z</time>
      </trkpt>
      <trkpt lat="43.38865" lon="6.77023">
        <ele>1</ele>
        <time>2012-06-29T13:42:16Z</time>
      </trkpt>
      <trkpt lat="43.38855" lon="6.77028">
        <ele>1</ele>
        <time>2012-06-29T13:42:20Z</time>
      </trkpt>
      <trkpt lat="43.38845" lon="6.77031">
        <ele>1</ele>
        <time>2012-06-29T13:42:24Z</time>
      </trkpt>
      <trkpt lat="43.38834" lon="6.77032">
        <ele>1</ele>
        <time>2012-06-29T13:42:28Z</time>
      </trkpt>
      <trkpt lat="43.38823" lon="6.77033">
        <ele>1</ele>
        <time>2012-06-29T13:42:32Z</time>
      </trkpt>
      <trkpt lat="43.38812" lon="6.77035">
        <ele>1</ele>
        <time>2012-06-29T13:42:36Z</time>
      </trkpt>
      <trkpt lat="43.38803" lon="6.77038">
        <ele>1</ele>
        <time>2012-06-29T13:42:39Z</time>
      </trkpt>
      <trkpt lat="43.38792" lon="6.7704">
        <ele>1</ele>
        <time>2012-06-29T13:42:43Z</time>
      </trkpt>
      <trkpt lat="43.3878" lon="6.77041">
        <ele>1</ele>
        <time>2012-06-29T13:42:47Z</time>
      </trkpt>
      <trkpt lat="43.38769" lon="6.77041">
        <ele>1</ele>
        <time>2012-06-29T13:42:51Z</time>
      </trkpt>
      <trkpt lat="43.3876" lon="6.77043">
        <ele>1</ele>
        <time>2012-06-29T13:42:55Z</time>
      </trkpt>
      <trkpt lat="43.3875" lon="6.77045">
        <ele>1</ele>
        <time>2012-06-29T13:42:59Z</time>
      </trkpt>
      <trkpt lat="43.38739" lon="6.77047">
        <ele>1</ele>
        <time>2012-06-29T13:43:03Z</time>
      </trkpt>
      <trkpt lat="43.38728" lon="6.77048">
        <ele>1</ele>
        <time>2012-06-29T13:43:07Z</time>
      </trkpt>
      <trkpt lat="43.38717" lon="6.77049">
        <ele>1</ele>
        <time>2012-06-29T13:43:11Z</time>
      </trkpt>
      <trkpt lat="43.38707" lon="6.7705">
        <ele>1</ele>
        <time>2012-06-29T13:43:15Z</time>
      </trkpt>
      <trkpt lat="43.38696" lon="6.77051">
        <ele>1</ele>
        <time>2012-06-29T13:43:19Z</time>
      </trkpt>
      <trkpt lat="43.38686" lon="6.77053">
        <ele>1</ele>
        <time>2012-06-29T13:43:23Z</time>
      </trkpt>
      <trkpt lat="43.38676" lon="6.77054">
        <ele>1</ele>
        <time>2012-06-29T13:43:27Z</time>
      </trkpt>
      <trkpt lat="43.38665" lon="6.77055">
        <ele>1</ele>
        <time>2012-06-29T13:43:31Z</time>
      </trkpt>
      <trkpt lat="43.38655" lon="6.77056">
        <ele>1</ele>
        <time>2012-06-29T13:43:35Z</time>
      </trkpt>
      <trkpt lat="43.38644" lon="6.77057">
        <ele>1</ele>
        <time>2012-06-29T13:43:39Z</time>
      </trkpt>
      <trkpt lat="43.38633" lon="6.77058">
        <ele>1</ele>
        <time>2012-06-29T13:43:43Z</time>
      </trkpt>
      <trkpt lat="43.38621" lon="6.77059">
        <ele>1</ele>
        <time>2012-06-29T13:43:47Z</time>
      </trkpt>
      <trkpt lat="43.3861" lon="6.77059">
        <ele>1</ele>
        <time>2012-06-29T13:43:51Z</time>
      </trkpt>
      <trkpt lat="43.38599" lon="6.77061">
        <ele>1</ele>
        <time>2012-06-29T13:43:55Z</time>
      </trkpt>
      <trkpt lat="43.38588" lon="6.77063">
        <ele>1</ele>
        <time>2012-06-29T13:43:59Z</time>
      </trkpt>
      <trkpt lat="43.38579" lon="6.77066">
        <ele>1</ele>
        <time>2012-06-29T13:44:03Z</time>
      </trkpt>
      <trkpt lat="43.38568" lon="6.77067">
        <ele>1</ele>
        <time>2012-06-29T13:44:07Z</time>
      </trkpt>
      <trkpt lat="43.38557" lon="6.77068">
        <ele>1</ele>
        <time>2012-06-29T13:44:11Z</time>
      </trkpt>
      <trkpt lat="43.38547" lon="6.7707">
        <ele>1</ele>
        <time>2012-06-29T13:44:15Z</time>
      </trkpt>
      <trkpt lat="43.38537" lon="6.7707">
        <ele>1</ele>
        <time>2012-06-29T13:44:19Z</time>
      </trkpt>
      <trkpt lat="43.38526" lon="6.77072">
        <ele>1</ele>
        <time>2012-06-29T13:44:23Z</time>
      </trkpt>
      <trkpt lat="43.38516" lon="6.77073">
        <ele>1</ele>
        <time>2012-06-29T13:44:27Z</time>
      </trkpt>
      <trkpt lat="43.38506" lon="6.77074">
        <ele>1</ele>
        <time>2012-06-29T13:44:31Z</time>
      </trkpt>
      <trkpt lat="43.38496" lon="6.77075">
        <ele>1</ele>
        <time>2012-06-29T13:44:35Z</time>
      </trkpt>
      <trkpt lat="43.38486" lon="6.77075">
        <ele>1</ele>
        <time>2012-06-29T13:44:38Z</time>
      </trkpt>
      <trkpt lat="43.38475" lon="6.77076">
        <ele>1</ele>
        <time>2012-06-29T13:44:42Z</time>
      </trkpt>
      <trkpt lat="43.38465" lon="6.77076">
        <ele>1</ele>
        <time>2012-06-29T13:44:45Z</time>
      </trkpt>
      <trkpt lat="43.38455" lon="6.77077">
        <ele>1</ele>
        <time>2012-06-29T13:44:48Z</time>
      </trkpt>
      <trkpt lat="43.38444" lon="6.77078">
        <ele>1</ele>
        <time>2012-06-29T13:44:52Z</time>
      </trkpt>
      <trkpt lat="43.38433" lon="6.77079">
        <ele>1</ele>
        <time>2012-06-29T13:44:56Z</time>
      </trkpt>
      <trkpt lat="43.38422" lon="6.77081">
        <ele>1</ele>
        <time>2012-06-29T13:45:00Z</time>
      </trkpt>
      <trkpt lat="43.38411" lon="6.77083">
        <ele>1</ele>
        <time>2012-06-29T13:45:04Z</time>
      </trkpt>
      <trkpt lat="43.38401" lon="6.77083">
        <ele>1</ele>
        <time>2012-06-29T13:45:08Z</time>
      </trkpt>
      <trkpt lat="43.38389" lon="6.77083">
        <ele>1</ele>
        <time>2012-06-29T13:45:12Z</time>
      </trkpt>
      <trkpt lat="43.38378" lon="6.77083">
        <ele>1</ele>
        <time>2012-06-29T13:45:16Z</time>
      </trkpt>
      <trkpt lat="43.38367" lon="6.77084">
        <ele>1</ele>
        <time>2012-06-29T13:45:20Z</time>
      </trkpt>
      <trkpt lat="43.38357" lon="6.77085">
        <ele>1</ele>
        <time>2012-06-29T13:45:24Z</time>
      </trkpt>
      <trkpt lat="43.38347" lon="6.77085">
        <ele>1</ele>
        <time>2012-06-29T13:45:28Z</time>
      </trkpt>
      <trkpt lat="43.38336" lon="6.77085">
        <ele>1</ele>
        <time>2012-06-29T13:45:32Z</time>
      </trkpt>
      <trkpt lat="43.38326" lon="6.77086">
        <ele>1</ele>
        <time>2012-06-29T13:45:36Z</time>
      </trkpt>
      <trkpt lat="43.38314" lon="6.77088">
        <ele>1</ele>
        <time>2012-06-29T13:45:40Z</time>
      </trkpt>
      <trkpt lat="43.38305" lon="6.7709">
        <ele>1</ele>
        <time>2012-06-29T13:45:43Z</time>
      </trkpt>
      <trkpt lat="43.38294" lon="6.7709">
        <ele>1</ele>
        <time>2012-06-29T13:45:46Z</time>
      </trkpt>
      <trkpt lat="43.38285" lon="6.77091">
        <ele>1</ele>
        <time>2012-06-29T13:45:50Z</time>
      </trkpt>
      <trkpt lat="43.38274" lon="6.77092">
        <ele>1</ele>
        <time>2012-06-29T13:45:54Z</time>
      </trkpt>
      <trkpt lat="43.38264" lon="6.77091">
        <ele>1</ele>
        <time>2012-06-29T13:45:58Z</time>
      </trkpt>
      <trkpt lat="43.38253" lon="6.77089">
        <ele>1</ele>
        <time>2012-06-29T13:46:02Z</time>
      </trkpt>
      <trkpt lat="43.38242" lon="6.77088">
        <ele>1</ele>
        <time>2012-06-29T13:46:06Z</time>
      </trkpt>
      <trkpt lat="43.3823" lon="6.77088">
        <ele>1</ele>
        <time>2012-06-29T13:46:10Z</time>
      </trkpt>
      <trkpt lat="43.38219" lon="6.77089">
        <ele>1</ele>
        <time>2012-06-29T13:46:14Z</time>
      </trkpt>
      <trkpt lat="43.38208" lon="6.77086">
        <ele>1</ele>
        <time>2012-06-29T13:46:18Z</time>
      </trkpt>
      <trkpt lat="43.38198" lon="6.77085">
        <ele>1</ele>
        <time>2012-06-29T13:46:22Z</time>
      </trkpt>
      <trkpt lat="43.38188" lon="6.77084">
        <ele>1</ele>
        <time>2012-06-29T13:46:26Z</time>
      </trkpt>
      <trkpt lat="43.38177" lon="6.77082">
        <ele>1</ele>
        <time>2012-06-29T13:46:30Z</time>
      </trkpt>
      <trkpt lat="43.38166" lon="6.77079">
        <ele>1</ele>
        <time>2012-06-29T13:46:34Z</time>
      </trkpt>
      <trkpt lat="43.38155" lon="6.77077">
        <ele>1</ele>
        <time>2012-06-29T13:46:38Z</time>
      </trkpt>
      <trkpt lat="43.38144" lon="6.77077">
        <ele>1</ele>
        <time>2012-06-29T13:46:42Z</time>
      </trkpt>
      <trkpt lat="43.38133" lon="6.77076">
        <ele>1</ele>
        <time>2012-06-29T13:46:46Z</time>
      </trkpt>
      <trkpt lat="43.38122" lon="6.77075">
        <ele>1</ele>
        <time>2012-06-29T13:46:50Z</time>
      </trkpt>
      <trkpt lat="43.38111" lon="6.77072">
        <ele>1</ele>
        <time>2012-06-29T13:46:54Z</time>
      </trkpt>
      <trkpt lat="43.381" lon="6.7707">
        <ele>1</ele>
        <time>2012-06-29T13:46:58Z</time>
      </trkpt>
      <trkpt lat="43.38089" lon="6.77068">
        <ele>1</ele>
        <time>2012-06-29T13:47:02Z</time>
      </trkpt>
      <trkpt lat="43.38079" lon="6.77067">
        <ele>1</ele>
        <time>2012-06-29T13:47:06Z</time>
      </trkpt>
      <trkpt lat="43.38068" lon="6.77064">
        <ele>1</ele>
        <time>2012-06-29T13:47:10Z</time>
      </trkpt>
      <trkpt lat="43.38059" lon="6.77062">
        <ele>1</ele>
        <time>2012-06-29T13:47:13Z</time>
      </trkpt>
      <trkpt lat="43.38047" lon="6.77059">
        <ele>1</ele>
        <time>2012-06-29T13:47:17Z</time>
      </trkpt>
      <trkpt lat="43.38037" lon="6.77057">
        <ele>1</ele>
        <time>2012-06-29T13:47:21Z</time>
      </trkpt>
      <trkpt lat="43.38026" lon="6.77054">
        <ele>1</ele>
        <time>2012-06-29T13:47:25Z</time>
      </trkpt>
      <trkpt lat="43.38015" lon="6.77049">
        <ele>1</ele>
        <time>2012-06-29T13:47:29Z</time>
      </trkpt>
      <trkpt lat="43.38004" lon="6.77047">
        <ele>1</ele>
        <time>2012-06-29T13:47:33Z</time>
      </trkpt>
      <trkpt lat="43.37994" lon="6.77043">
        <ele>1</ele>
        <time>2012-06-29T13:47:37Z</time>
      </trkpt>
      <trkpt lat="43.37984" lon="6.7704">
        <ele>1</ele>
        <time>2012-06-29T13:47:41Z</time>
      </trkpt>
      <trkpt lat="43.37973" lon="6.77036">
        <ele>1</ele>
        <time>2012-06-29T13:47:45Z</time>
      </trkpt>
      <trkpt lat="43.37964" lon="6.77033">
        <ele>1</ele>
        <time>2012-06-29T13:47:49Z</time>
      </trkpt>
      <trkpt lat="43.37954" lon="6.77031">
        <ele>1</ele>
        <time>2012-06-29T13:47:53Z</time>
      </trkpt>
      <trkpt lat="43.37943" lon="6.77027">
        <ele>1</ele>
        <time>2012-06-29T13:47:57Z</time>
      </trkpt>
      <trkpt lat="43.37933" lon="6.77021">
        <ele>1</ele>
        <time>2012-06-29T13:48:01Z</time>
      </trkpt>
      <trkpt lat="43.37924" lon="6.77017">
        <ele>1</ele>
        <time>2012-06-29T13:48:05Z</time>
      </trkpt>
      <trkpt lat="43.37914" lon="6.77013">
        <ele>1</ele>
        <time>2012-06-29T13:48:09Z</time>
      </trkpt>
      <trkpt lat="43.37905" lon="6.77008">
        <ele>1</ele>
        <time>2012-06-29T13:48:13Z</time>
      </trkpt>
      <trkpt lat="43.37894" lon="6.77005">
        <ele>1</ele>
        <time>2012-06-29T13:48:17Z</time>
      </trkpt>
      <trkpt lat="43.37884" lon="6.77002">
        <ele>1</ele>
        <time>2012-06-29T13:48:21Z</time>
      </trkpt>
      <trkpt lat="43.37874" lon="6.76998">
        <ele>1</ele>
        <time>2012-06-29T13:48:25Z</time>
      </trkpt>
      <trkpt lat="43.37864" lon="6.76995">
        <ele>1</ele>
        <time>2012-06-29T13:48:29Z</time>
      </trkpt>
      <trkpt lat="43.37854" lon="6.76992">
        <ele>1</ele>
        <time>2012-06-29T13:48:33Z</time>
      </trkpt>
      <trkpt lat="43.37842" lon="6.76988">
        <ele>1</ele>
        <time>2012-06-29T13:48:37Z</time>
      </trkpt>
      <trkpt lat="43.37832" lon="6.76984">
        <ele>1</ele>
        <time>2012-06-29T13:48:41Z</time>
      </trkpt>
      <trkpt lat="43.37821" lon="6.76979">
        <ele>1</ele>
        <time>2012-06-29T13:48:45Z</time>
      </trkpt>
      <trkpt lat="43.37812" lon="6.76975">
        <ele>1</ele>
        <time>2012-06-29T13:48:49Z</time>
      </trkpt>
      <trkpt lat="43.37802" lon="6.76973">
        <ele>1</ele>
        <time>2012-06-29T13:48:53Z</time>
      </trkpt>
      <trkpt lat="43.37791" lon="6.76971">
        <ele>1</ele>
        <time>2012-06-29T13:48:57Z</time>
      </trkpt>
      <trkpt lat="43.37781" lon="6.76969">
        <ele>1</ele>
        <time>2012-06-29T13:49:01Z</time>
      </trkpt>
      <trkpt lat="43.3777" lon="6.76966">
        <ele>1</ele>
        <time>2012-06-29T13:49:05Z</time>
      </trkpt>
      <trkpt lat="43.3776" lon="6.76963">
        <ele>1</ele>
        <time>2012-06-29T13:49:09Z</time>
      </trkpt>
      <trkpt lat="43.37749" lon="6.7696">
        <ele>1</ele>
        <time>2012-06-29T13:49:13Z</time>
      </trkpt>
      <trkpt lat="43.37739" lon="6.76955">
        <ele>1</ele>
        <time>2012-06-29T13:49:17Z</time>
      </trkpt>
      <trkpt lat="43.37728" lon="6.76952">
        <ele>1</ele>
        <time>2012-06-29T13:49:21Z</time>
      </trkpt>
      <trkpt lat="43.3772" lon="6.76949">
        <ele>1</ele>
        <time>2012-06-29T13:49:24Z</time>
      </trkpt>
      <trkpt lat="43.37709" lon="6.76944">
        <ele>1</ele>
        <time>2012-06-29T13:49:28Z</time>
      </trkpt>
      <trkpt lat="43.37699" lon="6.7694">
        <ele>1</ele>
        <time>2012-06-29T13:49:32Z</time>
      </trkpt>
      <trkpt lat="43.37688" lon="6.76935">
        <ele>1</ele>
        <time>2012-06-29T13:49:36Z</time>
      </trkpt>
      <trkpt lat="43.37679" lon="6.7693">
        <ele>1</ele>
        <time>2012-06-29T13:49:40Z</time>
      </trkpt>
      <trkpt lat="43.37669" lon="6.76926">
        <ele>1</ele>
        <time>2012-06-29T13:49:44Z</time>
      </trkpt>
      <trkpt lat="43.3766" lon="6.76922">
        <ele>1</ele>
        <time>2012-06-29T13:49:48Z</time>
      </trkpt>
      <trkpt lat="43.3765" lon="6.76918">
        <ele>1</ele>
        <time>2012-06-29T13:49:52Z</time>
      </trkpt>
      <trkpt lat="43.3764" lon="6.76917">
        <ele>1</ele>
        <time>2012-06-29T13:49:56Z</time>
      </trkpt>
      <trkpt lat="43.3763" lon="6.76917">
        <ele>1</ele>
        <time>2012-06-29T13:50:00Z</time>
      </trkpt>
      <trkpt lat="43.37621" lon="6.76921">
        <ele>1</ele>
        <time>2012-06-29T13:50:05Z</time>
      </trkpt>
      <trkpt lat="43.37629" lon="6.76931">
        <ele>1</ele>
        <time>2012-06-29T13:50:13Z</time>
      </trkpt>
      <trkpt lat="43.37639" lon="6.76931">
        <ele>1</ele>
        <time>2012-06-29T13:50:17Z</time>
      </trkpt>
      <trkpt lat="43.37648" lon="6.76927">
        <ele>1</ele>
        <time>2012-06-29T13:50:20Z</time>
      </trkpt>
      <trkpt lat="43.37658" lon="6.76921">
        <ele>1</ele>
        <time>2012-06-29T13:50:24Z</time>
      </trkpt>
      <trkpt lat="43.37669" lon="6.76919">
        <ele>1</ele>
        <time>2012-06-29T13:50:28Z</time>
      </trkpt>
      <trkpt lat="43.37678" lon="6.76925">
        <ele>1</ele>
        <time>2012-06-29T13:50:32Z</time>
      </trkpt>
      <trkpt lat="43.37687" lon="6.76932">
        <ele>1</ele>
        <time>2012-06-29T13:50:36Z</time>
      </trkpt>
      <trkpt lat="43.37694" lon="6.76941">
        <ele>1</ele>
        <time>2012-06-29T13:50:40Z</time>
      </trkpt>
      <trkpt lat="43.37699" lon="6.76951">
        <ele>1</ele>
        <time>2012-06-29T13:50:44Z</time>
      </trkpt>
      <trkpt lat="43.37705" lon="6.76961">
        <ele>1</ele>
        <time>2012-06-29T13:50:48Z</time>
      </trkpt>
      <trkpt lat="43.37713" lon="6.7697">
        <ele>1</ele>
        <time>2012-06-29T13:50:52Z</time>
      </trkpt>
      <trkpt lat="43.37719" lon="6.76981">
        <ele>1</ele>
        <time>2012-06-29T13:50:56Z</time>
      </trkpt>
      <trkpt lat="43.37726" lon="6.76991">
        <ele>1</ele>
        <time>2012-06-29T13:51:00Z</time>
      </trkpt>
      <trkpt lat="43.37732" lon="6.77002">
        <ele>1</ele>
        <time>2012-06-29T13:51:04Z</time>
      </trkpt>
      <trkpt lat="43.37739" lon="6.77013">
        <ele>1</ele>
        <time>2012-06-29T13:51:08Z</time>
      </trkpt>
      <trkpt lat="43.37745" lon="6.77023">
        <ele>1</ele>
        <time>2012-06-29T13:51:12Z</time>
      </trkpt>
      <trkpt lat="43.37751" lon="6.77033">
        <ele>1</ele>
        <time>2012-06-29T13:51:16Z</time>
      </trkpt>
      <trkpt lat="43.37757" lon="6.77043">
        <ele>1</ele>
        <time>2012-06-29T13:51:20Z</time>
      </trkpt>
      <trkpt lat="43.37763" lon="6.77053">
        <ele>1</ele>
        <time>2012-06-29T13:51:24Z</time>
      </trkpt>
      <trkpt lat="43.3777" lon="6.77061">
        <ele>1</ele>
        <time>2012-06-29T13:51:28Z</time>
      </trkpt>
      <trkpt lat="43.37777" lon="6.7707">
        <ele>1</ele>
        <time>2012-06-29T13:51:32Z</time>
      </trkpt>
      <trkpt lat="43.37783" lon="6.77081">
        <ele>1</ele>
        <time>2012-06-29T13:51:36Z</time>
      </trkpt>
      <trkpt lat="43.37789" lon="6.77092">
        <ele>1</ele>
        <time>2012-06-29T13:51:40Z</time>
      </trkpt>
      <trkpt lat="43.37795" lon="6.77102">
        <ele>1</ele>
        <time>2012-06-29T13:51:44Z</time>
      </trkpt>
      <trkpt lat="43.37801" lon="6.77111">
        <ele>1</ele>
        <time>2012-06-29T13:51:48Z</time>
      </trkpt>
      <trkpt lat="43.37806" lon="6.77123">
        <ele>1</ele>
        <time>2012-06-29T13:51:52Z</time>
      </trkpt>
      <trkpt lat="43.37812" lon="6.77134">
        <ele>1</ele>
        <time>2012-06-29T13:51:56Z</time>
      </trkpt>
      <trkpt lat="43.37817" lon="6.77145">
        <ele>1</ele>
        <time>2012-06-29T13:52:00Z</time>
      </trkpt>
      <trkpt lat="43.37823" lon="6.77155">
        <ele>1</ele>
        <time>2012-06-29T13:52:04Z</time>
      </trkpt>
      <trkpt lat="43.37829" lon="6.77165">
        <ele>1</ele>
        <time>2012-06-29T13:52:08Z</time>
      </trkpt>
      <trkpt lat="43.37835" lon="6.77176">
        <ele>1</ele>
        <time>2012-06-29T13:52:12Z</time>
      </trkpt>
      <trkpt lat="43.3784" lon="6.77187">
        <ele>1</ele>
        <time>2012-06-29T13:52:16Z</time>
      </trkpt>
      <trkpt lat="43.37846" lon="6.77197">
        <ele>1</ele>
        <time>2012-06-29T13:52:20Z</time>
      </trkpt>
      <trkpt lat="43.37852" lon="6.77209">
        <ele>1</ele>
        <time>2012-06-29T13:52:24Z</time>
      </trkpt>
      <trkpt lat="43.37857" lon="6.77219">
        <ele>1</ele>
        <time>2012-06-29T13:52:28Z</time>
      </trkpt>
      <trkpt lat="43.37863" lon="6.7723">
        <ele>1</ele>
        <time>2012-06-29T13:52:32Z</time>
      </trkpt>
      <trkpt lat="43.37868" lon="6.77241">
        <ele>1</ele>
        <time>2012-06-29T13:52:36Z</time>
      </trkpt>
      <trkpt lat="43.37873" lon="6.77251">
        <ele>1</ele>
        <time>2012-06-29T13:52:40Z</time>
      </trkpt>
      <trkpt lat="43.37879" lon="6.77261">
        <ele>1</ele>
        <time>2012-06-29T13:52:44Z</time>
      </trkpt>
      <trkpt lat="43.37886" lon="6.7727">
        <ele>1</ele>
        <time>2012-06-29T13:52:48Z</time>
      </trkpt>
      <trkpt lat="43.37892" lon="6.77281">
        <ele>1</ele>
        <time>2012-06-29T13:52:52Z</time>
      </trkpt>
      <trkpt lat="43.37897" lon="6.77292">
        <ele>1</ele>
        <time>2012-06-29T13:52:56Z</time>
      </trkpt>
      <trkpt lat="43.37904" lon="6.77302">
        <ele>1</ele>
        <time>2012-06-29T13:53:01Z</time>
      </trkpt>
      <trkpt lat="43.3791" lon="6.77312">
        <ele>1</ele>
        <time>2012-06-29T13:53:05Z</time>
      </trkpt>
      <trkpt lat="43.37917" lon="6.77323">
        <ele>1</ele>
        <time>2012-06-29T13:53:10Z</time>
      </trkpt>
      <trkpt lat="43.37925" lon="6.77335">
        <ele>1</ele>
        <time>2012-06-29T13:53:15Z</time>
      </trkpt>
      <trkpt lat="43.37933" lon="6.77347">
        <ele>1</ele>
        <time>2012-06-29T13:53:20Z</time>
      </trkpt>
      <trkpt lat="43.37939" lon="6.77357">
        <ele>1</ele>
        <time>2012-06-29T13:53:24Z</time>
      </trkpt>
      <trkpt lat="43.37945" lon="6.77368">
        <ele>1</ele>
        <time>2012-06-29T13:53:28Z</time>
      </trkpt>
      <trkpt lat="43.3795" lon="6.7738">
        <ele>1</ele>
        <time>2012-06-29T13:53:33Z</time>
      </trkpt>
      <trkpt lat="43.37956" lon="6.77393">
        <ele>1</ele>
        <time>2012-06-29T13:53:38Z</time>
      </trkpt>
      <trkpt lat="43.37962" lon="6.77404">
        <ele>1</ele>
        <time>2012-06-29T13:53:43Z</time>
      </trkpt>
      <trkpt lat="43.37968" lon="6.77414">
        <ele>1</ele>
        <time>2012-06-29T13:53:47Z</time>
      </trkpt>
      <trkpt lat="43.37975" lon="6.77425">
        <ele>1</ele>
        <time>2012-06-29T13:53:52Z</time>
      </trkpt>
      <trkpt lat="43.37981" lon="6.77436">
        <ele>1</ele>
        <time>2012-06-29T13:53:56Z</time>
      </trkpt>
      <trkpt lat="43.37985" lon="6.77447">
        <ele>1</ele>
        <time>2012-06-29T13:54:00Z</time>
      </trkpt>
      <trkpt lat="43.3799" lon="6.77456">
        <ele>1</ele>
        <time>2012-06-29T13:54:04Z</time>
      </trkpt>
      <trkpt lat="43.37996" lon="6.77467">
        <ele>1</ele>
        <time>2012-06-29T13:54:08Z</time>
      </trkpt>
      <trkpt lat="43.38002" lon="6.77478">
        <ele>1</ele>
        <time>2012-06-29T13:54:12Z</time>
      </trkpt>
      <trkpt lat="43.38008" lon="6.77491">
        <ele>1</ele>
        <time>2012-06-29T13:54:17Z</time>
      </trkpt>
      <trkpt lat="43.38013" lon="6.77501">
        <ele>1</ele>
        <time>2012-06-29T13:54:21Z</time>
      </trkpt>
      <trkpt lat="43.38019" lon="6.77514">
        <ele>1</ele>
        <time>2012-06-29T13:54:26Z</time>
      </trkpt>
      <trkpt lat="43.38025" lon="6.77524">
        <ele>1</ele>
        <time>2012-06-29T13:54:30Z</time>
      </trkpt>
      <trkpt lat="43.38029" lon="6.77537">
        <ele>1</ele>
        <time>2012-06-29T13:54:35Z</time>
      </trkpt>
      <trkpt lat="43.38034" lon="6.77548">
        <ele>1</ele>
        <time>2012-06-29T13:54:40Z</time>
      </trkpt>
      <trkpt lat="43.3804" lon="6.77559">
        <ele>1</ele>
        <time>2012-06-29T13:54:45Z</time>
      </trkpt>
      <trkpt lat="43.38046" lon="6.77571">
        <ele>1</ele>
        <time>2012-06-29T13:54:50Z</time>
      </trkpt>
      <trkpt lat="43.38052" lon="6.77583">
        <ele>1</ele>
        <time>2012-06-29T13:54:55Z</time>
      </trkpt>
      <trkpt lat="43.38057" lon="6.77593">
        <ele>1</ele>
        <time>2012-06-29T13:54:59Z</time>
      </trkpt>
      <trkpt lat="43.38063" lon="6.77603">
        <ele>1</ele>
        <time>2012-06-29T13:55:03Z</time>
      </trkpt>
      <trkpt lat="43.38068" lon="6.77613">
        <ele>1</ele>
        <time>2012-06-29T13:55:07Z</time>
      </trkpt>
      <trkpt lat="43.38073" lon="6.77623">
        <ele>1</ele>
        <time>2012-06-29T13:55:11Z</time>
      </trkpt>
      <trkpt lat="43.38078" lon="6.77633">
        <ele>1</ele>
        <time>2012-06-29T13:55:15Z</time>
      </trkpt>
      <trkpt lat="43.38083" lon="6.77643">
        <ele>1</ele>
        <time>2012-06-29T13:55:19Z</time>
      </trkpt>
      <trkpt lat="43.38088" lon="6.77654">
        <ele>1</ele>
        <time>2012-06-29T13:55:23Z</time>
      </trkpt>
      <trkpt lat="43.38093" lon="6.77665">
        <ele>1</ele>
        <time>2012-06-29T13:55:27Z</time>
      </trkpt>
      <trkpt lat="43.38099" lon="6.77676">
        <ele>1</ele>
        <time>2012-06-29T13:55:31Z</time>
      </trkpt>
      <trkpt lat="43.38104" lon="6.77686">
        <ele>1</ele>
        <time>2012-06-29T13:55:35Z</time>
      </trkpt>
      <trkpt lat="43.3811" lon="6.77697">
        <ele>1</ele>
        <time>2012-06-29T13:55:40Z</time>
      </trkpt>
      <trkpt lat="43.38116" lon="6.77707">
        <ele>1</ele>
        <time>2012-06-29T13:55:44Z</time>
      </trkpt>
      <trkpt lat="43.38121" lon="6.77717">
        <ele>1</ele>
        <time>2012-06-29T13:55:48Z</time>
      </trkpt>
      <trkpt lat="43.38126" lon="6.77728">
        <ele>1</ele>
        <time>2012-06-29T13:55:52Z</time>
      </trkpt>
      <trkpt lat="43.38131" lon="6.77739">
        <ele>1</ele>
        <time>2012-06-29T13:55:56Z</time>
      </trkpt>
      <trkpt lat="43.38136" lon="6.77748">
        <ele>1</ele>
        <time>2012-06-29T13:56:00Z</time>
      </trkpt>
      <trkpt lat="43.38141" lon="6.77759">
        <ele>1</ele>
        <time>2012-06-29T13:56:04Z</time>
      </trkpt>
      <trkpt lat="43.38146" lon="6.7777">
        <ele>1</ele>
        <time>2012-06-29T13:56:08Z</time>
      </trkpt>
      <trkpt lat="43.38151" lon="6.7778">
        <ele>1</ele>
        <time>2012-06-29T13:56:12Z</time>
      </trkpt>
      <trkpt lat="43.38156" lon="6.77792">
        <ele>1</ele>
        <time>2012-06-29T13:56:17Z</time>
      </trkpt>
      <trkpt lat="43.38161" lon="6.77801">
        <ele>1</ele>
        <time>2012-06-29T13:56:21Z</time>
      </trkpt>
      <trkpt lat="43.38167" lon="6.77811">
        <ele>1</ele>
        <time>2012-06-29T13:56:25Z</time>
      </trkpt>
      <trkpt lat="43.38172" lon="6.77822">
        <ele>1</ele>
        <time>2012-06-29T13:56:29Z</time>
      </trkpt>
      <trkpt lat="43.38178" lon="6.77834">
        <ele>1</ele>
        <time>2012-06-29T13:56:34Z</time>
      </trkpt>
      <trkpt lat="43.38183" lon="6.77846">
        <ele>1</ele>
        <time>2012-06-29T13:56:39Z</time>
      </trkpt>
      <trkpt lat="43.38188" lon="6.77859">
        <ele>1</ele>
        <time>2012-06-29T13:56:44Z</time>
      </trkpt>
      <trkpt lat="43.38193" lon="6.7787">
        <ele>1</ele>
        <time>2012-06-29T13:56:48Z</time>
      </trkpt>
      <trkpt lat="43.38198" lon="6.7788">
        <ele>1</ele>
        <time>2012-06-29T13:56:52Z</time>
      </trkpt>
      <trkpt lat="43.38203" lon="6.7789">
        <ele>1</ele>
        <time>2012-06-29T13:56:56Z</time>
      </trkpt>
      <trkpt lat="43.38208" lon="6.779">
        <ele>1</ele>
        <time>2012-06-29T13:57:00Z</time>
      </trkpt>
      <trkpt lat="43.38214" lon="6.77913">
        <ele>1</ele>
        <time>2012-06-29T13:57:05Z</time>
      </trkpt>
      <trkpt lat="43.38219" lon="6.77923">
        <ele>1</ele>
        <time>2012-06-29T13:57:09Z</time>
      </trkpt>
      <trkpt lat="43.38225" lon="6.77935">
        <ele>1</ele>
        <time>2012-06-29T13:57:14Z</time>
      </trkpt>
      <trkpt lat="43.3823" lon="6.77946">
        <ele>1</ele>
        <time>2012-06-29T13:57:18Z</time>
      </trkpt>
      <trkpt lat="43.38235" lon="6.77956">
        <ele>1</ele>
        <time>2012-06-29T13:57:22Z</time>
      </trkpt>
      <trkpt lat="43.3824" lon="6.77967">
        <ele>1</ele>
        <time>2012-06-29T13:57:26Z</time>
      </trkpt>
      <trkpt lat="43.38245" lon="6.77977">
        <ele>1</ele>
        <time>2012-06-29T13:57:30Z</time>
      </trkpt>
      <trkpt lat="43.38251" lon="6.77988">
        <ele>1</ele>
        <time>2012-06-29T13:57:34Z</time>
      </trkpt>
      <trkpt lat="43.38256" lon="6.77998">
        <ele>1</ele>
        <time>2012-06-29T13:57:38Z</time>
      </trkpt>
      <trkpt lat="43.3826" lon="6.78009">
        <ele>1</ele>
        <time>2012-06-29T13:57:42Z</time>
      </trkpt>
      <trkpt lat="43.38266" lon="6.78021">
        <ele>1</ele>
        <time>2012-06-29T13:57:47Z</time>
      </trkpt>
      <trkpt lat="43.38272" lon="6.78034">
        <ele>1</ele>
        <time>2012-06-29T13:57:52Z</time>
      </trkpt>
      <trkpt lat="43.38277" lon="6.78046">
        <ele>1</ele>
        <time>2012-06-29T13:57:57Z</time>
      </trkpt>
      <trkpt lat="43.38283" lon="6.78057">
        <ele>1</ele>
        <time>2012-06-29T13:58:02Z</time>
      </trkpt>
      <trkpt lat="43.38288" lon="6.78069">
        <ele>1</ele>
        <time>2012-06-29T13:58:08Z</time>
      </trkpt>
      <trkpt lat="43.38293" lon="6.7808">
        <ele>1</ele>
        <time>2012-06-29T13:58:13Z</time>
      </trkpt>
      <trkpt lat="43.38298" lon="6.78092">
        <ele>1</ele>
        <time>2012-06-29T13:58:18Z</time>
      </trkpt>
      <trkpt lat="43.38303" lon="6.78104">
        <ele>1</ele>
        <time>2012-06-29T13:58:23Z</time>
      </trkpt>
      <trkpt lat="43.38309" lon="6.78116">
        <ele>1</ele>
        <time>2012-06-29T13:58:28Z</time>
      </trkpt>
      <trkpt lat="43.38314" lon="6.78127">
        <ele>1</ele>
        <time>2012-06-29T13:58:33Z</time>
      </trkpt>
      <trkpt lat="43.38319" lon="6.78138">
        <ele>1</ele>
        <time>2012-06-29T13:58:38Z</time>
      </trkpt>
      <trkpt lat="43.38325" lon="6.7815">
        <ele>1</ele>
        <time>2012-06-29T13:58:43Z</time>
      </trkpt>
      <trkpt lat="43.38329" lon="6.78161">
        <ele>1</ele>
        <time>2012-06-29T13:58:48Z</time>
      </trkpt>
      <trkpt lat="43.38334" lon="6.78171">
        <ele>1</ele>
        <time>2012-06-29T13:58:53Z</time>
      </trkpt>
      <trkpt lat="43.3834" lon="6.78182">
        <ele>1</ele>
        <time>2012-06-29T13:58:58Z</time>
      </trkpt>
      <trkpt lat="43.38345" lon="6.78194">
        <ele>1</ele>
        <time>2012-06-29T13:59:03Z</time>
      </trkpt>
      <trkpt lat="43.3835" lon="6.78206">
        <ele>1</ele>
        <time>2012-06-29T13:59:08Z</time>
      </trkpt>
      <trkpt lat="43.38355" lon="6.78216">
        <ele>1</ele>
        <time>2012-06-29T13:59:13Z</time>
      </trkpt>
      <trkpt lat="43.38361" lon="6.78226">
        <ele>1</ele>
        <time>2012-06-29T13:59:18Z</time>
      </trkpt>
      <trkpt lat="43.38367" lon="6.78238">
        <ele>1</ele>
        <time>2012-06-29T13:59:23Z</time>
      </trkpt>
      <trkpt lat="43.38372" lon="6.78251">
        <ele>1</ele>
        <time>2012-06-29T13:59:28Z</time>
      </trkpt>
      <trkpt lat="43.38378" lon="6.78262">
        <ele>1</ele>
        <time>2012-06-29T13:59:33Z</time>
      </trkpt>
      <trkpt lat="43.38383" lon="6.78274">
        <ele>1</ele>
        <time>2012-06-29T13:59:38Z</time>
      </trkpt>
      <trkpt lat="43.38388" lon="6.78285">
        <ele>1</ele>
        <time>2012-06-29T13:59:43Z</time>
      </trkpt>
      <trkpt lat="43.38393" lon="6.78296">
        <ele>1</ele>
        <time>2012-06-29T13:59:48Z</time>
      </trkpt>
      <trkpt lat="43.38399" lon="6.78307">
        <ele>1</ele>
        <time>2012-06-29T13:59:53Z</time>
      </trkpt>
      <trkpt lat="43.38405" lon="6.78319">
        <ele>1</ele>
        <time>2012-06-29T13:59:58Z</time>
      </trkpt>
      <trkpt lat="43.3841" lon="6.78329">
        <ele>1</ele>
        <time>2012-06-29T14:00:02Z</time>
      </trkpt>
      <trkpt lat="43.38415" lon="6.78339">
        <ele>1</ele>
        <time>2012-06-29T14:00:06Z</time>
      </trkpt>
      <trkpt lat="43.3842" lon="6.78348">
        <ele>1</ele>
        <time>2012-06-29T14:00:10Z</time>
      </trkpt>
      <trkpt lat="43.38425" lon="6.78359">
        <ele>1</ele>
        <time>2012-06-29T14:00:14Z</time>
      </trkpt>
      <trkpt lat="43.38431" lon="6.78371">
        <ele>1</ele>
        <time>2012-06-29T14:00:19Z</time>
      </trkpt>
      <trkpt lat="43.38437" lon="6.78383">
        <ele>1</ele>
        <time>2012-06-29T14:00:24Z</time>
      </trkpt>
      <trkpt lat="43.38443" lon="6.78396">
        <ele>1</ele>
        <time>2012-06-29T14:00:29Z</time>
      </trkpt>
      <trkpt lat="43.38447" lon="6.78407">
        <ele>1</ele>
        <time>2012-06-29T14:00:33Z</time>
      </trkpt>
      <trkpt lat="43.38452" lon="6.78418">
        <ele>1</ele>
        <time>2012-06-29T14:00:37Z</time>
      </trkpt>
      <trkpt lat="43.38457" lon="6.78429">
        <ele>1</ele>
        <time>2012-06-29T14:00:41Z</time>
      </trkpt>
      <trkpt lat="43.38462" lon="6.7844">
        <ele>1</ele>
        <time>2012-06-29T14:00:45Z</time>
      </trkpt>
      <trkpt lat="43.38466" lon="6.78451">
        <ele>1</ele>
        <time>2012-06-29T14:00:49Z</time>
      </trkpt>
      <trkpt lat="43.38471" lon="6.78462">
        <ele>1</ele>
        <time>2012-06-29T14:00:53Z</time>
      </trkpt>
      <trkpt lat="43.38476" lon="6.78474">
        <ele>1</ele>
        <time>2012-06-29T14:00:58Z</time>
      </trkpt>
      <trkpt lat="43.38482" lon="6.78487">
        <ele>1</ele>
        <time>2012-06-29T14:01:03Z</time>
      </trkpt>
      <trkpt lat="43.38486" lon="6.78498">
        <ele>1</ele>
        <time>2012-06-29T14:01:08Z</time>
      </trkpt>
      <trkpt lat="43.38492" lon="6.78507">
        <ele>1</ele>
        <time>2012-06-29T14:01:14Z</time>
      </trkpt>
      <trkpt lat="43.38502" lon="6.78507">
        <ele>1</ele>
        <time>2012-06-29T14:01:19Z</time>
      </trkpt>
      <trkpt lat="43.38509" lon="6.78498">
        <ele>1</ele>
        <time>2012-06-29T14:01:23Z</time>
      </trkpt>
      <trkpt lat="43.38515" lon="6.78489">
        <ele>1</ele>
        <time>2012-06-29T14:01:27Z</time>
      </trkpt>
      <trkpt lat="43.38521" lon="6.78479">
        <ele>1</ele>
        <time>2012-06-29T14:01:31Z</time>
      </trkpt>
      <trkpt lat="43.38528" lon="6.7847">
        <ele>1</ele>
        <time>2012-06-29T14:01:35Z</time>
      </trkpt>
      <trkpt lat="43.38538" lon="6.78462">
        <ele>1</ele>
        <time>2012-06-29T14:01:40Z</time>
      </trkpt>
      <trkpt lat="43.38548" lon="6.78454">
        <ele>1</ele>
        <time>2012-06-29T14:01:45Z</time>
      </trkpt>
      <trkpt lat="43.38556" lon="6.78446">
        <ele>1</ele>
        <time>2012-06-29T14:01:49Z</time>
      </trkpt>
      <trkpt lat="43.38563" lon="6.78436">
        <ele>1</ele>
        <time>2012-06-29T14:01:54Z</time>
      </trkpt>
      <trkpt lat="43.3857" lon="6.78425">
        <ele>1</ele>
        <time>2012-06-29T14:01:59Z</time>
      </trkpt>
      <trkpt lat="43.38577" lon="6.78413">
        <ele>1</ele>
        <time>2012-06-29T14:02:05Z</time>
      </trkpt>
      <trkpt lat="43.38583" lon="6.78402">
        <ele>1</ele>
        <time>2012-06-29T14:02:11Z</time>
      </trkpt>
      <trkpt lat="43.38588" lon="6.78392">
        <ele>1</ele>
        <time>2012-06-29T14:02:16Z</time>
      </trkpt>
      <trkpt lat="43.38595" lon="6.78381">
        <ele>1</ele>
        <time>2012-06-29T14:02:22Z</time>
      </trkpt>
      <trkpt lat="43.386" lon="6.78371">
        <ele>1</ele>
        <time>2012-06-29T14:02:27Z</time>
      </trkpt>
      <trkpt lat="43.38608" lon="6.7836">
        <ele>1</ele>
        <time>2012-06-29T14:02:33Z</time>
      </trkpt>
      <trkpt lat="43.38616" lon="6.78353">
        <ele>1</ele>
        <time>2012-06-29T14:02:38Z</time>
      </trkpt>
      <trkpt lat="43.38626" lon="6.78349">
        <ele>1</ele>
        <time>2012-06-29T14:02:43Z</time>
      </trkpt>
      <trkpt lat="43.38637" lon="6.78348">
        <ele>1</ele>
        <time>2012-06-29T14:02:48Z</time>
      </trkpt>
      <trkpt lat="43.38648" lon="6.78347">
        <ele>1</ele>
        <time>2012-06-29T14:02:53Z</time>
      </trkpt>
      <trkpt lat="43.38657" lon="6.78345">
        <ele>1</ele>
        <time>2012-06-29T14:02:57Z</time>
      </trkpt>
      <trkpt lat="43.38667" lon="6.78343">
        <ele>1</ele>
        <time>2012-06-29T14:03:01Z</time>
      </trkpt>
      <trkpt lat="43.38676" lon="6.78341">
        <ele>1</ele>
        <time>2012-06-29T14:03:05Z</time>
      </trkpt>
      <trkpt lat="43.38685" lon="6.78341">
        <ele>1</ele>
        <time>2012-06-29T14:03:09Z</time>
      </trkpt>
      <trkpt lat="43.38695" lon="6.7834">
        <ele>1</ele>
        <time>2012-06-29T14:03:14Z</time>
      </trkpt>
      <trkpt lat="43.38706" lon="6.78338">
        <ele>1</ele>
        <time>2012-06-29T14:03:19Z</time>
      </trkpt>
      <trkpt lat="43.38714" lon="6.78334">
        <ele>1</ele>
        <time>2012-06-29T14:03:23Z</time>
      </trkpt>
      <trkpt lat="43.38723" lon="6.78329">
        <ele>1</ele>
        <time>2012-06-29T14:03:27Z</time>
      </trkpt>
      <trkpt lat="43.38731" lon="6.78321">
        <ele>1</ele>
        <time>2012-06-29T14:03:32Z</time>
      </trkpt>
      <trkpt lat="43.38739" lon="6.78313">
        <ele>1</ele>
        <time>2012-06-29T14:03:37Z</time>
      </trkpt>
      <trkpt lat="43.38747" lon="6.78304">
        <ele>1</ele>
        <time>2012-06-29T14:03:42Z</time>
      </trkpt>
      <trkpt lat="43.38754" lon="6.78295">
        <ele>1</ele>
        <time>2012-06-29T14:03:47Z</time>
      </trkpt>
      <trkpt lat="43.38761" lon="6.78286">
        <ele>1</ele>
        <time>2012-06-29T14:03:52Z</time>
      </trkpt>
      <trkpt lat="43.38769" lon="6.78278">
        <ele>1</ele>
        <time>2012-06-29T14:03:57Z</time>
      </trkpt>
      <trkpt lat="43.38777" lon="6.7827">
        <ele>1</ele>
        <time>2012-06-29T14:04:02Z</time>
      </trkpt>
      <trkpt lat="43.38785" lon="6.78262">
        <ele>1</ele>
        <time>2012-06-29T14:04:07Z</time>
      </trkpt>
      <trkpt lat="43.38794" lon="6.78256">
        <ele>1</ele>
        <time>2012-06-29T14:04:12Z</time>
      </trkpt>
      <trkpt lat="43.38804" lon="6.78256">
        <ele>1</ele>
        <time>2012-06-29T14:04:17Z</time>
      </trkpt>
      <trkpt lat="43.38815" lon="6.78259">
        <ele>1</ele>
        <time>2012-06-29T14:04:22Z</time>
      </trkpt>
      <trkpt lat="43.38824" lon="6.7826">
        <ele>1</ele>
        <time>2012-06-29T14:04:26Z</time>
      </trkpt>
      <trkpt lat="43.38833" lon="6.78263">
        <ele>1</ele>
        <time>2012-06-29T14:04:30Z</time>
      </trkpt>
      <trkpt lat="43.38843" lon="6.78264">
        <ele>1</ele>
        <time>2012-06-29T14:04:34Z</time>
      </trkpt>
      <trkpt lat="43.38853" lon="6.78264">
        <ele>1</ele>
        <time>2012-06-29T14:04:38Z</time>
      </trkpt>
      <trkpt lat="43.38863" lon="6.78263">
        <ele>1</ele>
        <time>2012-06-29T14:04:42Z</time>
      </trkpt>
      <trkpt lat="43.38874" lon="6.78263">
        <ele>1</ele>
        <time>2012-06-29T14:04:46Z</time>
      </trkpt>
      <trkpt lat="43.38883" lon="6.78265">
        <ele>1</ele>
        <time>2012-06-29T14:04:50Z</time>
      </trkpt>
      <trkpt lat="43.38893" lon="6.78266">
        <ele>1</ele>
        <time>2012-06-29T14:04:54Z</time>
      </trkpt>
      <trkpt lat="43.38902" lon="6.78268">
        <ele>1</ele>
        <time>2012-06-29T14:04:58Z</time>
      </trkpt>
      <trkpt lat="43.38912" lon="6.78269">
        <ele>1</ele>
        <time>2012-06-29T14:05:02Z</time>
      </trkpt>
      <trkpt lat="43.38923" lon="6.78264">
        <ele>1</ele>
        <time>2012-06-29T14:05:06Z</time>
      </trkpt>
      <trkpt lat="43.38931" lon="6.78256">
        <ele>1</ele>
        <time>2012-06-29T14:05:10Z</time>
      </trkpt>
      <trkpt lat="43.38939" lon="6.78248">
        <ele>1</ele>
        <time>2012-06-29T14:05:14Z</time>
      </trkpt>
      <trkpt lat="43.38947" lon="6.78239">
        <ele>1</ele>
        <time>2012-06-29T14:05:19Z</time>
      </trkpt>
      <trkpt lat="43.38956" lon="6.7823">
        <ele>1</ele>
        <time>2012-06-29T14:05:24Z</time>
      </trkpt>
      <trkpt lat="43.38964" lon="6.78221">
        <ele>1</ele>
        <time>2012-06-29T14:05:29Z</time>
      </trkpt>
      <trkpt lat="43.38972" lon="6.78211">
        <ele>1</ele>
        <time>2012-06-29T14:05:34Z</time>
      </trkpt>
      <trkpt lat="43.38977" lon="6.782">
        <ele>1</ele>
        <time>2012-06-29T14:05:39Z</time>
      </trkpt>
      <trkpt lat="43.38982" lon="6.78188">
        <ele>6</ele>
        <time>2012-06-29T14:05:45Z</time>
      </trkpt>
      <trkpt lat="43.38986" lon="6.78174">
        <ele>6</ele>
        <time>2012-06-29T14:05:51Z</time>
      </trkpt>
      <trkpt lat="43.38988" lon="6.78161">
        <ele>6</ele>
        <time>2012-06-29T14:05:58Z</time>
      </trkpt>
      <trkpt lat="43.38988" lon="6.78148">
        <ele>6</ele>
        <time>2012-06-29T14:06:04Z</time>
      </trkpt>
      <trkpt lat="43.38991" lon="6.78136">
        <ele>6</ele>
        <time>2012-06-29T14:06:10Z</time>
      </trkpt>
      <trkpt lat="43.38996" lon="6.78124">
        <ele>6</ele>
        <time>2012-06-29T14:06:16Z</time>
      </trkpt>
      <trkpt lat="43.39003" lon="6.78115">
        <ele>6</ele>
        <time>2012-06-29T14:06:21Z</time>
      </trkpt>
      <trkpt lat="43.3901" lon="6.78108">
        <ele>6</ele>
        <time>2012-06-29T14:06:25Z</time>
      </trkpt>
      <trkpt lat="43.39018" lon="6.781">
        <ele>6</ele>
        <time>2012-06-29T14:06:29Z</time>
      </trkpt>
      <trkpt lat="43.39026" lon="6.78092">
        <ele>6</ele>
        <time>2012-06-29T14:06:33Z</time>
      </trkpt>
      <trkpt lat="43.39034" lon="6.78085">
        <ele>6</ele>
        <time>2012-06-29T14:06:37Z</time>
      </trkpt>
      <trkpt lat="43.39043" lon="6.78079">
        <ele>1</ele>
        <time>2012-06-29T14:06:41Z</time>
      </trkpt>
      <trkpt lat="43.39052" lon="6.78074">
        <ele>1</ele>
        <time>2012-06-29T14:06:45Z</time>
      </trkpt>
      <trkpt lat="43.3906" lon="6.7807">
        <ele>1</ele>
        <time>2012-06-29T14:06:49Z</time>
      </trkpt>
      <trkpt lat="43.3907" lon="6.78065">
        <ele>1</ele>
        <time>2012-06-29T14:06:53Z</time>
      </trkpt>
      <trkpt lat="43.3908" lon="6.78062">
        <ele>1</ele>
        <time>2012-06-29T14:06:57Z</time>
      </trkpt>
      <trkpt lat="43.39091" lon="6.78058">
        <ele>1</ele>
        <time>2012-06-29T14:07:01Z</time>
      </trkpt>
      <trkpt lat="43.39101" lon="6.78056">
        <ele>1</ele>
        <time>2012-06-29T14:07:05Z</time>
      </trkpt>
      <trkpt lat="43.39111" lon="6.78052">
        <ele>1</ele>
        <time>2012-06-29T14:07:09Z</time>
      </trkpt>
      <trkpt lat="43.39121" lon="6.78049">
        <ele>1</ele>
        <time>2012-06-29T14:07:13Z</time>
      </trkpt>
      <trkpt lat="43.3913" lon="6.78044">
        <ele>1</ele>
        <time>2012-06-29T14:07:17Z</time>
      </trkpt>
      <trkpt lat="43.39138" lon="6.78038">
        <ele>1</ele>
        <time>2012-06-29T14:07:21Z</time>
      </trkpt>
      <trkpt lat="43.39148" lon="6.7803">
        <ele>1</ele>
        <time>2012-06-29T14:07:26Z</time>
      </trkpt>
      <trkpt lat="43.39157" lon="6.78023">
        <ele>1</ele>
        <time>2012-06-29T14:07:31Z</time>
      </trkpt>
      <trkpt lat="43.39167" lon="6.78015">
        <ele>1</ele>
        <time>2012-06-29T14:07:36Z</time>
      </trkpt>
      <trkpt lat="43.39176" lon="6.78007">
        <ele>1</ele>
        <time>2012-06-29T14:07:41Z</time>
      </trkpt>
      <trkpt lat="43.39184" lon="6.78">
        <ele>1</ele>
        <time>2012-06-29T14:07:46Z</time>
      </trkpt>
      <trkpt lat="43.39191" lon="6.77992">
        <ele>1</ele>
        <time>2012-06-29T14:07:51Z</time>
      </trkpt>
      <trkpt lat="43.39199" lon="6.77984">
        <ele>1</ele>
        <time>2012-06-29T14:07:56Z</time>
      </trkpt>
      <trkpt lat="43.39206" lon="6.77975">
        <ele>1</ele>
        <time>2012-06-29T14:08:01Z</time>
      </trkpt>
      <trkpt lat="43.39214" lon="6.77966">
        <ele>1</ele>
        <time>2012-06-29T14:08:06Z</time>
      </trkpt>
      <trkpt lat="43.39222" lon="6.77957">
        <ele>1</ele>
        <time>2012-06-29T14:08:11Z</time>
      </trkpt>
      <trkpt lat="43.39229" lon="6.77946">
        <ele>1</ele>
        <time>2012-06-29T14:08:17Z</time>
      </trkpt>
      <trkpt lat="43.39236" lon="6.77937">
        <ele>1</ele>
        <time>2012-06-29T14:08:22Z</time>
      </trkpt>
      <trkpt lat="43.39243" lon="6.77929">
        <ele>1</ele>
        <time>2012-06-29T14:08:27Z</time>
      </trkpt>
      <trkpt lat="43.39252" lon="6.77922">
        <ele>1</ele>
        <time>2012-06-29T14:08:32Z</time>
      </trkpt>
      <trkpt lat="43.39261" lon="6.77916">
        <ele>1</ele>
        <time>2012-06-29T14:08:37Z</time>
      </trkpt>
      <trkpt lat="43.3927" lon="6.77913">
        <ele>1</ele>
        <time>2012-06-29T14:08:41Z</time>
      </trkpt>
      <trkpt lat="43.39279" lon="6.77907">
        <ele>1</ele>
        <time>2012-06-29T14:08:45Z</time>
      </trkpt>
      <trkpt lat="43.39287" lon="6.77899">
        <ele>1</ele>
        <time>2012-06-29T14:08:50Z</time>
      </trkpt>
      <trkpt lat="43.39295" lon="6.77892">
        <ele>1</ele>
        <time>2012-06-29T14:08:55Z</time>
      </trkpt>
      <trkpt lat="43.39303" lon="6.77885">
        <ele>1</ele>
        <time>2012-06-29T14:09:00Z</time>
      </trkpt>
      <trkpt lat="43.39313" lon="6.77878">
        <ele>1</ele>
        <time>2012-06-29T14:09:05Z</time>
      </trkpt>
      <trkpt lat="43.39322" lon="6.77873">
        <ele>1</ele>
        <time>2012-06-29T14:09:09Z</time>
      </trkpt>
      <trkpt lat="43.3933" lon="6.77868">
        <ele>1</ele>
        <time>2012-06-29T14:09:13Z</time>
      </trkpt>
      <trkpt lat="43.39339" lon="6.77862">
        <ele>1</ele>
        <time>2012-06-29T14:09:17Z</time>
      </trkpt>
      <trkpt lat="43.39347" lon="6.77856">
        <ele>1</ele>
        <time>2012-06-29T14:09:21Z</time>
      </trkpt>
      <trkpt lat="43.39355" lon="6.7785">
        <ele>1</ele>
        <time>2012-06-29T14:09:25Z</time>
      </trkpt>
      <trkpt lat="43.39364" lon="6.77844">
        <ele>1</ele>
        <time>2012-06-29T14:09:29Z</time>
      </trkpt>
      <trkpt lat="43.39373" lon="6.77838">
        <ele>1</ele>
        <time>2012-06-29T14:09:33Z</time>
      </trkpt>
      <trkpt lat="43.39381" lon="6.77834">
        <ele>1</ele>
        <time>2012-06-29T14:09:37Z</time>
      </trkpt>
      <trkpt lat="43.3939" lon="6.77829">
        <ele>1</ele>
        <time>2012-06-29T14:09:41Z</time>
      </trkpt>
      <trkpt lat="43.39399" lon="6.77827">
        <ele>1</ele>
        <time>2012-06-29T14:09:45Z</time>
      </trkpt>
      <trkpt lat="43.39408" lon="6.77823">
        <ele>1</ele>
        <time>2012-06-29T14:09:49Z</time>
      </trkpt>
      <trkpt lat="43.39417" lon="6.7782">
        <ele>1</ele>
        <time>2012-06-29T14:09:53Z</time>
      </trkpt>
      <trkpt lat="43.39427" lon="6.77818">
        <ele>1</ele>
        <time>2012-06-29T14:09:57Z</time>
      </trkpt>
      <trkpt lat="43.39436" lon="6.77818">
        <ele>1</ele>
        <time>2012-06-29T14:10:01Z</time>
      </trkpt>
      <trkpt lat="43.39447" lon="6.77818">
        <ele>1</ele>
        <time>2012-06-29T14:10:05Z</time>
      </trkpt>
      <trkpt lat="43.39457" lon="6.77819">
        <ele>1</ele>
        <time>2012-06-29T14:10:09Z</time>
      </trkpt>
      <trkpt lat="43.39467" lon="6.77818">
        <ele>1</ele>
        <time>2012-06-29T14:10:13Z</time>
      </trkpt>
      <trkpt lat="43.39478" lon="6.77816">
        <ele>1</ele>
        <time>2012-06-29T14:10:17Z</time>
      </trkpt>
      <trkpt lat="43.39487" lon="6.77816">
        <ele>1</ele>
        <time>2012-06-29T14:10:21Z</time>
      </trkpt>
      <trkpt lat="43.39499" lon="6.77814">
        <ele>1</ele>
        <time>2012-06-29T14:10:25Z</time>
      </trkpt>
      <trkpt lat="43.39508" lon="6.77813">
        <ele>1</ele>
        <time>2012-06-29T14:10:29Z</time>
      </trkpt>
      <trkpt lat="43.39519" lon="6.77811">
        <ele>1</ele>
        <time>2012-06-29T14:10:33Z</time>
      </trkpt>
      <trkpt lat="43.39529" lon="6.77811">
        <ele>1</ele>
        <time>2012-06-29T14:10:37Z</time>
      </trkpt>
      <trkpt lat="43.3954" lon="6.7781">
        <ele>1</ele>
        <time>2012-06-29T14:10:41Z</time>
      </trkpt>
      <trkpt lat="43.3955" lon="6.77809">
        <ele>1</ele>
        <time>2012-06-29T14:10:45Z</time>
      </trkpt>
      <trkpt lat="43.39561" lon="6.77809">
        <ele>1</ele>
        <time>2012-06-29T14:10:49Z</time>
      </trkpt>
      <trkpt lat="43.39572" lon="6.77808">
        <ele>1</ele>
        <time>2012-06-29T14:10:53Z</time>
      </trkpt>
      <trkpt lat="43.39582" lon="6.77807">
        <ele>1</ele>
        <time>2012-06-29T14:10:57Z</time>
      </trkpt>
      <trkpt lat="43.39592" lon="6.77804">
        <ele>1</ele>
        <time>2012-06-29T14:11:01Z</time>
      </trkpt>
      <trkpt lat="43.39603" lon="6.77803">
        <ele>1</ele>
        <time>2012-06-29T14:11:05Z</time>
      </trkpt>
      <trkpt lat="43.39614" lon="6.77803">
        <ele>1</ele>
        <time>2012-06-29T14:11:09Z</time>
      </trkpt>
      <trkpt lat="43.39624" lon="6.77802">
        <ele>1</ele>
        <time>2012-06-29T14:11:13Z</time>
      </trkpt>
      <trkpt lat="43.39634" lon="6.77801">
        <ele>1</ele>
        <time>2012-06-29T14:11:17Z</time>
      </trkpt>
      <trkpt lat="43.39645" lon="6.778">
        <ele>1</ele>
        <time>2012-06-29T14:11:21Z</time>
      </trkpt>
      <trkpt lat="43.39655" lon="6.778">
        <ele>1</ele>
        <time>2012-06-29T14:11:25Z</time>
      </trkpt>
      <trkpt lat="43.39666" lon="6.778">
        <ele>1</ele>
        <time>2012-06-29T14:11:29Z</time>
      </trkpt>
      <trkpt lat="43.39676" lon="6.778">
        <ele>1</ele>
        <time>2012-06-29T14:11:33Z</time>
      </trkpt>
      <trkpt lat="43.39685" lon="6.778">
        <ele>1</ele>
        <time>2012-06-29T14:11:37Z</time>
      </trkpt>
      <trkpt lat="43.39694" lon="6.778">
        <ele>1</ele>
        <time>2012-06-29T14:11:41Z</time>
      </trkpt>
      <trkpt lat="43.39704" lon="6.778">
        <ele>1</ele>
        <time>2012-06-29T14:11:45Z</time>
      </trkpt>
      <trkpt lat="43.39713" lon="6.77802">
        <ele>1</ele>
        <time>2012-06-29T14:11:49Z</time>
      </trkpt>
      <trkpt lat="43.39725" lon="6.77804">
        <ele>1</ele>
        <time>2012-06-29T14:11:54Z</time>
      </trkpt>
      <trkpt lat="43.39734" lon="6.77806">
        <ele>1</ele>
        <time>2012-06-29T14:11:58Z</time>
      </trkpt>
      <trkpt lat="43.39744" lon="6.77807">
        <ele>1</ele>
        <time>2012-06-29T14:12:02Z</time>
      </trkpt>
      <trkpt lat="43.39753" lon="6.77808">
        <ele>1</ele>
        <time>2012-06-29T14:12:06Z</time>
      </trkpt>
      <trkpt lat="43.39763" lon="6.77809">
        <ele>1</ele>
        <time>2012-06-29T14:12:10Z</time>
      </trkpt>
      <trkpt lat="43.39774" lon="6.77809">
        <ele>1</ele>
        <time>2012-06-29T14:12:14Z</time>
      </trkpt>
      <trkpt lat="43.39785" lon="6.77809">
        <ele>1</ele>
        <time>2012-06-29T14:12:18Z</time>
      </trkpt>
      <trkpt lat="43.39795" lon="6.77807">
        <ele>1</ele>
        <time>2012-06-29T14:12:22Z</time>
      </trkpt>
      <trkpt lat="43.39805" lon="6.77807">
        <ele>1</ele>
        <time>2012-06-29T14:12:26Z</time>
      </trkpt>
      <trkpt lat="43.39815" lon="6.77808">
        <ele>1</ele>
        <time>2012-06-29T14:12:30Z</time>
      </trkpt>
      <trkpt lat="43.39825" lon="6.77809">
        <ele>1</ele>
        <time>2012-06-29T14:12:34Z</time>
      </trkpt>
      <trkpt lat="43.39835" lon="6.7781">
        <ele>1</ele>
        <time>2012-06-29T14:12:38Z</time>
      </trkpt>
      <trkpt lat="43.39845" lon="6.77811">
        <ele>1</ele>
        <time>2012-06-29T14:12:42Z</time>
      </trkpt>
      <trkpt lat="43.39854" lon="6.77813">
        <ele>1</ele>
        <time>2012-06-29T14:12:46Z</time>
      </trkpt>
      <trkpt lat="43.39865" lon="6.77815">
        <ele>1</ele>
        <time>2012-06-29T14:12:50Z</time>
      </trkpt>
      <trkpt lat="43.39876" lon="6.77817">
        <ele>1</ele>
        <time>2012-06-29T14:12:54Z</time>
      </trkpt>
      <trkpt lat="43.39886" lon="6.77818">
        <ele>1</ele>
        <time>2012-06-29T14:12:58Z</time>
      </trkpt>
      <trkpt lat="43.39895" lon="6.77818">
        <ele>1</ele>
        <time>2012-06-29T14:13:02Z</time>
      </trkpt>
      <trkpt lat="43.39905" lon="6.77821">
        <ele>1</ele>
        <time>2012-06-29T14:13:06Z</time>
      </trkpt>
      <trkpt lat="43.39915" lon="6.77822">
        <ele>1</ele>
        <time>2012-06-29T14:13:10Z</time>
      </trkpt>
      <trkpt lat="43.39924" lon="6.77823">
        <ele>1</ele>
        <time>2012-06-29T14:13:14Z</time>
      </trkpt>
      <trkpt lat="43.39935" lon="6.77823">
        <ele>1</ele>
        <time>2012-06-29T14:13:18Z</time>
      </trkpt>
      <trkpt lat="43.39946" lon="6.77822">
        <ele>1</ele>
        <time>2012-06-29T14:13:22Z</time>
      </trkpt>
      <trkpt lat="43.39956" lon="6.77822">
        <ele>1</ele>
        <time>2012-06-29T14:13:26Z</time>
      </trkpt>
      <trkpt lat="43.39965" lon="6.77823">
        <ele>1</ele>
        <time>2012-06-29T14:13:29Z</time>
      </trkpt>
      <trkpt lat="43.39977" lon="6.77821">
        <ele>1</ele>
        <time>2012-06-29T14:13:33Z</time>
      </trkpt>
      <trkpt lat="43.39987" lon="6.77819">
        <ele>1</ele>
        <time>2012-06-29T14:13:37Z</time>
      </trkpt>
      <trkpt lat="43.39998" lon="6.77818">
        <ele>1</ele>
        <time>2012-06-29T14:13:41Z</time>
      </trkpt>
      <trkpt lat="43.40008" lon="6.77816">
        <ele>1</ele>
        <time>2012-06-29T14:13:45Z</time>
      </trkpt>
      <trkpt lat="43.40019" lon="6.77814">
        <ele>1</ele>
        <time>2012-06-29T14:13:49Z</time>
      </trkpt>
      <trkpt lat="43.40029" lon="6.77813">
        <ele>1</ele>
        <time>2012-06-29T14:13:53Z</time>
      </trkpt>
      <trkpt lat="43.40039" lon="6.77809">
        <ele>1</ele>
        <time>2012-06-29T14:13:57Z</time>
      </trkpt>
      <trkpt lat="43.40049" lon="6.77808">
        <ele>1</ele>
        <time>2012-06-29T14:14:01Z</time>
      </trkpt>
      <trkpt lat="43.40059" lon="6.77807">
        <ele>1</ele>
        <time>2012-06-29T14:14:05Z</time>
      </trkpt>
      <trkpt lat="43.4007" lon="6.77806">
        <ele>1</ele>
        <time>2012-06-29T14:14:09Z</time>
      </trkpt>
      <trkpt lat="43.4008" lon="6.77805">
        <ele>1</ele>
        <time>2012-06-29T14:14:13Z</time>
      </trkpt>
      <trkpt lat="43.40089" lon="6.77805">
        <ele>1</ele>
        <time>2012-06-29T14:14:17Z</time>
      </trkpt>
      <trkpt lat="43.40099" lon="6.77806">
        <ele>1</ele>
        <time>2012-06-29T14:14:21Z</time>
      </trkpt>
      <trkpt lat="43.4011" lon="6.77808">
        <ele>1</ele>
        <time>2012-06-29T14:14:25Z</time>
      </trkpt>
      <trkpt lat="43.40121" lon="6.77807">
        <ele>1</ele>
        <time>2012-06-29T14:14:29Z</time>
      </trkpt>
      <trkpt lat="43.40131" lon="6.77806">
        <ele>1</ele>
        <time>2012-06-29T14:14:33Z</time>
      </trkpt>
      <trkpt lat="43.40142" lon="6.77805">
        <ele>1</ele>
        <time>2012-06-29T14:14:37Z</time>
      </trkpt>
      <trkpt lat="43.40152" lon="6.77805">
        <ele>1</ele>
        <time>2012-06-29T14:14:41Z</time>
      </trkpt>
      <trkpt lat="43.40162" lon="6.77804">
        <ele>1</ele>
        <time>2012-06-29T14:14:45Z</time>
      </trkpt>
      <trkpt lat="43.40173" lon="6.77805">
        <ele>1</ele>
        <time>2012-06-29T14:14:49Z</time>
      </trkpt>
      <trkpt lat="43.40184" lon="6.77805">
        <ele>1</ele>
        <time>2012-06-29T14:14:53Z</time>
      </trkpt>
      <trkpt lat="43.40195" lon="6.77804">
        <ele>1</ele>
        <time>2012-06-29T14:14:57Z</time>
      </trkpt>
      <trkpt lat="43.40206" lon="6.77803">
        <ele>1</ele>
        <time>2012-06-29T14:15:01Z</time>
      </trkpt>
      <trkpt lat="43.40217" lon="6.77804">
        <ele>1</ele>
        <time>2012-06-29T14:15:05Z</time>
      </trkpt>
      <trkpt lat="43.40226" lon="6.77806">
        <ele>1</ele>
        <time>2012-06-29T14:15:09Z</time>
      </trkpt>
      <trkpt lat="43.40237" lon="6.77809">
        <ele>1</ele>
        <time>2012-06-29T14:15:13Z</time>
      </trkpt>
      <trkpt lat="43.40247" lon="6.77811">
        <ele>1</ele>
        <time>2012-06-29T14:15:17Z</time>
      </trkpt>
      <trkpt lat="43.40257" lon="6.77814">
        <ele>1</ele>
        <time>2012-06-29T14:15:21Z</time>
      </trkpt>
      <trkpt lat="43.40267" lon="6.77817">
        <ele>1</ele>
        <time>2012-06-29T14:15:25Z</time>
      </trkpt>
      <trkpt lat="43.40277" lon="6.77818">
        <ele>1</ele>
        <time>2012-06-29T14:15:29Z</time>
      </trkpt>
      <trkpt lat="43.40287" lon="6.77821">
        <ele>1</ele>
        <time>2012-06-29T14:15:33Z</time>
      </trkpt>
      <trkpt lat="43.40298" lon="6.77825">
        <ele>1</ele>
        <time>2012-06-29T14:15:37Z</time>
      </trkpt>
      <trkpt lat="43.40309" lon="6.77828">
        <ele>1</ele>
        <time>2012-06-29T14:15:41Z</time>
      </trkpt>
      <trkpt lat="43.40319" lon="6.77832">
        <ele>1</ele>
        <time>2012-06-29T14:15:45Z</time>
      </trkpt>
      <trkpt lat="43.40329" lon="6.77835">
        <ele>1</ele>
        <time>2012-06-29T14:15:49Z</time>
      </trkpt>
      <trkpt lat="43.4034" lon="6.77837">
        <ele>1</ele>
        <time>2012-06-29T14:15:53Z</time>
      </trkpt>
      <trkpt lat="43.4035" lon="6.77842">
        <ele>1</ele>
        <time>2012-06-29T14:15:57Z</time>
      </trkpt>
      <trkpt lat="43.40359" lon="6.77844">
        <ele>1</ele>
        <time>2012-06-29T14:16:01Z</time>
      </trkpt>
      <trkpt lat="43.40369" lon="6.77847">
        <ele>1</ele>
        <time>2012-06-29T14:16:06Z</time>
      </trkpt>
      <trkpt lat="43.4038" lon="6.77848">
        <ele>1</ele>
        <time>2012-06-29T14:16:10Z</time>
      </trkpt>
      <trkpt lat="43.40389" lon="6.77851">
        <ele>1</ele>
        <time>2012-06-29T14:16:14Z</time>
      </trkpt>
      <trkpt lat="43.40399" lon="6.77853">
        <ele>1</ele>
        <time>2012-06-29T14:16:18Z</time>
      </trkpt>
      <trkpt lat="43.40408" lon="6.77855">
        <ele>1</ele>
        <time>2012-06-29T14:16:22Z</time>
      </trkpt>
      <trkpt lat="43.40418" lon="6.77857">
        <ele>1</ele>
        <time>2012-06-29T14:16:26Z</time>
      </trkpt>
      <trkpt lat="43.40429" lon="6.77861">
        <ele>1</ele>
        <time>2012-06-29T14:16:30Z</time>
      </trkpt>
      <trkpt lat="43.40439" lon="6.77863">
        <ele>1</ele>
        <time>2012-06-29T14:16:34Z</time>
      </trkpt>
      <trkpt lat="43.4045" lon="6.77866">
        <ele>1</ele>
        <time>2012-06-29T14:16:38Z</time>
      </trkpt>
      <trkpt lat="43.40461" lon="6.7787">
        <ele>1</ele>
        <time>2012-06-29T14:16:42Z</time>
      </trkpt>
      <trkpt lat="43.40471" lon="6.77872">
        <ele>1</ele>
        <time>2012-06-29T14:16:46Z</time>
      </trkpt>
      <trkpt lat="43.40482" lon="6.77876">
        <ele>6</ele>
        <time>2012-06-29T14:16:50Z</time>
      </trkpt>
      <trkpt lat="43.40491" lon="6.7788">
        <ele>6</ele>
        <time>2012-06-29T14:16:53Z</time>
      </trkpt>
      <trkpt lat="43.40499" lon="6.77883">
        <ele>6</ele>
        <time>2012-06-29T14:16:56Z</time>
      </trkpt>
      <trkpt lat="43.40511" lon="6.77887">
        <ele>6</ele>
        <time>2012-06-29T14:17:00Z</time>
      </trkpt>
      <trkpt lat="43.40521" lon="6.7789">
        <ele>6</ele>
        <time>2012-06-29T14:17:04Z</time>
      </trkpt>
      <trkpt lat="43.40531" lon="6.77894">
        <ele>6</ele>
        <time>2012-06-29T14:17:08Z</time>
      </trkpt>
      <trkpt lat="43.4054" lon="6.77897">
        <ele>6</ele>
        <time>2012-06-29T14:17:12Z</time>
      </trkpt>
      <trkpt lat="43.4055" lon="6.77899">
        <ele>6</ele>
        <time>2012-06-29T14:17:16Z</time>
      </trkpt>
      <trkpt lat="43.40559" lon="6.77902">
        <ele>6</ele>
        <time>2012-06-29T14:17:20Z</time>
      </trkpt>
      <trkpt lat="43.40568" lon="6.77905">
        <ele>6</ele>
        <time>2012-06-29T14:17:24Z</time>
      </trkpt>
      <trkpt lat="43.40578" lon="6.77908">
        <ele>6</ele>
        <time>2012-06-29T14:17:28Z</time>
      </trkpt>
      <trkpt lat="43.40588" lon="6.77911">
        <ele>6</ele>
        <time>2012-06-29T14:17:32Z</time>
      </trkpt>
      <trkpt lat="43.40599" lon="6.77915">
        <ele>6</ele>
        <time>2012-06-29T14:17:36Z</time>
      </trkpt>
      <trkpt lat="43.4061" lon="6.77918">
        <ele>6</ele>
        <time>2012-06-29T14:17:40Z</time>
      </trkpt>
      <trkpt lat="43.4062" lon="6.77922">
        <ele>6</ele>
        <time>2012-06-29T14:17:44Z</time>
      </trkpt>
      <trkpt lat="43.4063" lon="6.77927">
        <ele>6</ele>
        <time>2012-06-29T14:17:48Z</time>
      </trkpt>
      <trkpt lat="43.4064" lon="6.77932">
        <ele>6</ele>
        <time>2012-06-29T14:17:52Z</time>
      </trkpt>
      <trkpt lat="43.4065" lon="6.77937">
        <ele>6</ele>
        <time>2012-06-29T14:17:56Z</time>
      </trkpt>
      <trkpt lat="43.4066" lon="6.77943">
        <ele>6</ele>
        <time>2012-06-29T14:18:00Z</time>
      </trkpt>
      <trkpt lat="43.40668" lon="6.7795">
        <ele>6</ele>
        <time>2012-06-29T14:18:04Z</time>
      </trkpt>
      <trkpt lat="43.40678" lon="6.77955">
        <time>2012-06-29T14:18:08Z</time>
      </trkpt>
      <trkpt lat="43.40686" lon="6.77962">
        <time>2012-06-29T14:18:12Z</time>
      </trkpt>
      <trkpt lat="43.40693" lon="6.77969">
        <time>2012-06-29T14:18:16Z</time>
      </trkpt>
      <trkpt lat="43.40702" lon="6.77976">
        <time>2012-06-29T14:18:20Z</time>
      </trkpt>
      <trkpt lat="43.40714" lon="6.77975">
        <time>2012-06-29T14:18:24Z</time>
      </trkpt>
      <trkpt lat="43.40722" lon="6.77971">
        <time>2012-06-29T14:18:27Z</time>
      </trkpt>
      <trkpt lat="43.40731" lon="6.77965">
        <time>2012-06-29T14:18:31Z</time>
      </trkpt>
      <trkpt lat="43.40739" lon="6.77957">
        <time>2012-06-29T14:18:35Z</time>
      </trkpt>
      <trkpt lat="43.40747" lon="6.77951">
        <time>2012-06-29T14:18:39Z</time>
      </trkpt>
      <trkpt lat="43.40754" lon="6.77943">
        <time>2012-06-29T14:18:43Z</time>
      </trkpt>
      <trkpt lat="43.40761" lon="6.77936">
        <time>2012-06-29T14:18:47Z</time>
      </trkpt>
      <trkpt lat="43.40769" lon="6.77929">
        <time>2012-06-29T14:18:51Z</time>
      </trkpt>
      <trkpt lat="43.40777" lon="6.77922">
        <time>2012-06-29T14:18:55Z</time>
      </trkpt>
      <trkpt lat="43.40784" lon="6.77915">
        <time>2012-06-29T14:18:59Z</time>
      </trkpt>
      <trkpt lat="43.40792" lon="6.77906">
        <time>2012-06-29T14:19:03Z</time>
      </trkpt>
      <trkpt lat="43.40799" lon="6.77899">
        <time>2012-06-29T14:19:07Z</time>
      </trkpt>
      <trkpt lat="43.40807" lon="6.77892">
        <time>2012-06-29T14:19:11Z</time>
      </trkpt>
      <trkpt lat="43.40815" lon="6.77885">
        <time>2012-06-29T14:19:15Z</time>
      </trkpt>
      <trkpt lat="43.40822" lon="6.77877">
        <time>2012-06-29T14:19:19Z</time>
      </trkpt>
      <trkpt lat="43.4083" lon="6.77867">
        <time>2012-06-29T14:19:24Z</time>
      </trkpt>
      <trkpt lat="43.40838" lon="6.77857">
        <time>2012-06-29T14:19:29Z</time>
      </trkpt>
      <trkpt lat="43.40847" lon="6.77847">
        <time>2012-06-29T14:19:34Z</time>
      </trkpt>
      <trkpt lat="43.40854" lon="6.77837">
        <time>2012-06-29T14:19:39Z</time>
      </trkpt>
      <trkpt lat="43.40861" lon="6.77828">
        <time>2012-06-29T14:19:43Z</time>
      </trkpt>
      <trkpt lat="43.40868" lon="6.77819">
        <time>2012-06-29T14:19:47Z</time>
      </trkpt>
      <trkpt lat="43.40875" lon="6.77811">
        <time>2012-06-29T14:19:51Z</time>
      </trkpt>
      <trkpt lat="43.40882" lon="6.77803">
        <time>2012-06-29T14:19:55Z</time>
      </trkpt>
      <trkpt lat="43.4089" lon="6.77795">
        <time>2012-06-29T14:19:59Z</time>
      </trkpt>
      <trkpt lat="43.40898" lon="6.77787">
        <time>2012-06-29T14:20:03Z</time>
      </trkpt>
      <trkpt lat="43.40906" lon="6.7778">
        <time>2012-06-29T14:20:07Z</time>
      </trkpt>
      <trkpt lat="43.40913" lon="6.77772">
        <time>2012-06-29T14:20:11Z</time>
      </trkpt>
      <trkpt lat="43.4092" lon="6.77765">
        <time>2012-06-29T14:20:15Z</time>
      </trkpt>
      <trkpt lat="43.40928" lon="6.77757">
        <time>2012-06-29T14:20:19Z</time>
      </trkpt>
      <trkpt lat="43.40936" lon="6.7775">
        <time>2012-06-29T14:20:23Z</time>
      </trkpt>
      <trkpt lat="43.40943" lon="6.77743">
        <time>2012-06-29T14:20:27Z</time>
      </trkpt>
      <trkpt lat="43.40952" lon="6.77735">
        <time>2012-06-29T14:20:32Z</time>
      </trkpt>
      <trkpt lat="43.4096" lon="6.77729">
        <time>2012-06-29T14:20:36Z</time>
      </trkpt>
      <trkpt lat="43.40968" lon="6.77722">
        <time>2012-06-29T14:20:40Z</time>
      </trkpt>
      <trkpt lat="43.40976" lon="6.77716">
        <time>2012-06-29T14:20:44Z</time>
      </trkpt>
      <trkpt lat="43.40986" lon="6.7771">
        <time>2012-06-29T14:20:48Z</time>
      </trkpt>
      <trkpt lat="43.40996" lon="6.77705">
        <time>2012-06-29T14:20:52Z</time>
      </trkpt>
      <trkpt lat="43.41006" lon="6.77703">
        <time>2012-06-29T14:20:56Z</time>
      </trkpt>
      <trkpt lat="43.41016" lon="6.77703">
        <time>2012-06-29T14:21:00Z</time>
      </trkpt>
      <trkpt lat="43.41025" lon="6.77702">
        <time>2012-06-29T14:21:04Z</time>
      </trkpt>
      <trkpt lat="43.41035" lon="6.77702">
        <time>2012-06-29T14:21:08Z</time>
      </trkpt>
      <trkpt lat="43.41046" lon="6.77701">
        <time>2012-06-29T14:21:12Z</time>
      </trkpt>
      <trkpt lat="43.41057" lon="6.777">
        <time>2012-06-29T14:21:16Z</time>
      </trkpt>
      <trkpt lat="43.41067" lon="6.77698">
        <time>2012-06-29T14:21:20Z</time>
      </trkpt>
      <trkpt lat="43.41078" lon="6.77696">
        <time>2012-06-29T14:21:24Z</time>
      </trkpt>
      <trkpt lat="43.41088" lon="6.77694">
        <time>2012-06-29T14:21:28Z</time>
      </trkpt>
      <trkpt lat="43.41099" lon="6.77694">
        <time>2012-06-29T14:21:32Z</time>
      </trkpt>
      <trkpt lat="43.4111" lon="6.77694">
        <time>2012-06-29T14:21:36Z</time>
      </trkpt>
      <trkpt lat="43.4112" lon="6.77692">
        <time>2012-06-29T14:21:40Z</time>
      </trkpt>
      <trkpt lat="43.41132" lon="6.7769">
        <time>2012-06-29T14:21:44Z</time>
      </trkpt>
      <trkpt lat="43.41141" lon="6.77691">
        <time>2012-06-29T14:21:48Z</time>
      </trkpt>
      <trkpt lat="43.4115" lon="6.77693">
        <time>2012-06-29T14:21:52Z</time>
      </trkpt>
      <trkpt lat="43.41161" lon="6.77696">
        <time>2012-06-29T14:21:58Z</time>
      </trkpt>
      <trkpt lat="43.4117" lon="6.77701">
        <time>2012-06-29T14:22:04Z</time>
      </trkpt>
      <trkpt lat="43.41181" lon="6.777">
        <time>2012-06-29T14:22:09Z</time>
      </trkpt>
      <trkpt lat="43.4119" lon="6.77694">
        <time>2012-06-29T14:22:14Z</time>
      </trkpt>
      <trkpt lat="43.41198" lon="6.77685">
        <time>2012-06-29T14:22:19Z</time>
      </trkpt>
      <trkpt lat="43.41202" lon="6.77673">
        <time>2012-06-29T14:22:24Z</time>
      </trkpt>
      <trkpt lat="43.41205" lon="6.77661">
        <time>2012-06-29T14:22:29Z</time>
      </trkpt>
      <trkpt lat="43.41208" lon="6.77648">
        <time>2012-06-29T14:22:34Z</time>
      </trkpt>
      <trkpt lat="43.41212" lon="6.77634">
        <time>2012-06-29T14:22:39Z</time>
      </trkpt>
      <trkpt lat="43.41215" lon="6.77621">
        <time>2012-06-29T14:22:44Z</time>
      </trkpt>
      <trkpt lat="43.41217" lon="6.77608">
        <time>2012-06-29T14:22:48Z</time>
      </trkpt>
      <trkpt lat="43.41217" lon="6.77595">
        <time>2012-06-29T14:22:52Z</time>
      </trkpt>
      <trkpt lat="43.41217" lon="6.77581">
        <time>2012-06-29T14:22:56Z</time>
      </trkpt>
      <trkpt lat="43.41217" lon="6.77567">
        <time>2012-06-29T14:23:00Z</time>
      </trkpt>
      <trkpt lat="43.41218" lon="6.77552">
        <time>2012-06-29T14:23:04Z</time>
      </trkpt>
      <trkpt lat="43.41218" lon="6.77537">
        <time>2012-06-29T14:23:08Z</time>
      </trkpt>
      <trkpt lat="43.41219" lon="6.77523">
        <time>2012-06-29T14:23:12Z</time>
      </trkpt>
      <trkpt lat="43.4122" lon="6.77508">
        <time>2012-06-29T14:23:16Z</time>
      </trkpt>
      <trkpt lat="43.4122" lon="6.77492">
        <time>2012-06-29T14:23:20Z</time>
      </trkpt>
      <trkpt lat="43.4122" lon="6.77477">
        <time>2012-06-29T14:23:24Z</time>
      </trkpt>
      <trkpt lat="43.41219" lon="6.77463">
        <time>2012-06-29T14:23:28Z</time>
      </trkpt>
      <trkpt lat="43.41219" lon="6.77448">
        <time>2012-06-29T14:23:32Z</time>
      </trkpt>
      <trkpt lat="43.41221" lon="6.77435">
        <time>2012-06-29T14:23:36Z</time>
      </trkpt>
      <trkpt lat="43.41221" lon="6.77421">
        <time>2012-06-29T14:23:40Z</time>
      </trkpt>
      <trkpt lat="43.41221" lon="6.77408">
        <time>2012-06-29T14:23:44Z</time>
      </trkpt>
      <trkpt lat="43.41222" lon="6.77395">
        <time>2012-06-29T14:23:48Z</time>
      </trkpt>
      <trkpt lat="43.41226" lon="6.77384">
        <time>2012-06-29T14:23:52Z</time>
      </trkpt>
      <trkpt lat="43.41231" lon="6.77373">
        <time>2012-06-29T14:23:56Z</time>
      </trkpt>
      <trkpt lat="43.41236" lon="6.7736">
        <time>2012-06-29T14:24:01Z</time>
      </trkpt>
      <trkpt lat="43.41241" lon="6.7735">
        <time>2012-06-29T14:24:05Z</time>
      </trkpt>
      <trkpt lat="43.41246" lon="6.7734">
        <time>2012-06-29T14:24:09Z</time>
      </trkpt>
      <trkpt lat="43.41252" lon="6.77329">
        <time>2012-06-29T14:24:13Z</time>
      </trkpt>
      <trkpt lat="43.41259" lon="6.77319">
        <time>2012-06-29T14:24:17Z</time>
      </trkpt>
      <trkpt lat="43.41266" lon="6.77309">
        <time>2012-06-29T14:24:21Z</time>
      </trkpt>
      <trkpt lat="43.41275" lon="6.77299">
        <time>2012-06-29T14:24:25Z</time>
      </trkpt>
      <trkpt lat="43.41283" lon="6.77291">
        <time>2012-06-29T14:24:29Z</time>
      </trkpt>
      <trkpt lat="43.41292" lon="6.77281">
        <time>2012-06-29T14:24:33Z</time>
      </trkpt>
      <trkpt lat="43.413" lon="6.77271">
        <time>2012-06-29T14:24:37Z</time>
      </trkpt>
      <trkpt lat="43.41308" lon="6.77262">
        <time>2012-06-29T14:24:41Z</time>
      </trkpt>
      <trkpt lat="43.41316" lon="6.77254">
        <time>2012-06-29T14:24:45Z</time>
      </trkpt>
      <trkpt lat="43.41323" lon="6.77244">
        <time>2012-06-29T14:24:49Z</time>
      </trkpt>
      <trkpt lat="43.41329" lon="6.77235">
        <time>2012-06-29T14:24:53Z</time>
      </trkpt>
      <trkpt lat="43.41338" lon="6.77226">
        <time>2012-06-29T14:24:57Z</time>
      </trkpt>
      <trkpt lat="43.41346" lon="6.77219">
        <time>2012-06-29T14:25:01Z</time>
      </trkpt>
      <trkpt lat="43.41357" lon="6.77215">
        <time>2012-06-29T14:25:05Z</time>
      </trkpt>
      <trkpt lat="43.41368" lon="6.7721">
        <time>2012-06-29T14:25:09Z</time>
      </trkpt>
      <trkpt lat="43.41379" lon="6.77207">
        <time>2012-06-29T14:25:13Z</time>
      </trkpt>
      <trkpt lat="43.41391" lon="6.77203">
        <time>2012-06-29T14:25:17Z</time>
      </trkpt>
      <trkpt lat="43.41403" lon="6.772">
        <time>2012-06-29T14:25:21Z</time>
      </trkpt>
      <trkpt lat="43.41412" lon="6.77198">
        <time>2012-06-29T14:25:24Z</time>
      </trkpt>
      <trkpt lat="43.41423" lon="6.77195">
        <time>2012-06-29T14:25:28Z</time>
      </trkpt>
      <trkpt lat="43.41432" lon="6.77193">
        <time>2012-06-29T14:25:31Z</time>
      </trkpt>
      <trkpt lat="43.41443" lon="6.77191">
        <time>2012-06-29T14:25:35Z</time>
      </trkpt>
      <trkpt lat="43.41454" lon="6.77188">
        <time>2012-06-29T14:25:39Z</time>
      </trkpt>
      <trkpt lat="43.41466" lon="6.77184">
        <time>2012-06-29T14:25:43Z</time>
      </trkpt>
      <trkpt lat="43.41477" lon="6.77181">
        <time>2012-06-29T14:25:47Z</time>
      </trkpt>
      <trkpt lat="43.41488" lon="6.77177">
        <time>2012-06-29T14:25:51Z</time>
      </trkpt>
      <trkpt lat="43.41499" lon="6.77172">
        <time>2012-06-29T14:25:55Z</time>
      </trkpt>
      <trkpt lat="43.41507" lon="6.77163">
        <time>2012-06-29T14:25:59Z</time>
      </trkpt>
      <trkpt lat="43.41514" lon="6.77153">
        <time>2012-06-29T14:26:03Z</time>
      </trkpt>
      <trkpt lat="43.41519" lon="6.77143">
        <time>2012-06-29T14:26:07Z</time>
      </trkpt>
      <trkpt lat="43.41523" lon="6.77129">
        <time>2012-06-29T14:26:12Z</time>
      </trkpt>
      <trkpt lat="43.41527" lon="6.77115">
        <time>2012-06-29T14:26:17Z</time>
      </trkpt>
      <trkpt lat="43.41534" lon="6.77105">
        <time>2012-06-29T14:26:21Z</time>
      </trkpt>
      <trkpt lat="43.4154" lon="6.77095">
        <time>2012-06-29T14:26:25Z</time>
      </trkpt>
      <trkpt lat="43.41547" lon="6.77085">
        <time>2012-06-29T14:26:29Z</time>
      </trkpt>
      <trkpt lat="43.41555" lon="6.77074">
        <time>2012-06-29T14:26:34Z</time>
      </trkpt>
      <trkpt lat="43.4156" lon="6.77064">
        <time>2012-06-29T14:26:38Z</time>
      </trkpt>
      <trkpt lat="43.41568" lon="6.77054">
        <time>2012-06-29T14:26:42Z</time>
      </trkpt>
      <trkpt lat="43.41576" lon="6.77043">
        <time>2012-06-29T14:26:47Z</time>
      </trkpt>
      <trkpt lat="43.41585" lon="6.77035">
        <time>2012-06-29T14:26:51Z</time>
      </trkpt>
      <trkpt lat="43.41592" lon="6.77025">
        <time>2012-06-29T14:26:55Z</time>
      </trkpt>
      <trkpt lat="43.41599" lon="6.77014">
        <time>2012-06-29T14:27:00Z</time>
      </trkpt>
      <trkpt lat="43.41606" lon="6.77003">
        <time>2012-06-29T14:27:05Z</time>
      </trkpt>
      <trkpt lat="43.41613" lon="6.76994">
        <time>2012-06-29T14:27:09Z</time>
      </trkpt>
      <trkpt lat="43.41619" lon="6.76985">
        <time>2012-06-29T14:27:13Z</time>
      </trkpt>
      <trkpt lat="43.41627" lon="6.76974">
        <time>2012-06-29T14:27:18Z</time>
      </trkpt>
      <trkpt lat="43.41634" lon="6.76965">
        <time>2012-06-29T14:27:22Z</time>
      </trkpt>
      <trkpt lat="43.4164" lon="6.76956">
        <time>2012-06-29T14:27:26Z</time>
      </trkpt>
      <trkpt lat="43.41647" lon="6.76944">
        <time>2012-06-29T14:27:31Z</time>
      </trkpt>
      <trkpt lat="43.41652" lon="6.76935">
        <time>2012-06-29T14:27:35Z</time>
      </trkpt>
      <trkpt lat="43.41657" lon="6.76922">
        <time>2012-06-29T14:27:40Z</time>
      </trkpt>
      <trkpt lat="43.41662" lon="6.76911">
        <time>2012-06-29T14:27:44Z</time>
      </trkpt>
      <trkpt lat="43.41667" lon="6.76899">
        <time>2012-06-29T14:27:48Z</time>
      </trkpt>
      <trkpt lat="43.4167" lon="6.76887">
        <time>2012-06-29T14:27:52Z</time>
      </trkpt>
      <trkpt lat="43.41674" lon="6.76875">
        <time>2012-06-29T14:27:56Z</time>
      </trkpt>
      <trkpt lat="43.4168" lon="6.76864">
        <time>2012-06-29T14:28:00Z</time>
      </trkpt>
      <trkpt lat="43.41687" lon="6.76853">
        <time>2012-06-29T14:28:05Z</time>
      </trkpt>
      <trkpt lat="43.41692" lon="6.76843">
        <time>2012-06-29T14:28:09Z</time>
      </trkpt>
      <trkpt lat="43.41697" lon="6.76832">
        <time>2012-06-29T14:28:13Z</time>
      </trkpt>
      <trkpt lat="43.41704" lon="6.7682">
        <time>2012-06-29T14:28:18Z</time>
      </trkpt>
      <trkpt lat="43.41708" lon="6.7681">
        <time>2012-06-29T14:28:22Z</time>
      </trkpt>
      <trkpt lat="43.41714" lon="6.768">
        <time>2012-06-29T14:28:26Z</time>
      </trkpt>
      <trkpt lat="43.4172" lon="6.76788">
        <time>2012-06-29T14:28:31Z</time>
      </trkpt>
      <trkpt lat="43.41725" lon="6.76777">
        <time>2012-06-29T14:28:35Z</time>
      </trkpt>
      <trkpt lat="43.41733" lon="6.76767">
        <time>2012-06-29T14:28:40Z</time>
      </trkpt>
      <trkpt lat="43.41741" lon="6.7676">
        <time>2012-06-29T14:28:44Z</time>
      </trkpt>
      <trkpt lat="43.41751" lon="6.76757">
        <time>2012-06-29T14:28:48Z</time>
      </trkpt>
      <trkpt lat="43.41761" lon="6.76751">
        <time>2012-06-29T14:28:52Z</time>
      </trkpt>
      <trkpt lat="43.41769" lon="6.76745">
        <time>2012-06-29T14:28:56Z</time>
      </trkpt>
      <trkpt lat="43.41778" lon="6.7674">
        <time>2012-06-29T14:29:00Z</time>
      </trkpt>
      <trkpt lat="43.41787" lon="6.76736">
        <time>2012-06-29T14:29:04Z</time>
      </trkpt>
      <trkpt lat="43.41795" lon="6.7673">
        <time>2012-06-29T14:29:08Z</time>
      </trkpt>
      <trkpt lat="43.41803" lon="6.76723">
        <time>2012-06-29T14:29:12Z</time>
      </trkpt>
      <trkpt lat="43.41812" lon="6.76719">
        <time>2012-06-29T14:29:16Z</time>
      </trkpt>
      <trkpt lat="43.4182" lon="6.76711">
        <time>2012-06-29T14:29:20Z</time>
      </trkpt>
      <trkpt lat="43.41826" lon="6.76699">
        <time>2012-06-29T14:29:25Z</time>
      </trkpt>
      <trkpt lat="43.4183" lon="6.76687">
        <time>2012-06-29T14:29:30Z</time>
      </trkpt>
      <trkpt lat="43.41835" lon="6.76677">
        <time>2012-06-29T14:29:34Z</time>
      </trkpt>
      <trkpt lat="43.41841" lon="6.76667">
        <time>2012-06-29T14:29:38Z</time>
      </trkpt>
      <trkpt lat="43.41847" lon="6.76657">
        <time>2012-06-29T14:29:42Z</time>
      </trkpt>
      <trkpt lat="43.41853" lon="6.76647">
        <time>2012-06-29T14:29:46Z</time>
      </trkpt>
      <trkpt lat="43.4186" lon="6.76636">
        <time>2012-06-29T14:29:50Z</time>
      </trkpt>
      <trkpt lat="43.41865" lon="6.76623">
        <time>2012-06-29T14:29:54Z</time>
      </trkpt>
      <trkpt lat="43.4187" lon="6.76609">
        <time>2012-06-29T14:29:58Z</time>
      </trkpt>
      <trkpt lat="43.41873" lon="6.76595">
        <time>2012-06-29T14:30:02Z</time>
      </trkpt>
      <trkpt lat="43.41874" lon="6.7658">
        <time>2012-06-29T14:30:06Z</time>
      </trkpt>
      <trkpt lat="43.41877" lon="6.76567">
        <time>2012-06-29T14:30:10Z</time>
      </trkpt>
      <trkpt lat="43.41883" lon="6.76555">
        <time>2012-06-29T14:30:14Z</time>
      </trkpt>
      <trkpt lat="43.41889" lon="6.76544">
        <time>2012-06-29T14:30:18Z</time>
      </trkpt>
      <trkpt lat="43.41894" lon="6.76532">
        <time>2012-06-29T14:30:22Z</time>
      </trkpt>
      <trkpt lat="43.41898" lon="6.76519">
        <time>2012-06-29T14:30:26Z</time>
      </trkpt>
      <trkpt lat="43.419" lon="6.76505">
        <time>2012-06-29T14:30:30Z</time>
      </trkpt>
      <trkpt lat="43.41904" lon="6.76493">
        <time>2012-06-29T14:30:34Z</time>
      </trkpt>
      <trkpt lat="43.41907" lon="6.7648">
        <time>2012-06-29T14:30:38Z</time>
      </trkpt>
      <trkpt lat="43.4191" lon="6.76466">
        <time>2012-06-29T14:30:42Z</time>
      </trkpt>
      <trkpt lat="43.41913" lon="6.76451">
        <time>2012-06-29T14:30:46Z</time>
      </trkpt>
      <trkpt lat="43.41917" lon="6.76437">
        <time>2012-06-29T14:30:50Z</time>
      </trkpt>
      <trkpt lat="43.41919" lon="6.76422">
        <time>2012-06-29T14:30:54Z</time>
      </trkpt>
      <trkpt lat="43.41923" lon="6.76411">
        <time>2012-06-29T14:30:57Z</time>
      </trkpt>
      <trkpt lat="43.41926" lon="6.76397">
        <time>2012-06-29T14:31:01Z</time>
      </trkpt>
      <trkpt lat="43.4193" lon="6.76383">
        <time>2012-06-29T14:31:05Z</time>
      </trkpt>
      <trkpt lat="43.41934" lon="6.76369">
        <time>2012-06-29T14:31:09Z</time>
      </trkpt>
      <trkpt lat="43.41938" lon="6.76355">
        <time>2012-06-29T14:31:13Z</time>
      </trkpt>
      <trkpt lat="43.41943" lon="6.76344">
        <time>2012-06-29T14:31:17Z</time>
      </trkpt>
      <trkpt lat="43.41947" lon="6.76333">
        <time>2012-06-29T14:31:21Z</time>
      </trkpt>
      <trkpt lat="43.41951" lon="6.76319">
        <time>2012-06-29T14:31:25Z</time>
      </trkpt>
      <trkpt lat="43.41955" lon="6.76307">
        <time>2012-06-29T14:31:29Z</time>
      </trkpt>
      <trkpt lat="43.41958" lon="6.76292">
        <time>2012-06-29T14:31:33Z</time>
      </trkpt>
      <trkpt lat="43.41961" lon="6.76279">
        <time>2012-06-29T14:31:37Z</time>
      </trkpt>
      <trkpt lat="43.41964" lon="6.76264">
        <time>2012-06-29T14:31:41Z</time>
      </trkpt>
      <trkpt lat="43.41968" lon="6.76252">
        <time>2012-06-29T14:31:45Z</time>
      </trkpt>
      <trkpt lat="43.4197" lon="6.76238">
        <time>2012-06-29T14:31:49Z</time>
      </trkpt>
      <trkpt lat="43.41974" lon="6.76226">
        <time>2012-06-29T14:31:53Z</time>
      </trkpt>
      <trkpt lat="43.41976" lon="6.76211">
        <time>2012-06-29T14:31:57Z</time>
      </trkpt>
      <trkpt lat="43.41978" lon="6.76197">
        <time>2012-06-29T14:32:01Z</time>
      </trkpt>
      <trkpt lat="43.41981" lon="6.76182">
        <time>2012-06-29T14:32:05Z</time>
      </trkpt>
      <trkpt lat="43.41983" lon="6.76168">
        <time>2012-06-29T14:32:09Z</time>
      </trkpt>
      <trkpt lat="43.41986" lon="6.76157">
        <time>2012-06-29T14:32:12Z</time>
      </trkpt>
      <trkpt lat="43.41989" lon="6.76145">
        <time>2012-06-29T14:32:15Z</time>
      </trkpt>
      <trkpt lat="43.41992" lon="6.7613">
        <time>2012-06-29T14:32:19Z</time>
      </trkpt>
      <trkpt lat="43.41995" lon="6.76113">
        <time>2012-06-29T14:32:23Z</time>
      </trkpt>
      <trkpt lat="43.41997" lon="6.76097">
        <time>2012-06-29T14:32:27Z</time>
      </trkpt>
      <trkpt lat="43.42" lon="6.76086">
        <time>2012-06-29T14:32:30Z</time>
      </trkpt>
      <trkpt lat="43.42003" lon="6.76072">
        <time>2012-06-29T14:32:34Z</time>
      </trkpt>
      <trkpt lat="43.42007" lon="6.76058">
        <time>2012-06-29T14:32:38Z</time>
      </trkpt>
      <trkpt lat="43.4201" lon="6.76042">
        <time>2012-06-29T14:32:42Z</time>
      </trkpt>
      <trkpt lat="43.42011" lon="6.76026">
        <time>2012-06-29T14:32:46Z</time>
      </trkpt>
      <trkpt lat="43.42014" lon="6.76015">
        <time>2012-06-29T14:32:49Z</time>
      </trkpt>
      <trkpt lat="43.42017" lon="6.76">
        <time>2012-06-29T14:32:53Z</time>
      </trkpt>
      <trkpt lat="43.42019" lon="6.75986">
        <time>2012-06-29T14:32:57Z</time>
      </trkpt>
      <trkpt lat="43.42025" lon="6.75975">
        <time>2012-06-29T14:33:01Z</time>
      </trkpt>
      <trkpt lat="43.42032" lon="6.75966">
        <time>2012-06-29T14:33:05Z</time>
      </trkpt>
      <trkpt lat="43.4204" lon="6.75956">
        <time>2012-06-29T14:33:10Z</time>
      </trkpt>
      <trkpt lat="43.42046" lon="6.75945">
        <time>2012-06-29T14:33:15Z</time>
      </trkpt>
      <trkpt lat="43.42052" lon="6.75936">
        <time>2012-06-29T14:33:19Z</time>
      </trkpt>
      <trkpt lat="43.42057" lon="6.75926">
        <time>2012-06-29T14:33:23Z</time>
      </trkpt>
      <trkpt lat="43.42063" lon="6.75914">
        <time>2012-06-29T14:33:28Z</time>
      </trkpt>
      <trkpt lat="43.42066" lon="6.75901">
        <time>2012-06-29T14:33:33Z</time>
      </trkpt>
      <trkpt lat="43.42068" lon="6.75888">
        <time>2012-06-29T14:33:37Z</time>
      </trkpt>
      <trkpt lat="43.42069" lon="6.75875">
        <time>2012-06-29T14:33:41Z</time>
      </trkpt>
      <trkpt lat="43.42066" lon="6.75862">
        <time>2012-06-29T14:33:45Z</time>
      </trkpt>
      <trkpt lat="43.42059" lon="6.75852">
        <time>2012-06-29T14:33:49Z</time>
      </trkpt>
      <trkpt lat="43.4205" lon="6.75844">
        <time>2012-06-29T14:33:53Z</time>
      </trkpt>
      <trkpt lat="43.42041" lon="6.75836">
        <time>2012-06-29T14:33:57Z</time>
      </trkpt>
      <trkpt lat="43.42032" lon="6.75827">
        <time>2012-06-29T14:34:01Z</time>
      </trkpt>
      <trkpt lat="43.42023" lon="6.75818">
        <time>2012-06-29T14:34:05Z</time>
      </trkpt>
      <trkpt lat="43.42014" lon="6.75808">
        <time>2012-06-29T14:34:09Z</time>
      </trkpt>
      <trkpt lat="43.42005" lon="6.75798">
        <time>2012-06-29T14:34:13Z</time>
      </trkpt>
      <trkpt lat="43.41997" lon="6.75788">
        <time>2012-06-29T14:34:17Z</time>
      </trkpt>
      <trkpt lat="43.41987" lon="6.75783">
        <time>2012-06-29T14:34:21Z</time>
      </trkpt>
      <trkpt lat="43.41976" lon="6.75778">
        <time>2012-06-29T14:34:25Z</time>
      </trkpt>
      <trkpt lat="43.41966" lon="6.75773">
        <time>2012-06-29T14:34:29Z</time>
      </trkpt>
      <trkpt lat="43.41955" lon="6.75768">
        <time>2012-06-29T14:34:33Z</time>
      </trkpt>
      <trkpt lat="43.41945" lon="6.75763">
        <time>2012-06-29T14:34:37Z</time>
      </trkpt>
      <trkpt lat="43.41934" lon="6.75758">
        <time>2012-06-29T14:34:41Z</time>
      </trkpt>
      <trkpt lat="43.41925" lon="6.75751">
        <time>2012-06-29T14:34:45Z</time>
      </trkpt>
      <trkpt lat="43.41915" lon="6.75747">
        <time>2012-06-29T14:34:49Z</time>
      </trkpt>
      <trkpt lat="43.41911" lon="6.75758">
        <time>2012-06-29T14:34:55Z</time>
      </trkpt>
      <trkpt lat="43.41913" lon="6.75771">
        <time>2012-06-29T14:35:00Z</time>
      </trkpt>
      <trkpt lat="43.41915" lon="6.75784">
        <time>2012-06-29T14:35:04Z</time>
      </trkpt>
      <trkpt lat="43.41916" lon="6.75796">
        <time>2012-06-29T14:35:08Z</time>
      </trkpt>
      <trkpt lat="43.41918" lon="6.75811">
        <time>2012-06-29T14:35:12Z</time>
      </trkpt>
      <trkpt lat="43.4192" lon="6.75825">
        <time>2012-06-29T14:35:16Z</time>
      </trkpt>
      <trkpt lat="43.41921" lon="6.75839">
        <time>2012-06-29T14:35:20Z</time>
      </trkpt>
      <trkpt lat="43.41923" lon="6.75853">
        <time>2012-06-29T14:35:24Z</time>
      </trkpt>
      <trkpt lat="43.41925" lon="6.75866">
        <time>2012-06-29T14:35:28Z</time>
      </trkpt>
      <trkpt lat="43.41926" lon="6.7588">
        <time>2012-06-29T14:35:32Z</time>
      </trkpt>
      <trkpt lat="43.41928" lon="6.75893">
        <time>2012-06-29T14:35:36Z</time>
      </trkpt>
      <trkpt lat="43.4193" lon="6.75908">
        <time>2012-06-29T14:35:40Z</time>
      </trkpt>
      <trkpt lat="43.41931" lon="6.75922">
        <time>2012-06-29T14:35:44Z</time>
      </trkpt>
      <trkpt lat="43.41932" lon="6.75936">
        <time>2012-06-29T14:35:48Z</time>
      </trkpt>
      <trkpt lat="43.41933" lon="6.7595">
        <time>2012-06-29T14:35:52Z</time>
      </trkpt>
      <trkpt lat="43.41934" lon="6.75963">
        <time>2012-06-29T14:35:56Z</time>
      </trkpt>
      <trkpt lat="43.41935" lon="6.75978">
        <time>2012-06-29T14:36:00Z</time>
      </trkpt>
      <trkpt lat="43.41936" lon="6.75992">
        <time>2012-06-29T14:36:04Z</time>
      </trkpt>
      <trkpt lat="43.41938" lon="6.76006">
        <time>2012-06-29T14:36:08Z</time>
      </trkpt>
      <trkpt lat="43.41939" lon="6.7602">
        <time>2012-06-29T14:36:12Z</time>
      </trkpt>
      <trkpt lat="43.4194" lon="6.76034">
        <time>2012-06-29T14:36:16Z</time>
      </trkpt>
      <trkpt lat="43.41941" lon="6.76049">
        <time>2012-06-29T14:36:20Z</time>
      </trkpt>
      <trkpt lat="43.41942" lon="6.76063">
        <time>2012-06-29T14:36:24Z</time>
      </trkpt>
      <trkpt lat="43.41943" lon="6.76078">
        <time>2012-06-29T14:36:28Z</time>
      </trkpt>
      <trkpt lat="43.41944" lon="6.76093">
        <time>2012-06-29T14:36:32Z</time>
      </trkpt>
      <trkpt lat="43.41945" lon="6.76108">
        <time>2012-06-29T14:36:36Z</time>
      </trkpt>
      <trkpt lat="43.41947" lon="6.76123">
        <time>2012-06-29T14:36:40Z</time>
      </trkpt>
      <trkpt lat="43.41948" lon="6.76139">
        <time>2012-06-29T14:36:44Z</time>
      </trkpt>
      <trkpt lat="43.41949" lon="6.76153">
        <time>2012-06-29T14:36:48Z</time>
      </trkpt>
      <trkpt lat="43.4195" lon="6.76167">
        <time>2012-06-29T14:36:52Z</time>
      </trkpt>
      <trkpt lat="43.41951" lon="6.76182">
        <time>2012-06-29T14:36:56Z</time>
      </trkpt>
      <trkpt lat="43.41952" lon="6.76195">
        <time>2012-06-29T14:37:00Z</time>
      </trkpt>
      <trkpt lat="43.41953" lon="6.7621">
        <time>2012-06-29T14:37:04Z</time>
      </trkpt>
      <trkpt lat="43.41955" lon="6.76225">
        <time>2012-06-29T14:37:08Z</time>
      </trkpt>
      <trkpt lat="43.41956" lon="6.76239">
        <time>2012-06-29T14:37:12Z</time>
      </trkpt>
      <trkpt lat="43.41957" lon="6.76254">
        <time>2012-06-29T14:37:16Z</time>
      </trkpt>
      <trkpt lat="43.41957" lon="6.76268">
        <time>2012-06-29T14:37:20Z</time>
      </trkpt>
      <trkpt lat="43.41957" lon="6.76282">
        <time>2012-06-29T14:37:24Z</time>
      </trkpt>
      <trkpt lat="43.41956" lon="6.76297">
        <time>2012-06-29T14:37:28Z</time>
      </trkpt>
      <trkpt lat="43.41955" lon="6.76311">
        <time>2012-06-29T14:37:32Z</time>
      </trkpt>
      <trkpt lat="43.41955" lon="6.76325">
        <time>2012-06-29T14:37:36Z</time>
      </trkpt>
      <trkpt lat="43.41954" lon="6.76338">
        <time>2012-06-29T14:37:40Z</time>
      </trkpt>
      <trkpt lat="43.41953" lon="6.76352">
        <time>2012-06-29T14:37:44Z</time>
      </trkpt>
      <trkpt lat="43.41952" lon="6.76365">
        <time>2012-06-29T14:37:48Z</time>
      </trkpt>
      <trkpt lat="43.41951" lon="6.76378">
        <time>2012-06-29T14:37:52Z</time>
      </trkpt>
      <trkpt lat="43.4195" lon="6.76391">
        <time>2012-06-29T14:37:56Z</time>
      </trkpt>
      <trkpt lat="43.41949" lon="6.76405">
        <time>2012-06-29T14:38:00Z</time>
      </trkpt>
      <trkpt lat="43.41947" lon="6.76418">
        <time>2012-06-29T14:38:04Z</time>
      </trkpt>
      <trkpt lat="43.41947" lon="6.76431">
        <time>2012-06-29T14:38:08Z</time>
      </trkpt>
      <trkpt lat="43.41946" lon="6.76445">
        <time>2012-06-29T14:38:12Z</time>
      </trkpt>
      <trkpt lat="43.41945" lon="6.76459">
        <time>2012-06-29T14:38:16Z</time>
      </trkpt>
      <trkpt lat="43.41945" lon="6.76474">
        <time>2012-06-29T14:38:20Z</time>
      </trkpt>
      <trkpt lat="43.41945" lon="6.76487">
        <time>2012-06-29T14:38:24Z</time>
      </trkpt>
      <trkpt lat="43.41944" lon="6.76502">
        <time>2012-06-29T14:38:28Z</time>
      </trkpt>
      <trkpt lat="43.41944" lon="6.76515">
        <time>2012-06-29T14:38:32Z</time>
      </trkpt>
      <trkpt lat="43.41943" lon="6.76529">
        <time>2012-06-29T14:38:36Z</time>
      </trkpt>
      <trkpt lat="43.41942" lon="6.76544">
        <time>2012-06-29T14:38:40Z</time>
      </trkpt>
      <trkpt lat="43.41942" lon="6.76558">
        <time>2012-06-29T14:38:44Z</time>
      </trkpt>
      <trkpt lat="43.41942" lon="6.76572">
        <time>2012-06-29T14:38:48Z</time>
      </trkpt>
      <trkpt lat="43.41942" lon="6.76587">
        <time>2012-06-29T14:38:52Z</time>
      </trkpt>
      <trkpt lat="43.41943" lon="6.76601">
        <time>2012-06-29T14:38:56Z</time>
      </trkpt>
      <trkpt lat="43.41942" lon="6.76617">
        <time>2012-06-29T14:39:00Z</time>
      </trkpt>
      <trkpt lat="43.41943" lon="6.76631">
        <time>2012-06-29T14:39:04Z</time>
      </trkpt>
      <trkpt lat="43.41942" lon="6.76644">
        <time>2012-06-29T14:39:08Z</time>
      </trkpt>
      <trkpt lat="43.41932" lon="6.76646">
        <time>2012-06-29T14:39:14Z</time>
      </trkpt>
      <trkpt lat="43.41924" lon="6.76643">
        <time>2012-06-29T14:39:18Z</time>
      </trkpt>
      <trkpt lat="43.41915" lon="6.76636">
        <time>2012-06-29T14:39:22Z</time>
      </trkpt>
      <trkpt lat="43.41904" lon="6.76632">
        <time>2012-06-29T14:39:26Z</time>
      </trkpt>
      <trkpt lat="43.41894" lon="6.76628">
        <time>2012-06-29T14:39:30Z</time>
      </trkpt>
      <trkpt lat="43.41884" lon="6.76625">
        <time>2012-06-29T14:39:34Z</time>
      </trkpt>
      <trkpt lat="43.41873" lon="6.76622">
        <time>2012-06-29T14:39:38Z</time>
      </trkpt>
      <trkpt lat="43.41862" lon="6.76617">
        <time>2012-06-29T14:39:42Z</time>
      </trkpt>
      <trkpt lat="43.41854" lon="6.76612">
        <time>2012-06-29T14:39:45Z</time>
      </trkpt>
      <trkpt lat="43.41843" lon="6.76608">
        <time>2012-06-29T14:39:49Z</time>
      </trkpt>
      <trkpt lat="43.41832" lon="6.76601">
        <time>2012-06-29T14:39:53Z</time>
      </trkpt>
      <trkpt lat="43.41821" lon="6.76596">
        <time>2012-06-29T14:39:57Z</time>
      </trkpt>
      <trkpt lat="43.4181" lon="6.76591">
        <time>2012-06-29T14:40:01Z</time>
      </trkpt>
      <trkpt lat="43.41799" lon="6.76587">
        <time>2012-06-29T14:40:05Z</time>
      </trkpt>
      <trkpt lat="43.41791" lon="6.76583">
        <time>2012-06-29T14:40:08Z</time>
      </trkpt>
      <trkpt lat="43.4178" lon="6.7658">
        <time>2012-06-29T14:40:12Z</time>
      </trkpt>
      <trkpt lat="43.41769" lon="6.76576">
        <time>2012-06-29T14:40:16Z</time>
      </trkpt>
      <trkpt lat="43.4176" lon="6.76574">
        <time>2012-06-29T14:40:19Z</time>
      </trkpt>
      <trkpt lat="43.4175" lon="6.76572">
        <time>2012-06-29T14:40:22Z</time>
      </trkpt>
      <trkpt lat="43.41739" lon="6.76569">
        <time>2012-06-29T14:40:26Z</time>
      </trkpt>
      <trkpt lat="43.41727" lon="6.76565">
        <time>2012-06-29T14:40:30Z</time>
      </trkpt>
      <trkpt lat="43.41716" lon="6.76562">
        <time>2012-06-29T14:40:34Z</time>
      </trkpt>
      <trkpt lat="43.41705" lon="6.76559">
        <time>2012-06-29T14:40:38Z</time>
      </trkpt>
      <trkpt lat="43.41694" lon="6.76556">
        <time>2012-06-29T14:40:42Z</time>
      </trkpt>
      <trkpt lat="43.41683" lon="6.76553">
        <time>2012-06-29T14:40:46Z</time>
      </trkpt>
      <trkpt lat="43.41671" lon="6.7655">
        <time>2012-06-29T14:40:50Z</time>
      </trkpt>
      <trkpt lat="43.4166" lon="6.76548">
        <time>2012-06-29T14:40:54Z</time>
      </trkpt>
      <trkpt lat="43.41649" lon="6.76545">
        <time>2012-06-29T14:40:58Z</time>
      </trkpt>
      <trkpt lat="43.41638" lon="6.76541">
        <time>2012-06-29T14:41:02Z</time>
      </trkpt>
      <trkpt lat="43.41627" lon="6.76537">
        <time>2012-06-29T14:41:06Z</time>
      </trkpt>
      <trkpt lat="43.41618" lon="6.76536">
        <time>2012-06-29T14:41:09Z</time>
      </trkpt>
      <trkpt lat="43.41608" lon="6.76532">
        <time>2012-06-29T14:41:13Z</time>
      </trkpt>
      <trkpt lat="43.41598" lon="6.76529">
        <time>2012-06-29T14:41:17Z</time>
      </trkpt>
      <trkpt lat="43.41587" lon="6.76528">
        <time>2012-06-29T14:41:21Z</time>
      </trkpt>
      <trkpt lat="43.41576" lon="6.76526">
        <time>2012-06-29T14:41:25Z</time>
      </trkpt>
      <trkpt lat="43.41565" lon="6.76523">
        <time>2012-06-29T14:41:29Z</time>
      </trkpt>
      <trkpt lat="43.41555" lon="6.7652">
        <time>2012-06-29T14:41:33Z</time>
      </trkpt>
      <trkpt lat="43.41544" lon="6.76517">
        <time>2012-06-29T14:41:37Z</time>
      </trkpt>
      <trkpt lat="43.41534" lon="6.76514">
        <time>2012-06-29T14:41:41Z</time>
      </trkpt>
      <trkpt lat="43.41522" lon="6.76511">
        <time>2012-06-29T14:41:45Z</time>
      </trkpt>
      <trkpt lat="43.41512" lon="6.76508">
        <time>2012-06-29T14:41:49Z</time>
      </trkpt>
      <trkpt lat="43.41501" lon="6.76505">
        <time>2012-06-29T14:41:53Z</time>
      </trkpt>
      <trkpt lat="43.4149" lon="6.76503">
        <time>2012-06-29T14:41:57Z</time>
      </trkpt>
      <trkpt lat="43.41479" lon="6.76502">
        <time>2012-06-29T14:42:01Z</time>
      </trkpt>
      <trkpt lat="43.41469" lon="6.765">
        <time>2012-06-29T14:42:05Z</time>
      </trkpt>
      <trkpt lat="43.41458" lon="6.765">
        <time>2012-06-29T14:42:09Z</time>
      </trkpt>
      <trkpt lat="43.41448" lon="6.765">
        <time>2012-06-29T14:42:13Z</time>
      </trkpt>
      <trkpt lat="43.41437" lon="6.76501">
        <time>2012-06-29T14:42:17Z</time>
      </trkpt>
      <trkpt lat="43.41428" lon="6.765">
        <time>2012-06-29T14:42:21Z</time>
      </trkpt>
      <trkpt lat="43.41417" lon="6.765">
        <time>2012-06-29T14:42:25Z</time>
      </trkpt>
      <trkpt lat="43.41407" lon="6.76501">
        <time>2012-06-29T14:42:29Z</time>
      </trkpt>
      <trkpt lat="43.41396" lon="6.76499">
        <time>2012-06-29T14:42:33Z</time>
      </trkpt>
      <trkpt lat="43.41386" lon="6.76498">
        <time>2012-06-29T14:42:37Z</time>
      </trkpt>
      <trkpt lat="43.41376" lon="6.76498">
        <time>2012-06-29T14:42:41Z</time>
      </trkpt>
      <trkpt lat="43.41367" lon="6.76498">
        <time>2012-06-29T14:42:45Z</time>
      </trkpt>
      <trkpt lat="43.41357" lon="6.76501">
        <time>2012-06-29T14:42:50Z</time>
      </trkpt>
      <trkpt lat="43.41357" lon="6.76514">
        <time>2012-06-29T14:42:57Z</time>
      </trkpt>
      <trkpt lat="43.41362" lon="6.76526">
        <time>2012-06-29T14:43:02Z</time>
      </trkpt>
      <trkpt lat="43.41366" lon="6.76537">
        <time>2012-06-29T14:43:06Z</time>
      </trkpt>
      <trkpt lat="43.41369" lon="6.76551">
        <time>2012-06-29T14:43:10Z</time>
      </trkpt>
      <trkpt lat="43.41373" lon="6.76564">
        <time>2012-06-29T14:43:14Z</time>
      </trkpt>
      <trkpt lat="43.41377" lon="6.76578">
        <time>2012-06-29T14:43:18Z</time>
      </trkpt>
      <trkpt lat="43.41381" lon="6.76591">
        <time>2012-06-29T14:43:22Z</time>
      </trkpt>
      <trkpt lat="43.41385" lon="6.76605">
        <time>2012-06-29T14:43:26Z</time>
      </trkpt>
      <trkpt lat="43.41388" lon="6.76617">
        <time>2012-06-29T14:43:30Z</time>
      </trkpt>
      <trkpt lat="43.41391" lon="6.7663">
        <time>2012-06-29T14:43:34Z</time>
      </trkpt>
      <trkpt lat="43.41395" lon="6.76643">
        <time>2012-06-29T14:43:38Z</time>
      </trkpt>
      <trkpt lat="43.41397" lon="6.76657">
        <time>2012-06-29T14:43:42Z</time>
      </trkpt>
      <trkpt lat="43.414" lon="6.76671">
        <time>2012-06-29T14:43:46Z</time>
      </trkpt>
      <trkpt lat="43.41403" lon="6.76683">
        <time>2012-06-29T14:43:50Z</time>
      </trkpt>
      <trkpt lat="43.41405" lon="6.76696">
        <time>2012-06-29T14:43:54Z</time>
      </trkpt>
      <trkpt lat="43.41408" lon="6.7671">
        <time>2012-06-29T14:43:58Z</time>
      </trkpt>
      <trkpt lat="43.4141" lon="6.76723">
        <time>2012-06-29T14:44:02Z</time>
      </trkpt>
      <trkpt lat="43.41412" lon="6.76735">
        <time>2012-06-29T14:44:06Z</time>
      </trkpt>
      <trkpt lat="43.41414" lon="6.76749">
        <time>2012-06-29T14:44:11Z</time>
      </trkpt>
      <trkpt lat="43.41416" lon="6.76762">
        <time>2012-06-29T14:44:15Z</time>
      </trkpt>
      <trkpt lat="43.41418" lon="6.76775">
        <time>2012-06-29T14:44:19Z</time>
      </trkpt>
      <trkpt lat="43.4142" lon="6.76788">
        <time>2012-06-29T14:44:23Z</time>
      </trkpt>
      <trkpt lat="43.41421" lon="6.76803">
        <time>2012-06-29T14:44:28Z</time>
      </trkpt>
      <trkpt lat="43.41422" lon="6.76816">
        <time>2012-06-29T14:44:32Z</time>
      </trkpt>
      <trkpt lat="43.41424" lon="6.76829">
        <time>2012-06-29T14:44:37Z</time>
      </trkpt>
      <trkpt lat="43.41424" lon="6.76844">
        <time>2012-06-29T14:44:42Z</time>
      </trkpt>
      <trkpt lat="43.41426" lon="6.76857">
        <time>2012-06-29T14:44:47Z</time>
      </trkpt>
      <trkpt lat="43.41428" lon="6.76872">
        <time>2012-06-29T14:44:52Z</time>
      </trkpt>
      <trkpt lat="43.41431" lon="6.76886">
        <time>2012-06-29T14:44:57Z</time>
      </trkpt>
      <trkpt lat="43.41433" lon="6.76898">
        <time>2012-06-29T14:45:01Z</time>
      </trkpt>
      <trkpt lat="43.41435" lon="6.7691">
        <time>2012-06-29T14:45:05Z</time>
      </trkpt>
      <trkpt lat="43.41437" lon="6.76924">
        <time>2012-06-29T14:45:09Z</time>
      </trkpt>
      <trkpt lat="43.41439" lon="6.76936">
        <time>2012-06-29T14:45:13Z</time>
      </trkpt>
      <trkpt lat="43.41441" lon="6.7695">
        <time>2012-06-29T14:45:17Z</time>
      </trkpt>
      <trkpt lat="43.41443" lon="6.76962">
        <time>2012-06-29T14:45:21Z</time>
      </trkpt>
      <trkpt lat="43.41445" lon="6.76975">
        <time>2012-06-29T14:45:25Z</time>
      </trkpt>
      <trkpt lat="43.41447" lon="6.76988">
        <time>2012-06-29T14:45:29Z</time>
      </trkpt>
      <trkpt lat="43.4145" lon="6.77001">
        <time>2012-06-29T14:45:33Z</time>
      </trkpt>
      <trkpt lat="43.41452" lon="6.77015">
        <time>2012-06-29T14:45:37Z</time>
      </trkpt>
      <trkpt lat="43.41454" lon="6.77029">
        <time>2012-06-29T14:45:42Z</time>
      </trkpt>
      <trkpt lat="43.41457" lon="6.77041">
        <time>2012-06-29T14:45:46Z</time>
      </trkpt>
      <trkpt lat="43.4146" lon="6.77054">
        <time>2012-06-29T14:45:50Z</time>
      </trkpt>
      <trkpt lat="43.41462" lon="6.77067">
        <time>2012-06-29T14:45:54Z</time>
      </trkpt>
      <trkpt lat="43.41465" lon="6.7708">
        <time>2012-06-29T14:45:58Z</time>
      </trkpt>
      <trkpt lat="43.41467" lon="6.77095">
        <time>2012-06-29T14:46:03Z</time>
      </trkpt>
      <trkpt lat="43.4147" lon="6.77109">
        <time>2012-06-29T14:46:07Z</time>
      </trkpt>
      <trkpt lat="43.41473" lon="6.77121">
        <time>2012-06-29T14:46:11Z</time>
      </trkpt>
      <trkpt lat="43.41475" lon="6.77135">
        <time>2012-06-29T14:46:15Z</time>
      </trkpt>
      <trkpt lat="43.41478" lon="6.77148">
        <time>2012-06-29T14:46:19Z</time>
      </trkpt>
      <trkpt lat="43.41479" lon="6.77161">
        <time>2012-06-29T14:46:23Z</time>
      </trkpt>
      <trkpt lat="43.41481" lon="6.77174">
        <time>2012-06-29T14:46:28Z</time>
      </trkpt>
      <trkpt lat="43.41483" lon="6.77188">
        <time>2012-06-29T14:46:33Z</time>
      </trkpt>
      <trkpt lat="43.41484" lon="6.77201">
        <time>2012-06-29T14:46:38Z</time>
      </trkpt>
      <trkpt lat="43.41487" lon="6.77214">
        <time>2012-06-29T14:46:43Z</time>
      </trkpt>
      <trkpt lat="43.41491" lon="6.77228">
        <time>2012-06-29T14:46:48Z</time>
      </trkpt>
      <trkpt lat="43.41494" lon="6.7724">
        <time>2012-06-29T14:46:52Z</time>
      </trkpt>
      <trkpt lat="43.41496" lon="6.77254">
        <time>2012-06-29T14:46:56Z</time>
      </trkpt>
      <trkpt lat="43.41497" lon="6.77267">
        <time>2012-06-29T14:47:00Z</time>
      </trkpt>
      <trkpt lat="43.41498" lon="6.77282">
        <time>2012-06-29T14:47:05Z</time>
      </trkpt>
      <trkpt lat="43.41492" lon="6.77292">
        <time>2012-06-29T14:47:12Z</time>
      </trkpt>
      <trkpt lat="43.41482" lon="6.77288">
        <time>2012-06-29T14:47:20Z</time>
      </trkpt>
      <trkpt lat="43.41473" lon="6.77287">
        <time>2012-06-29T14:47:24Z</time>
      </trkpt>
      <trkpt lat="43.41463" lon="6.77284">
        <time>2012-06-29T14:47:28Z</time>
      </trkpt>
      <trkpt lat="43.41452" lon="6.77281">
        <time>2012-06-29T14:47:32Z</time>
      </trkpt>
      <trkpt lat="43.41443" lon="6.7728">
        <time>2012-06-29T14:47:36Z</time>
      </trkpt>
      <trkpt lat="43.41433" lon="6.77279">
        <time>2012-06-29T14:47:40Z</time>
      </trkpt>
      <trkpt lat="43.41423" lon="6.77277">
        <time>2012-06-29T14:47:44Z</time>
      </trkpt>
      <trkpt lat="43.41412" lon="6.77275">
        <time>2012-06-29T14:47:48Z</time>
      </trkpt>
      <trkpt lat="43.41403" lon="6.77271">
        <time>2012-06-29T14:47:52Z</time>
      </trkpt>
      <trkpt lat="43.41393" lon="6.77266">
        <time>2012-06-29T14:47:56Z</time>
      </trkpt>
      <trkpt lat="43.41384" lon="6.77261">
        <time>2012-06-29T14:48:00Z</time>
      </trkpt>
      <trkpt lat="43.41374" lon="6.77258">
        <time>2012-06-29T14:48:04Z</time>
      </trkpt>
      <trkpt lat="43.41365" lon="6.77254">
        <time>2012-06-29T14:48:08Z</time>
      </trkpt>
      <trkpt lat="43.41355" lon="6.77251">
        <time>2012-06-29T14:48:12Z</time>
      </trkpt>
      <trkpt lat="43.41346" lon="6.77248">
        <time>2012-06-29T14:48:16Z</time>
      </trkpt>
      <trkpt lat="43.41335" lon="6.77246">
        <time>2012-06-29T14:48:20Z</time>
      </trkpt>
      <trkpt lat="43.41325" lon="6.77244">
        <time>2012-06-29T14:48:24Z</time>
      </trkpt>
      <trkpt lat="43.41316" lon="6.77244">
        <time>2012-06-29T14:48:28Z</time>
      </trkpt>
      <trkpt lat="43.41306" lon="6.77243">
        <time>2012-06-29T14:48:32Z</time>
      </trkpt>
      <trkpt lat="43.41296" lon="6.77242">
        <time>2012-06-29T14:48:36Z</time>
      </trkpt>
      <trkpt lat="43.41285" lon="6.77242">
        <time>2012-06-29T14:48:40Z</time>
      </trkpt>
      <trkpt lat="43.41276" lon="6.77241">
        <time>2012-06-29T14:48:44Z</time>
      </trkpt>
      <trkpt lat="43.41267" lon="6.7724">
        <time>2012-06-29T14:48:48Z</time>
      </trkpt>
      <trkpt lat="43.41258" lon="6.7724">
        <time>2012-06-29T14:48:52Z</time>
      </trkpt>
      <trkpt lat="43.41249" lon="6.7724">
        <time>2012-06-29T14:48:56Z</time>
      </trkpt>
      <trkpt lat="43.4124" lon="6.7724">
        <time>2012-06-29T14:49:00Z</time>
      </trkpt>
      <trkpt lat="43.4123" lon="6.77238">
        <time>2012-06-29T14:49:04Z</time>
      </trkpt>
      <trkpt lat="43.41221" lon="6.77237">
        <time>2012-06-29T14:49:08Z</time>
      </trkpt>
      <trkpt lat="43.41212" lon="6.77235">
        <time>2012-06-29T14:49:12Z</time>
      </trkpt>
      <trkpt lat="43.41201" lon="6.77233">
        <time>2012-06-29T14:49:17Z</time>
      </trkpt>
      <trkpt lat="43.41191" lon="6.77234">
        <time>2012-06-29T14:49:21Z</time>
      </trkpt>
      <trkpt lat="43.41182" lon="6.77233">
        <time>2012-06-29T14:49:25Z</time>
      </trkpt>
      <trkpt lat="43.41173" lon="6.77232">
        <time>2012-06-29T14:49:29Z</time>
      </trkpt>
      <trkpt lat="43.41164" lon="6.77231">
        <time>2012-06-29T14:49:33Z</time>
      </trkpt>
      <trkpt lat="43.41154" lon="6.77231">
        <time>2012-06-29T14:49:37Z</time>
      </trkpt>
      <trkpt lat="43.41145" lon="6.7723">
        <time>2012-06-29T14:49:41Z</time>
      </trkpt>
      <trkpt lat="43.41135" lon="6.7723">
        <time>2012-06-29T14:49:45Z</time>
      </trkpt>
      <trkpt lat="43.41126" lon="6.77231">
        <time>2012-06-29T14:49:49Z</time>
      </trkpt>
      <trkpt lat="43.41116" lon="6.77232">
        <time>2012-06-29T14:49:53Z</time>
      </trkpt>
      <trkpt lat="43.41106" lon="6.77233">
        <time>2012-06-29T14:49:57Z</time>
      </trkpt>
      <trkpt lat="43.41095" lon="6.77235">
        <time>2012-06-29T14:50:01Z</time>
      </trkpt>
      <trkpt lat="43.41086" lon="6.77236">
        <time>2012-06-29T14:50:05Z</time>
      </trkpt>
      <trkpt lat="43.41076" lon="6.77238">
        <time>2012-06-29T14:50:09Z</time>
      </trkpt>
      <trkpt lat="43.41065" lon="6.77241">
        <time>2012-06-29T14:50:13Z</time>
      </trkpt>
      <trkpt lat="43.41055" lon="6.77244">
        <time>2012-06-29T14:50:17Z</time>
      </trkpt>
      <trkpt lat="43.41045" lon="6.77248">
        <time>2012-06-29T14:50:21Z</time>
      </trkpt>
      <trkpt lat="43.41036" lon="6.77253">
        <time>2012-06-29T14:50:25Z</time>
      </trkpt>
      <trkpt lat="43.41027" lon="6.77257">
        <time>2012-06-29T14:50:29Z</time>
      </trkpt>
      <trkpt lat="43.41017" lon="6.77262">
        <time>2012-06-29T14:50:34Z</time>
      </trkpt>
      <trkpt lat="43.41008" lon="6.77267">
        <time>2012-06-29T14:50:38Z</time>
      </trkpt>
      <trkpt lat="43.40999" lon="6.77271">
        <time>2012-06-29T14:50:43Z</time>
      </trkpt>
      <trkpt lat="43.4099" lon="6.77275">
        <ele>-5</ele>
        <time>2012-06-29T14:50:47Z</time>
      </trkpt>
      <trkpt lat="43.40982" lon="6.77279">
        <ele>-5</ele>
        <time>2012-06-29T14:50:51Z</time>
      </trkpt>
      <trkpt lat="43.40972" lon="6.77283">
        <ele>-5</ele>
        <time>2012-06-29T14:50:56Z</time>
      </trkpt>
      <trkpt lat="43.40963" lon="6.77287">
        <ele>-5</ele>
        <time>2012-06-29T14:51:00Z</time>
      </trkpt>
      <trkpt lat="43.40953" lon="6.77289">
        <ele>-5</ele>
        <time>2012-06-29T14:51:05Z</time>
      </trkpt>
      <trkpt lat="43.40944" lon="6.77292">
        <ele>-5</ele>
        <time>2012-06-29T14:51:10Z</time>
      </trkpt>
      <trkpt lat="43.40933" lon="6.77294">
        <ele>-5</ele>
        <time>2012-06-29T14:51:15Z</time>
      </trkpt>
      <trkpt lat="43.40923" lon="6.77297">
        <ele>-5</ele>
        <time>2012-06-29T14:51:20Z</time>
      </trkpt>
      <trkpt lat="43.40921" lon="6.77309">
        <ele>-5</ele>
        <time>2012-06-29T14:51:27Z</time>
      </trkpt>
      <trkpt lat="43.40925" lon="6.77322">
        <ele>-5</ele>
        <time>2012-06-29T14:51:33Z</time>
      </trkpt>
      <trkpt lat="43.40927" lon="6.77334">
        <ele>-5</ele>
        <time>2012-06-29T14:51:38Z</time>
      </trkpt>
      <trkpt lat="43.4093" lon="6.77347">
        <ele>-5</ele>
        <time>2012-06-29T14:51:43Z</time>
      </trkpt>
      <trkpt lat="43.40934" lon="6.7736">
        <ele>-5</ele>
        <time>2012-06-29T14:51:48Z</time>
      </trkpt>
      <trkpt lat="43.40937" lon="6.77372">
        <ele>-5</ele>
        <time>2012-06-29T14:51:52Z</time>
      </trkpt>
      <trkpt lat="43.40941" lon="6.77386">
        <ele>-5</ele>
        <time>2012-06-29T14:51:57Z</time>
      </trkpt>
      <trkpt lat="43.40944" lon="6.77398">
        <ele>-5</ele>
        <time>2012-06-29T14:52:01Z</time>
      </trkpt>
      <trkpt lat="43.40949" lon="6.77412">
        <ele>-5</ele>
        <time>2012-06-29T14:52:06Z</time>
      </trkpt>
      <trkpt lat="43.40953" lon="6.77426">
        <ele>-5</ele>
        <time>2012-06-29T14:52:11Z</time>
      </trkpt>
      <trkpt lat="43.40957" lon="6.77439">
        <ele>-5</ele>
        <time>2012-06-29T14:52:16Z</time>
      </trkpt>
      <trkpt lat="43.40961" lon="6.77452">
        <ele>-5</ele>
        <time>2012-06-29T14:52:21Z</time>
      </trkpt>
      <trkpt lat="43.40965" lon="6.77465">
        <ele>-5</ele>
        <time>2012-06-29T14:52:26Z</time>
      </trkpt>
      <trkpt lat="43.4097" lon="6.77479">
        <ele>-5</ele>
        <time>2012-06-29T14:52:31Z</time>
      </trkpt>
      <trkpt lat="43.40974" lon="6.77492">
        <ele>-5</ele>
        <time>2012-06-29T14:52:36Z</time>
      </trkpt>
      <trkpt lat="43.40978" lon="6.77506">
        <ele>-5</ele>
        <time>2012-06-29T14:52:41Z</time>
      </trkpt>
      <trkpt lat="43.40982" lon="6.77518">
        <ele>-5</ele>
        <time>2012-06-29T14:52:46Z</time>
      </trkpt>
      <trkpt lat="43.40985" lon="6.77531">
        <ele>-5</ele>
        <time>2012-06-29T14:52:51Z</time>
      </trkpt>
      <trkpt lat="43.40989" lon="6.77544">
        <ele>-5</ele>
        <time>2012-06-29T14:52:56Z</time>
      </trkpt>
      <trkpt lat="43.40993" lon="6.77557">
        <ele>-5</ele>
        <time>2012-06-29T14:53:01Z</time>
      </trkpt>
      <trkpt lat="43.40997" lon="6.7757">
        <ele>-5</ele>
        <time>2012-06-29T14:53:06Z</time>
      </trkpt>
      <trkpt lat="43.41001" lon="6.77583">
        <ele>-5</ele>
        <time>2012-06-29T14:53:11Z</time>
      </trkpt>
      <trkpt lat="43.41004" lon="6.77597">
        <ele>-5</ele>
        <time>2012-06-29T14:53:16Z</time>
      </trkpt>
      <trkpt lat="43.41008" lon="6.77609">
        <ele>-5</ele>
        <time>2012-06-29T14:53:21Z</time>
      </trkpt>
      <trkpt lat="43.41012" lon="6.77623">
        <ele>-5</ele>
        <time>2012-06-29T14:53:26Z</time>
      </trkpt>
      <trkpt lat="43.41016" lon="6.77634">
        <ele>-5</ele>
        <time>2012-06-29T14:53:31Z</time>
      </trkpt>
      <trkpt lat="43.41019" lon="6.77647">
        <ele>-5</ele>
        <time>2012-06-29T14:53:36Z</time>
      </trkpt>
      <trkpt lat="43.41022" lon="6.77659">
        <ele>-5</ele>
        <time>2012-06-29T14:53:41Z</time>
      </trkpt>
      <trkpt lat="43.41026" lon="6.77673">
        <ele>-5</ele>
        <time>2012-06-29T14:53:46Z</time>
      </trkpt>
      <trkpt lat="43.41029" lon="6.77685">
        <ele>-5</ele>
        <time>2012-06-29T14:53:50Z</time>
      </trkpt>
      <trkpt lat="43.41031" lon="6.77698">
        <ele>-5</ele>
        <time>2012-06-29T14:53:55Z</time>
      </trkpt>
      <trkpt lat="43.41035" lon="6.77712">
        <ele>-5</ele>
        <time>2012-06-29T14:54:00Z</time>
      </trkpt>
      <trkpt lat="43.41037" lon="6.77727">
        <ele>-5</ele>
        <time>2012-06-29T14:54:05Z</time>
      </trkpt>
      <trkpt lat="43.41039" lon="6.7774">
        <ele>-5</ele>
        <time>2012-06-29T14:54:10Z</time>
      </trkpt>
      <trkpt lat="43.41041" lon="6.77752">
        <ele>-5</ele>
        <time>2012-06-29T14:54:15Z</time>
      </trkpt>
      <trkpt lat="43.41043" lon="6.77765">
        <ele>-5</ele>
        <time>2012-06-29T14:54:20Z</time>
      </trkpt>
      <trkpt lat="43.41045" lon="6.77778">
        <ele>-5</ele>
        <time>2012-06-29T14:54:25Z</time>
      </trkpt>
      <trkpt lat="43.41047" lon="6.77791">
        <ele>-5</ele>
        <time>2012-06-29T14:54:30Z</time>
      </trkpt>
      <trkpt lat="43.41048" lon="6.77803">
        <ele>-5</ele>
        <time>2012-06-29T14:54:35Z</time>
      </trkpt>
      <trkpt lat="43.41049" lon="6.77817">
        <ele>-5</ele>
        <time>2012-06-29T14:54:40Z</time>
      </trkpt>
      <trkpt lat="43.41051" lon="6.77829">
        <ele>-5</ele>
        <time>2012-06-29T14:54:45Z</time>
      </trkpt>
      <trkpt lat="43.41053" lon="6.77844">
        <ele>-5</ele>
        <time>2012-06-29T14:54:50Z</time>
      </trkpt>
      <trkpt lat="43.41055" lon="6.77858">
        <ele>-5</ele>
        <time>2012-06-29T14:54:55Z</time>
      </trkpt>
      <trkpt lat="43.41056" lon="6.77872">
        <ele>-5</ele>
        <time>2012-06-29T14:55:00Z</time>
      </trkpt>
      <trkpt lat="43.41056" lon="6.77887">
        <ele>-5</ele>
        <time>2012-06-29T14:55:05Z</time>
      </trkpt>
      <trkpt lat="43.41056" lon="6.77899">
        <ele>-5</ele>
        <time>2012-06-29T14:55:10Z</time>
      </trkpt>
      <trkpt lat="43.41056" lon="6.77914">
        <ele>-5</ele>
        <time>2012-06-29T14:55:16Z</time>
      </trkpt>
      <trkpt lat="43.41054" lon="6.77926">
        <ele>-5</ele>
        <time>2012-06-29T14:55:22Z</time>
      </trkpt>
      <trkpt lat="43.41052" lon="6.7794">
        <ele>-5</ele>
        <time>2012-06-29T14:55:29Z</time>
      </trkpt>
      <trkpt lat="43.4105" lon="6.77952">
        <ele>-5</ele>
        <time>2012-06-29T14:55:37Z</time>
      </trkpt>
      <trkpt lat="43.4104" lon="6.77954">
        <ele>-5</ele>
        <time>2012-06-29T14:55:48Z</time>
      </trkpt>
      <trkpt lat="43.41032" lon="6.77947">
        <ele>-5</ele>
        <time>2012-06-29T14:55:52Z</time>
      </trkpt>
      <trkpt lat="43.41022" lon="6.77939">
        <ele>-5</ele>
        <time>2012-06-29T14:55:56Z</time>
      </trkpt>
      <trkpt lat="43.41014" lon="6.77933">
        <ele>-5</ele>
        <time>2012-06-29T14:55:59Z</time>
      </trkpt>
      <trkpt lat="43.41005" lon="6.77928">
        <ele>-5</ele>
        <time>2012-06-29T14:56:02Z</time>
      </trkpt>
      <trkpt lat="43.40997" lon="6.77924">
        <ele>-5</ele>
        <time>2012-06-29T14:56:05Z</time>
      </trkpt>
      <trkpt lat="43.40985" lon="6.77921">
        <ele>-5</ele>
        <time>2012-06-29T14:56:09Z</time>
      </trkpt>
      <trkpt lat="43.40974" lon="6.77917">
        <ele>-5</ele>
        <time>2012-06-29T14:56:13Z</time>
      </trkpt>
      <trkpt lat="43.40965" lon="6.77915">
        <ele>-5</ele>
        <time>2012-06-29T14:56:16Z</time>
      </trkpt>
      <trkpt lat="43.40953" lon="6.77914">
        <ele>-5</ele>
        <time>2012-06-29T14:56:20Z</time>
      </trkpt>
      <trkpt lat="43.40942" lon="6.77911">
        <ele>-5</ele>
        <time>2012-06-29T14:56:24Z</time>
      </trkpt>
      <trkpt lat="43.40931" lon="6.77908">
        <ele>-5</ele>
        <time>2012-06-29T14:56:28Z</time>
      </trkpt>
      <trkpt lat="43.40921" lon="6.77904">
        <ele>-5</ele>
        <time>2012-06-29T14:56:32Z</time>
      </trkpt>
      <trkpt lat="43.40911" lon="6.77898">
        <ele>-5</ele>
        <time>2012-06-29T14:56:36Z</time>
      </trkpt>
      <trkpt lat="43.40902" lon="6.77892">
        <ele>-5</ele>
        <time>2012-06-29T14:56:40Z</time>
      </trkpt>
      <trkpt lat="43.40891" lon="6.77888">
        <ele>-5</ele>
        <time>2012-06-29T14:56:44Z</time>
      </trkpt>
      <trkpt lat="43.40881" lon="6.77884">
        <ele>-5</ele>
        <time>2012-06-29T14:56:48Z</time>
      </trkpt>
      <trkpt lat="43.4087" lon="6.7788">
        <time>2012-06-29T14:56:52Z</time>
      </trkpt>
      <trkpt lat="43.40859" lon="6.77877">
        <time>2012-06-29T14:56:56Z</time>
      </trkpt>
      <trkpt lat="43.40849" lon="6.77874">
        <time>2012-06-29T14:57:00Z</time>
      </trkpt>
      <trkpt lat="43.40838" lon="6.77871">
        <time>2012-06-29T14:57:04Z</time>
      </trkpt>
      <trkpt lat="43.40828" lon="6.77868">
        <time>2012-06-29T14:57:08Z</time>
      </trkpt>
      <trkpt lat="43.40819" lon="6.77862">
        <time>2012-06-29T14:57:12Z</time>
      </trkpt>
      <trkpt lat="43.40809" lon="6.77861">
        <time>2012-06-29T14:57:16Z</time>
      </trkpt>
      <trkpt lat="43.40797" lon="6.77858">
        <time>2012-06-29T14:57:20Z</time>
      </trkpt>
      <trkpt lat="43.40787" lon="6.77854">
        <time>2012-06-29T14:57:24Z</time>
      </trkpt>
      <trkpt lat="43.40777" lon="6.77851">
        <time>2012-06-29T14:57:28Z</time>
      </trkpt>
      <trkpt lat="43.40767" lon="6.77847">
        <time>2012-06-29T14:57:32Z</time>
      </trkpt>
      <trkpt lat="43.40758" lon="6.77845">
        <time>2012-06-29T14:57:35Z</time>
      </trkpt>
      <trkpt lat="43.40748" lon="6.77842">
        <time>2012-06-29T14:57:39Z</time>
      </trkpt>
      <trkpt lat="43.40739" lon="6.77838">
        <time>2012-06-29T14:57:43Z</time>
      </trkpt>
      <trkpt lat="43.40728" lon="6.77836">
        <time>2012-06-29T14:57:47Z</time>
      </trkpt>
      <trkpt lat="43.40718" lon="6.77835">
        <time>2012-06-29T14:57:51Z</time>
      </trkpt>
      <trkpt lat="43.40708" lon="6.77833">
        <time>2012-06-29T14:57:55Z</time>
      </trkpt>
      <trkpt lat="43.40699" lon="6.77833">
        <time>2012-06-29T14:57:59Z</time>
      </trkpt>
      <trkpt lat="43.40689" lon="6.77832">
        <time>2012-06-29T14:58:03Z</time>
      </trkpt>
      <trkpt lat="43.40679" lon="6.77831">
        <time>2012-06-29T14:58:07Z</time>
      </trkpt>
      <trkpt lat="43.40668" lon="6.77829">
        <time>2012-06-29T14:58:11Z</time>
      </trkpt>
      <trkpt lat="43.40659" lon="6.77828">
        <time>2012-06-29T14:58:15Z</time>
      </trkpt>
      <trkpt lat="43.40649" lon="6.77827">
        <time>2012-06-29T14:58:19Z</time>
      </trkpt>
      <trkpt lat="43.40639" lon="6.77828">
        <time>2012-06-29T14:58:23Z</time>
      </trkpt>
      <trkpt lat="43.40628" lon="6.7783">
        <time>2012-06-29T14:58:28Z</time>
      </trkpt>
      <trkpt lat="43.40619" lon="6.77831">
        <time>2012-06-29T14:58:32Z</time>
      </trkpt>
      <trkpt lat="43.4061" lon="6.77831">
        <time>2012-06-29T14:58:36Z</time>
      </trkpt>
      <trkpt lat="43.406" lon="6.77831">
        <time>2012-06-29T14:58:40Z</time>
      </trkpt>
      <trkpt lat="43.40591" lon="6.7783">
        <time>2012-06-29T14:58:44Z</time>
      </trkpt>
      <trkpt lat="43.40581" lon="6.77831">
        <time>2012-06-29T14:58:48Z</time>
      </trkpt>
      <trkpt lat="43.40572" lon="6.77832">
        <time>2012-06-29T14:58:52Z</time>
      </trkpt>
      <trkpt lat="43.40562" lon="6.77832">
        <time>2012-06-29T14:58:56Z</time>
      </trkpt>
      <trkpt lat="43.40552" lon="6.77833">
        <time>2012-06-29T14:59:00Z</time>
      </trkpt>
      <trkpt lat="43.40542" lon="6.77833">
        <time>2012-06-29T14:59:04Z</time>
      </trkpt>
      <trkpt lat="43.40532" lon="6.77834">
        <time>2012-06-29T14:59:08Z</time>
      </trkpt>
      <trkpt lat="43.40522" lon="6.77835">
        <time>2012-06-29T14:59:12Z</time>
      </trkpt>
      <trkpt lat="43.40513" lon="6.77835">
        <time>2012-06-29T14:59:16Z</time>
      </trkpt>
      <trkpt lat="43.40503" lon="6.77835">
        <time>2012-06-29T14:59:20Z</time>
      </trkpt>
      <trkpt lat="43.40493" lon="6.77835">
        <time>2012-06-29T14:59:24Z</time>
      </trkpt>
      <trkpt lat="43.40482" lon="6.77833">
        <time>2012-06-29T14:59:28Z</time>
      </trkpt>
      <trkpt lat="43.40473" lon="6.77832">
        <time>2012-06-29T14:59:32Z</time>
      </trkpt>
      <trkpt lat="43.40463" lon="6.77831">
        <time>2012-06-29T14:59:36Z</time>
      </trkpt>
      <trkpt lat="43.40454" lon="6.7783">
        <time>2012-06-29T14:59:40Z</time>
      </trkpt>
      <trkpt lat="43.40443" lon="6.7783">
        <time>2012-06-29T14:59:44Z</time>
      </trkpt>
      <trkpt lat="43.40433" lon="6.7783">
        <time>2012-06-29T14:59:48Z</time>
      </trkpt>
      <trkpt lat="43.40423" lon="6.7783">
        <time>2012-06-29T14:59:52Z</time>
      </trkpt>
      <trkpt lat="43.40413" lon="6.7783">
        <time>2012-06-29T14:59:56Z</time>
      </trkpt>
      <trkpt lat="43.40403" lon="6.77832">
        <time>2012-06-29T15:00:00Z</time>
      </trkpt>
      <trkpt lat="43.40393" lon="6.77833">
        <time>2012-06-29T15:00:04Z</time>
      </trkpt>
      <trkpt lat="43.40384" lon="6.77834">
        <time>2012-06-29T15:00:08Z</time>
      </trkpt>
      <trkpt lat="43.40374" lon="6.77835">
        <time>2012-06-29T15:00:12Z</time>
      </trkpt>
      <trkpt lat="43.40365" lon="6.77836">
        <time>2012-06-29T15:00:16Z</time>
      </trkpt>
      <trkpt lat="43.40356" lon="6.77835">
        <time>2012-06-29T15:00:20Z</time>
      </trkpt>
      <trkpt lat="43.40346" lon="6.77834">
        <time>2012-06-29T15:00:24Z</time>
      </trkpt>
      <trkpt lat="43.40336" lon="6.77834">
        <time>2012-06-29T15:00:28Z</time>
      </trkpt>
      <trkpt lat="43.40325" lon="6.77833">
        <time>2012-06-29T15:00:32Z</time>
      </trkpt>
      <trkpt lat="43.40315" lon="6.77831">
        <time>2012-06-29T15:00:36Z</time>
      </trkpt>
      <trkpt lat="43.40304" lon="6.7783">
        <time>2012-06-29T15:00:40Z</time>
      </trkpt>
      <trkpt lat="43.40295" lon="6.77829">
        <time>2012-06-29T15:00:44Z</time>
      </trkpt>
      <trkpt lat="43.40286" lon="6.77827">
        <time>2012-06-29T15:00:48Z</time>
      </trkpt>
      <trkpt lat="43.40276" lon="6.77826">
        <time>2012-06-29T15:00:52Z</time>
      </trkpt>
      <trkpt lat="43.40266" lon="6.77825">
        <time>2012-06-29T15:00:56Z</time>
      </trkpt>
      <trkpt lat="43.40255" lon="6.77824">
        <time>2012-06-29T15:01:00Z</time>
      </trkpt>
      <trkpt lat="43.40245" lon="6.77824">
        <time>2012-06-29T15:01:04Z</time>
      </trkpt>
      <trkpt lat="43.40235" lon="6.77824">
        <time>2012-06-29T15:01:08Z</time>
      </trkpt>
      <trkpt lat="43.40224" lon="6.77824">
        <time>2012-06-29T15:01:12Z</time>
      </trkpt>
      <trkpt lat="43.40214" lon="6.77823">
        <time>2012-06-29T15:01:16Z</time>
      </trkpt>
      <trkpt lat="43.40203" lon="6.77822">
        <time>2012-06-29T15:01:20Z</time>
      </trkpt>
      <trkpt lat="43.40193" lon="6.77823">
        <time>2012-06-29T15:01:24Z</time>
      </trkpt>
      <trkpt lat="43.40184" lon="6.77823">
        <time>2012-06-29T15:01:28Z</time>
      </trkpt>
      <trkpt lat="43.40175" lon="6.77821">
        <time>2012-06-29T15:01:31Z</time>
      </trkpt>
      <trkpt lat="43.40164" lon="6.77821">
        <time>2012-06-29T15:01:35Z</time>
      </trkpt>
      <trkpt lat="43.40152" lon="6.77821">
        <time>2012-06-29T15:01:39Z</time>
      </trkpt>
      <trkpt lat="43.40142" lon="6.77821">
        <time>2012-06-29T15:01:43Z</time>
      </trkpt>
      <trkpt lat="43.40132" lon="6.7782">
        <time>2012-06-29T15:01:47Z</time>
      </trkpt>
      <trkpt lat="43.40122" lon="6.7782">
        <time>2012-06-29T15:01:51Z</time>
      </trkpt>
      <trkpt lat="43.40112" lon="6.7782">
        <time>2012-06-29T15:01:55Z</time>
      </trkpt>
      <trkpt lat="43.40102" lon="6.77821">
        <time>2012-06-29T15:01:59Z</time>
      </trkpt>
      <trkpt lat="43.40092" lon="6.77823">
        <time>2012-06-29T15:02:03Z</time>
      </trkpt>
      <trkpt lat="43.40082" lon="6.77822">
        <time>2012-06-29T15:02:07Z</time>
      </trkpt>
      <trkpt lat="43.40072" lon="6.77821">
        <time>2012-06-29T15:02:11Z</time>
      </trkpt>
      <trkpt lat="43.40062" lon="6.77821">
        <time>2012-06-29T15:02:15Z</time>
      </trkpt>
      <trkpt lat="43.40051" lon="6.77819">
        <time>2012-06-29T15:02:19Z</time>
      </trkpt>
      <trkpt lat="43.40041" lon="6.77819">
        <time>2012-06-29T15:02:23Z</time>
      </trkpt>
      <trkpt lat="43.40031" lon="6.77819">
        <time>2012-06-29T15:02:27Z</time>
      </trkpt>
      <trkpt lat="43.4002" lon="6.77819">
        <time>2012-06-29T15:02:31Z</time>
      </trkpt>
      <trkpt lat="43.4001" lon="6.7782">
        <time>2012-06-29T15:02:35Z</time>
      </trkpt>
      <trkpt lat="43.39999" lon="6.77822">
        <time>2012-06-29T15:02:39Z</time>
      </trkpt>
      <trkpt lat="43.39988" lon="6.77823">
        <time>2012-06-29T15:02:44Z</time>
      </trkpt>
      <trkpt lat="43.39977" lon="6.77821">
        <time>2012-06-29T15:02:48Z</time>
      </trkpt>
      <trkpt lat="43.39968" lon="6.77819">
        <time>2012-06-29T15:02:52Z</time>
      </trkpt>
      <trkpt lat="43.39957" lon="6.77816">
        <time>2012-06-29T15:02:56Z</time>
      </trkpt>
      <trkpt lat="43.39946" lon="6.77811">
        <time>2012-06-29T15:03:00Z</time>
      </trkpt>
      <trkpt lat="43.39935" lon="6.77809">
        <time>2012-06-29T15:03:04Z</time>
      </trkpt>
      <trkpt lat="43.39924" lon="6.77808">
        <time>2012-06-29T15:03:08Z</time>
      </trkpt>
      <trkpt lat="43.39913" lon="6.77808">
        <time>2012-06-29T15:03:12Z</time>
      </trkpt>
      <trkpt lat="43.39903" lon="6.77808">
        <time>2012-06-29T15:03:17Z</time>
      </trkpt>
      <trkpt lat="43.39893" lon="6.77809">
        <time>2012-06-29T15:03:21Z</time>
      </trkpt>
      <trkpt lat="43.39884" lon="6.7781">
        <time>2012-06-29T15:03:25Z</time>
      </trkpt>
      <trkpt lat="43.39874" lon="6.77812">
        <time>2012-06-29T15:03:29Z</time>
      </trkpt>
      <trkpt lat="43.39863" lon="6.77815">
        <time>2012-06-29T15:03:34Z</time>
      </trkpt>
      <trkpt lat="43.39854" lon="6.77817">
        <time>2012-06-29T15:03:38Z</time>
      </trkpt>
      <trkpt lat="43.39845" lon="6.77818">
        <time>2012-06-29T15:03:42Z</time>
      </trkpt>
      <trkpt lat="43.39834" lon="6.77819">
        <time>2012-06-29T15:03:47Z</time>
      </trkpt>
      <trkpt lat="43.39825" lon="6.77813">
        <time>2012-06-29T15:03:52Z</time>
      </trkpt>
      <trkpt lat="43.39821" lon="6.778">
        <time>2012-06-29T15:03:56Z</time>
      </trkpt>
      <trkpt lat="43.3982" lon="6.77787">
        <time>2012-06-29T15:04:00Z</time>
      </trkpt>
      <trkpt lat="43.3982" lon="6.77774">
        <time>2012-06-29T15:04:04Z</time>
      </trkpt>
      <trkpt lat="43.39822" lon="6.77762">
        <time>2012-06-29T15:04:08Z</time>
      </trkpt>
      <trkpt lat="43.39824" lon="6.77747">
        <time>2012-06-29T15:04:13Z</time>
      </trkpt>
      <trkpt lat="43.39826" lon="6.77733">
        <time>2012-06-29T15:04:18Z</time>
      </trkpt>
      <trkpt lat="43.39828" lon="6.77721">
        <time>2012-06-29T15:04:23Z</time>
      </trkpt>
      <trkpt lat="43.39829" lon="6.77708">
        <time>2012-06-29T15:04:28Z</time>
      </trkpt>
      <trkpt lat="43.39831" lon="6.77695">
        <time>2012-06-29T15:04:33Z</time>
      </trkpt>
      <trkpt lat="43.39835" lon="6.77683">
        <time>2012-06-29T15:04:38Z</time>
      </trkpt>
      <trkpt lat="43.39836" lon="6.7767">
        <time>2012-06-29T15:04:43Z</time>
      </trkpt>
      <trkpt lat="43.39835" lon="6.77658">
        <time>2012-06-29T15:04:49Z</time>
      </trkpt>
      <trkpt lat="43.39834" lon="6.77645">
        <ele>8</ele>
        <time>2012-06-29T15:04:55Z</time>
      </trkpt>
      <trkpt lat="43.39837" lon="6.77631">
        <ele>8</ele>
        <time>2012-06-29T15:04:59Z</time>
      </trkpt>
      <trkpt lat="43.39838" lon="6.77618">
        <ele>8</ele>
        <time>2012-06-29T15:05:03Z</time>
      </trkpt>
      <trkpt lat="43.3984" lon="6.77604">
        <ele>1</ele>
        <time>2012-06-29T15:05:08Z</time>
      </trkpt>
      <trkpt lat="43.39843" lon="6.77591">
        <ele>1</ele>
        <time>2012-06-29T15:05:13Z</time>
      </trkpt>
      <trkpt lat="43.39848" lon="6.77578">
        <ele>1</ele>
        <time>2012-06-29T15:05:18Z</time>
      </trkpt>
      <trkpt lat="43.39848" lon="6.77565">
        <ele>1</ele>
        <time>2012-06-29T15:05:23Z</time>
      </trkpt>
      <trkpt lat="43.3985" lon="6.77552">
        <ele>1</ele>
        <time>2012-06-29T15:05:28Z</time>
      </trkpt>
      <trkpt lat="43.39852" lon="6.77538">
        <ele>1</ele>
        <time>2012-06-29T15:05:34Z</time>
      </trkpt>
      <trkpt lat="43.39854" lon="6.77526">
        <ele>1</ele>
        <time>2012-06-29T15:05:39Z</time>
      </trkpt>
      <trkpt lat="43.39856" lon="6.77512">
        <ele>1</ele>
        <time>2012-06-29T15:05:44Z</time>
      </trkpt>
      <trkpt lat="43.39857" lon="6.775">
        <ele>1</ele>
        <time>2012-06-29T15:05:48Z</time>
      </trkpt>
      <trkpt lat="43.39859" lon="6.77484">
        <ele>1</ele>
        <time>2012-06-29T15:05:53Z</time>
      </trkpt>
      <trkpt lat="43.39861" lon="6.77469">
        <ele>1</ele>
        <time>2012-06-29T15:05:58Z</time>
      </trkpt>
      <trkpt lat="43.39863" lon="6.77454">
        <ele>1</ele>
        <time>2012-06-29T15:06:03Z</time>
      </trkpt>
      <trkpt lat="43.39865" lon="6.77438">
        <ele>1</ele>
        <time>2012-06-29T15:06:08Z</time>
      </trkpt>
      <trkpt lat="43.39866" lon="6.77426">
        <ele>1</ele>
        <time>2012-06-29T15:06:12Z</time>
      </trkpt>
      <trkpt lat="43.39867" lon="6.77412">
        <ele>1</ele>
        <time>2012-06-29T15:06:17Z</time>
      </trkpt>
      <trkpt lat="43.39869" lon="6.77398">
        <ele>1</ele>
        <time>2012-06-29T15:06:22Z</time>
      </trkpt>
      <trkpt lat="43.3987" lon="6.77384">
        <ele>1</ele>
        <time>2012-06-29T15:06:27Z</time>
      </trkpt>
      <trkpt lat="43.39871" lon="6.7737">
        <ele>1</ele>
        <time>2012-06-29T15:06:32Z</time>
      </trkpt>
      <trkpt lat="43.39873" lon="6.77356">
        <ele>1</ele>
        <time>2012-06-29T15:06:37Z</time>
      </trkpt>
      <trkpt lat="43.39875" lon="6.77342">
        <ele>1</ele>
        <time>2012-06-29T15:06:42Z</time>
      </trkpt>
      <trkpt lat="43.39875" lon="6.77328">
        <ele>1</ele>
        <time>2012-06-29T15:06:47Z</time>
      </trkpt>
      <trkpt lat="43.39875" lon="6.77314">
        <ele>1</ele>
        <time>2012-06-29T15:06:52Z</time>
      </trkpt>
      <trkpt lat="43.39875" lon="6.77301">
        <ele>1</ele>
        <time>2012-06-29T15:06:56Z</time>
      </trkpt>
      <trkpt lat="43.39875" lon="6.77288">
        <ele>1</ele>
        <time>2012-06-29T15:07:00Z</time>
      </trkpt>
      <trkpt lat="43.39875" lon="6.77276">
        <ele>1</ele>
        <time>2012-06-29T15:07:04Z</time>
      </trkpt>
      <trkpt lat="43.39876" lon="6.77263">
        <ele>1</ele>
        <time>2012-06-29T15:07:08Z</time>
      </trkpt>
      <trkpt lat="43.39876" lon="6.77249">
        <ele>1</ele>
        <time>2012-06-29T15:07:13Z</time>
      </trkpt>
      <trkpt lat="43.39876" lon="6.77235">
        <ele>1</ele>
        <time>2012-06-29T15:07:17Z</time>
      </trkpt>
      <trkpt lat="43.39875" lon="6.77221">
        <ele>1</ele>
        <time>2012-06-29T15:07:21Z</time>
      </trkpt>
      <trkpt lat="43.39875" lon="6.77208">
        <ele>1</ele>
        <time>2012-06-29T15:07:25Z</time>
      </trkpt>
      <trkpt lat="43.39873" lon="6.77193">
        <ele>1</ele>
        <time>2012-06-29T15:07:29Z</time>
      </trkpt>
      <trkpt lat="43.39873" lon="6.77179">
        <ele>1</ele>
        <time>2012-06-29T15:07:33Z</time>
      </trkpt>
      <trkpt lat="43.39875" lon="6.77167">
        <ele>1</ele>
        <time>2012-06-29T15:07:37Z</time>
      </trkpt>
      <trkpt lat="43.3988" lon="6.77156">
        <ele>1</ele>
        <time>2012-06-29T15:07:41Z</time>
      </trkpt>
      <trkpt lat="43.39885" lon="6.77144">
        <ele>1</ele>
        <time>2012-06-29T15:07:47Z</time>
      </trkpt>
      <trkpt lat="43.39892" lon="6.77134">
        <ele>1</ele>
        <time>2012-06-29T15:07:52Z</time>
      </trkpt>
      <trkpt lat="43.39898" lon="6.77122">
        <ele>1</ele>
        <time>2012-06-29T15:07:57Z</time>
      </trkpt>
      <trkpt lat="43.39902" lon="6.7711">
        <ele>1</ele>
        <time>2012-06-29T15:08:02Z</time>
      </trkpt>
      <trkpt lat="43.39909" lon="6.77099">
        <ele>1</ele>
        <time>2012-06-29T15:08:07Z</time>
      </trkpt>
      <trkpt lat="43.39918" lon="6.77091">
        <ele>1</ele>
        <time>2012-06-29T15:08:12Z</time>
      </trkpt>
      <trkpt lat="43.39926" lon="6.77085">
        <ele>1</ele>
        <time>2012-06-29T15:08:16Z</time>
      </trkpt>
      <trkpt lat="43.39934" lon="6.77079">
        <ele>1</ele>
        <time>2012-06-29T15:08:20Z</time>
      </trkpt>
      <trkpt lat="43.39943" lon="6.77073">
        <ele>1</ele>
        <time>2012-06-29T15:08:25Z</time>
      </trkpt>
      <trkpt lat="43.39951" lon="6.77065">
        <ele>1</ele>
        <time>2012-06-29T15:08:29Z</time>
      </trkpt>
      <trkpt lat="43.39959" lon="6.77054">
        <ele>1</ele>
        <time>2012-06-29T15:08:33Z</time>
      </trkpt>
      <trkpt lat="43.39966" lon="6.77045">
        <ele>1</ele>
        <time>2012-06-29T15:08:37Z</time>
      </trkpt>
      <trkpt lat="43.39974" lon="6.77037">
        <ele>1</ele>
        <time>2012-06-29T15:08:41Z</time>
      </trkpt>
      <trkpt lat="43.39983" lon="6.77029">
        <ele>1</ele>
        <time>2012-06-29T15:08:45Z</time>
      </trkpt>
      <trkpt lat="43.39991" lon="6.77019">
        <ele>1</ele>
        <time>2012-06-29T15:08:50Z</time>
      </trkpt>
      <trkpt lat="43.39999" lon="6.77011">
        <ele>1</ele>
        <time>2012-06-29T15:08:54Z</time>
      </trkpt>
      <trkpt lat="43.40008" lon="6.77003">
        <ele>1</ele>
        <time>2012-06-29T15:08:58Z</time>
      </trkpt>
      <trkpt lat="43.40015" lon="6.76994">
        <ele>1</ele>
        <time>2012-06-29T15:09:02Z</time>
      </trkpt>
      <trkpt lat="43.40025" lon="6.76984">
        <ele>1</ele>
        <time>2012-06-29T15:09:07Z</time>
      </trkpt>
      <trkpt lat="43.40032" lon="6.76976">
        <ele>1</ele>
        <time>2012-06-29T15:09:11Z</time>
      </trkpt>
      <trkpt lat="43.40041" lon="6.76968">
        <ele>1</ele>
        <time>2012-06-29T15:09:15Z</time>
      </trkpt>
      <trkpt lat="43.40048" lon="6.76961">
        <ele>1</ele>
        <time>2012-06-29T15:09:18Z</time>
      </trkpt>
      <trkpt lat="43.40057" lon="6.76953">
        <ele>1</ele>
        <time>2012-06-29T15:09:22Z</time>
      </trkpt>
      <trkpt lat="43.40065" lon="6.76945">
        <ele>1</ele>
        <time>2012-06-29T15:09:26Z</time>
      </trkpt>
      <trkpt lat="43.40073" lon="6.76937">
        <ele>1</ele>
        <time>2012-06-29T15:09:30Z</time>
      </trkpt>
      <trkpt lat="43.40082" lon="6.76931">
        <ele>1</ele>
        <time>2012-06-29T15:09:34Z</time>
      </trkpt>
      <trkpt lat="43.40091" lon="6.76926">
        <ele>1</ele>
        <time>2012-06-29T15:09:37Z</time>
      </trkpt>
      <trkpt lat="43.40101" lon="6.76918">
        <ele>1</ele>
        <time>2012-06-29T15:09:41Z</time>
      </trkpt>
      <trkpt lat="43.40109" lon="6.76911">
        <ele>1</ele>
        <time>2012-06-29T15:09:45Z</time>
      </trkpt>
      <trkpt lat="43.40117" lon="6.76904">
        <ele>1</ele>
        <time>2012-06-29T15:09:49Z</time>
      </trkpt>
      <trkpt lat="43.40125" lon="6.76898">
        <ele>1</ele>
        <time>2012-06-29T15:09:52Z</time>
      </trkpt>
      <trkpt lat="43.40132" lon="6.7689">
        <ele>1</ele>
        <time>2012-06-29T15:09:56Z</time>
      </trkpt>
      <trkpt lat="43.40139" lon="6.76882">
        <ele>1</ele>
        <time>2012-06-29T15:10:01Z</time>
      </trkpt>
      <trkpt lat="43.40148" lon="6.76873">
        <ele>1</ele>
        <time>2012-06-29T15:10:06Z</time>
      </trkpt>
      <trkpt lat="43.40157" lon="6.76866">
        <ele>1</ele>
        <time>2012-06-29T15:10:11Z</time>
      </trkpt>
      <trkpt lat="43.40166" lon="6.76861">
        <ele>1</ele>
        <time>2012-06-29T15:10:15Z</time>
      </trkpt>
      <trkpt lat="43.40175" lon="6.76855">
        <ele>1</ele>
        <time>2012-06-29T15:10:19Z</time>
      </trkpt>
      <trkpt lat="43.40184" lon="6.76848">
        <ele>1</ele>
        <time>2012-06-29T15:10:23Z</time>
      </trkpt>
      <trkpt lat="43.40195" lon="6.76842">
        <ele>1</ele>
        <time>2012-06-29T15:10:27Z</time>
      </trkpt>
      <trkpt lat="43.40203" lon="6.76836">
        <ele>1</ele>
        <time>2012-06-29T15:10:30Z</time>
      </trkpt>
      <trkpt lat="43.40211" lon="6.76829">
        <ele>1</ele>
        <time>2012-06-29T15:10:34Z</time>
      </trkpt>
      <trkpt lat="43.40221" lon="6.76822">
        <ele>1</ele>
        <time>2012-06-29T15:10:38Z</time>
      </trkpt>
      <trkpt lat="43.4023" lon="6.76815">
        <ele>1</ele>
        <time>2012-06-29T15:10:42Z</time>
      </trkpt>
      <trkpt lat="43.40239" lon="6.76808">
        <ele>1</ele>
        <time>2012-06-29T15:10:46Z</time>
      </trkpt>
      <trkpt lat="43.40248" lon="6.76802">
        <ele>1</ele>
        <time>2012-06-29T15:10:50Z</time>
      </trkpt>
      <trkpt lat="43.40257" lon="6.76794">
        <ele>1</ele>
        <time>2012-06-29T15:10:54Z</time>
      </trkpt>
      <trkpt lat="43.40266" lon="6.76787">
        <ele>1</ele>
        <time>2012-06-29T15:10:58Z</time>
      </trkpt>
      <trkpt lat="43.40275" lon="6.7678">
        <ele>1</ele>
        <time>2012-06-29T15:11:02Z</time>
      </trkpt>
      <trkpt lat="43.40284" lon="6.76773">
        <ele>1</ele>
        <time>2012-06-29T15:11:06Z</time>
      </trkpt>
      <trkpt lat="43.40293" lon="6.76767">
        <ele>1</ele>
        <time>2012-06-29T15:11:10Z</time>
      </trkpt>
      <trkpt lat="43.40302" lon="6.7676">
        <ele>1</ele>
        <time>2012-06-29T15:11:14Z</time>
      </trkpt>
      <trkpt lat="43.40312" lon="6.76754">
        <ele>1</ele>
        <time>2012-06-29T15:11:18Z</time>
      </trkpt>
      <trkpt lat="43.40321" lon="6.76747">
        <ele>1</ele>
        <time>2012-06-29T15:11:22Z</time>
      </trkpt>
      <trkpt lat="43.40329" lon="6.7674">
        <ele>1</ele>
        <time>2012-06-29T15:11:26Z</time>
      </trkpt>
      <trkpt lat="43.40338" lon="6.76731">
        <ele>1</ele>
        <time>2012-06-29T15:11:30Z</time>
      </trkpt>
      <trkpt lat="43.40346" lon="6.76724">
        <ele>1</ele>
        <time>2012-06-29T15:11:34Z</time>
      </trkpt>
      <trkpt lat="43.40353" lon="6.76717">
        <ele>1</ele>
        <time>2012-06-29T15:11:38Z</time>
      </trkpt>
      <trkpt lat="43.40362" lon="6.76713">
        <ele>1</ele>
        <time>2012-06-29T15:11:42Z</time>
      </trkpt>
      <trkpt lat="43.40372" lon="6.76707">
        <ele>1</ele>
        <time>2012-06-29T15:11:46Z</time>
      </trkpt>
      <trkpt lat="43.40382" lon="6.76701">
        <ele>1</ele>
        <time>2012-06-29T15:11:50Z</time>
      </trkpt>
      <trkpt lat="43.4039" lon="6.76693">
        <ele>1</ele>
        <time>2012-06-29T15:11:54Z</time>
      </trkpt>
      <trkpt lat="43.40398" lon="6.76686">
        <ele>1</ele>
        <time>2012-06-29T15:11:58Z</time>
      </trkpt>
      <trkpt lat="43.40407" lon="6.76678">
        <ele>1</ele>
        <time>2012-06-29T15:12:02Z</time>
      </trkpt>
      <trkpt lat="43.40416" lon="6.76671">
        <ele>1</ele>
        <time>2012-06-29T15:12:06Z</time>
      </trkpt>
      <trkpt lat="43.40424" lon="6.76663">
        <ele>1</ele>
        <time>2012-06-29T15:12:10Z</time>
      </trkpt>
      <trkpt lat="43.40431" lon="6.76656">
        <ele>1</ele>
        <time>2012-06-29T15:12:14Z</time>
      </trkpt>
      <trkpt lat="43.4044" lon="6.76647">
        <ele>1</ele>
        <time>2012-06-29T15:12:19Z</time>
      </trkpt>
      <trkpt lat="43.40447" lon="6.76639">
        <ele>1</ele>
        <time>2012-06-29T15:12:23Z</time>
      </trkpt>
      <trkpt lat="43.40455" lon="6.76633">
        <ele>1</ele>
        <time>2012-06-29T15:12:27Z</time>
      </trkpt>
      <trkpt lat="43.40463" lon="6.76625">
        <ele>1</ele>
        <time>2012-06-29T15:12:31Z</time>
      </trkpt>
      <trkpt lat="43.40471" lon="6.76618">
        <ele>1</ele>
        <time>2012-06-29T15:12:35Z</time>
      </trkpt>
      <trkpt lat="43.40479" lon="6.7661">
        <ele>1</ele>
        <time>2012-06-29T15:12:39Z</time>
      </trkpt>
      <trkpt lat="43.40488" lon="6.76603">
        <ele>1</ele>
        <time>2012-06-29T15:12:43Z</time>
      </trkpt>
      <trkpt lat="43.40498" lon="6.76597">
        <ele>1</ele>
        <time>2012-06-29T15:12:47Z</time>
      </trkpt>
      <trkpt lat="43.40508" lon="6.76592">
        <ele>1</ele>
        <time>2012-06-29T15:12:51Z</time>
      </trkpt>
      <trkpt lat="43.40517" lon="6.7659">
        <ele>1</ele>
        <time>2012-06-29T15:12:54Z</time>
      </trkpt>
      <trkpt lat="43.40528" lon="6.76587">
        <ele>1</ele>
        <time>2012-06-29T15:12:58Z</time>
      </trkpt>
      <trkpt lat="43.40538" lon="6.76584">
        <ele>1</ele>
        <time>2012-06-29T15:13:02Z</time>
      </trkpt>
      <trkpt lat="43.40547" lon="6.76581">
        <ele>1</ele>
        <time>2012-06-29T15:13:05Z</time>
      </trkpt>
      <trkpt lat="43.40558" lon="6.76575">
        <ele>1</ele>
        <time>2012-06-29T15:13:09Z</time>
      </trkpt>
      <trkpt lat="43.40566" lon="6.76571">
        <ele>1</ele>
        <time>2012-06-29T15:13:12Z</time>
      </trkpt>
      <trkpt lat="43.40577" lon="6.76569">
        <ele>1</ele>
        <time>2012-06-29T15:13:16Z</time>
      </trkpt>
      <trkpt lat="43.40586" lon="6.76568">
        <ele>1</ele>
        <time>2012-06-29T15:13:19Z</time>
      </trkpt>
      <trkpt lat="43.40596" lon="6.76565">
        <ele>1</ele>
        <time>2012-06-29T15:13:23Z</time>
      </trkpt>
      <trkpt lat="43.40606" lon="6.76564">
        <ele>1</ele>
        <time>2012-06-29T15:13:27Z</time>
      </trkpt>
      <trkpt lat="43.40617" lon="6.76561">
        <ele>1</ele>
        <time>2012-06-29T15:13:31Z</time>
      </trkpt>
      <trkpt lat="43.40628" lon="6.76557">
        <ele>1</ele>
        <time>2012-06-29T15:13:35Z</time>
      </trkpt>
      <trkpt lat="43.40638" lon="6.76553">
        <ele>1</ele>
        <time>2012-06-29T15:13:39Z</time>
      </trkpt>
      <trkpt lat="43.40647" lon="6.76549">
        <ele>1</ele>
        <time>2012-06-29T15:13:42Z</time>
      </trkpt>
      <trkpt lat="43.40658" lon="6.76547">
        <ele>1</ele>
        <time>2012-06-29T15:13:46Z</time>
      </trkpt>
      <trkpt lat="43.40667" lon="6.76546">
        <ele>1</ele>
        <time>2012-06-29T15:13:49Z</time>
      </trkpt>
      <trkpt lat="43.40678" lon="6.76542">
        <ele>1</ele>
        <time>2012-06-29T15:13:53Z</time>
      </trkpt>
      <trkpt lat="43.40689" lon="6.76539">
        <ele>1</ele>
        <time>2012-06-29T15:13:57Z</time>
      </trkpt>
      <trkpt lat="43.40701" lon="6.76538">
        <ele>1</ele>
        <time>2012-06-29T15:14:01Z</time>
      </trkpt>
      <trkpt lat="43.40712" lon="6.76536">
        <ele>1</ele>
        <time>2012-06-29T15:14:05Z</time>
      </trkpt>
      <trkpt lat="43.40723" lon="6.76532">
        <ele>1</ele>
        <time>2012-06-29T15:14:09Z</time>
      </trkpt>
      <trkpt lat="43.40731" lon="6.76528">
        <ele>1</ele>
        <time>2012-06-29T15:14:12Z</time>
      </trkpt>
      <trkpt lat="43.40742" lon="6.76526">
        <ele>1</ele>
        <time>2012-06-29T15:14:16Z</time>
      </trkpt>
      <trkpt lat="43.40753" lon="6.76523">
        <ele>1</ele>
        <time>2012-06-29T15:14:20Z</time>
      </trkpt>
      <trkpt lat="43.40763" lon="6.7652">
        <ele>1</ele>
        <time>2012-06-29T15:14:24Z</time>
      </trkpt>
      <trkpt lat="43.40774" lon="6.76518">
        <ele>1</ele>
        <time>2012-06-29T15:14:28Z</time>
      </trkpt>
      <trkpt lat="43.40784" lon="6.76515">
        <ele>1</ele>
        <time>2012-06-29T15:14:32Z</time>
      </trkpt>
      <trkpt lat="43.40796" lon="6.76511">
        <ele>1</ele>
        <time>2012-06-29T15:14:36Z</time>
      </trkpt>
      <trkpt lat="43.40806" lon="6.76508">
        <ele>1</ele>
        <time>2012-06-29T15:14:40Z</time>
      </trkpt>
      <trkpt lat="43.40817" lon="6.76505">
        <ele>1</ele>
        <time>2012-06-29T15:14:44Z</time>
      </trkpt>
      <trkpt lat="43.40828" lon="6.76504">
        <ele>1</ele>
        <time>2012-06-29T15:14:48Z</time>
      </trkpt>
      <trkpt lat="43.40837" lon="6.76503">
        <ele>1</ele>
        <time>2012-06-29T15:14:51Z</time>
      </trkpt>
      <trkpt lat="43.40849" lon="6.76501">
        <ele>1</ele>
        <time>2012-06-29T15:14:55Z</time>
      </trkpt>
      <trkpt lat="43.40859" lon="6.765">
        <ele>1</ele>
        <time>2012-06-29T15:14:59Z</time>
      </trkpt>
      <trkpt lat="43.4087" lon="6.76497">
        <ele>1</ele>
        <time>2012-06-29T15:15:03Z</time>
      </trkpt>
      <trkpt lat="43.40879" lon="6.76494">
        <ele>1</ele>
        <time>2012-06-29T15:15:07Z</time>
      </trkpt>
      <trkpt lat="43.40889" lon="6.76493">
        <ele>1</ele>
        <time>2012-06-29T15:15:10Z</time>
      </trkpt>
      <trkpt lat="43.409" lon="6.76493">
        <ele>1</ele>
        <time>2012-06-29T15:15:14Z</time>
      </trkpt>
      <trkpt lat="43.40909" lon="6.76492">
        <ele>1</ele>
        <time>2012-06-29T15:15:17Z</time>
      </trkpt>
      <trkpt lat="43.40919" lon="6.76489">
        <ele>1</ele>
        <time>2012-06-29T15:15:20Z</time>
      </trkpt>
      <trkpt lat="43.40928" lon="6.76486">
        <ele>1</ele>
        <time>2012-06-29T15:15:24Z</time>
      </trkpt>
      <trkpt lat="43.40938" lon="6.76484">
        <ele>1</ele>
        <time>2012-06-29T15:15:28Z</time>
      </trkpt>
      <trkpt lat="43.40948" lon="6.76483">
        <ele>1</ele>
        <time>2012-06-29T15:15:32Z</time>
      </trkpt>
      <trkpt lat="43.40959" lon="6.76483">
        <ele>1</ele>
        <time>2012-06-29T15:15:36Z</time>
      </trkpt>
      <trkpt lat="43.40972" lon="6.76482">
        <ele>1</ele>
        <time>2012-06-29T15:15:40Z</time>
      </trkpt>
      <trkpt lat="43.40981" lon="6.76479">
        <ele>1</ele>
        <time>2012-06-29T15:15:43Z</time>
      </trkpt>
      <trkpt lat="43.40992" lon="6.76477">
        <ele>1</ele>
        <time>2012-06-29T15:15:47Z</time>
      </trkpt>
      <trkpt lat="43.41002" lon="6.76476">
        <ele>1</ele>
        <time>2012-06-29T15:15:51Z</time>
      </trkpt>
      <trkpt lat="43.41012" lon="6.76475">
        <ele>1</ele>
        <time>2012-06-29T15:15:54Z</time>
      </trkpt>
      <trkpt lat="43.41021" lon="6.76475">
        <ele>1</ele>
        <time>2012-06-29T15:15:57Z</time>
      </trkpt>
      <trkpt lat="43.41031" lon="6.76472">
        <ele>1</ele>
        <time>2012-06-29T15:16:01Z</time>
      </trkpt>
      <trkpt lat="43.41041" lon="6.76468">
        <ele>1</ele>
        <time>2012-06-29T15:16:05Z</time>
      </trkpt>
      <trkpt lat="43.41051" lon="6.76465">
        <ele>1</ele>
        <time>2012-06-29T15:16:09Z</time>
      </trkpt>
      <trkpt lat="43.4106" lon="6.76464">
        <ele>1</ele>
        <time>2012-06-29T15:16:12Z</time>
      </trkpt>
      <trkpt lat="43.41071" lon="6.76462">
        <ele>1</ele>
        <time>2012-06-29T15:16:16Z</time>
      </trkpt>
      <trkpt lat="43.41081" lon="6.76461">
        <ele>1</ele>
        <time>2012-06-29T15:16:20Z</time>
      </trkpt>
      <trkpt lat="43.41093" lon="6.76462">
        <ele>1</ele>
        <time>2012-06-29T15:16:24Z</time>
      </trkpt>
      <trkpt lat="43.41104" lon="6.76458">
        <ele>1</ele>
        <time>2012-06-29T15:16:28Z</time>
      </trkpt>
      <trkpt lat="43.41114" lon="6.76456">
        <ele>1</ele>
        <time>2012-06-29T15:16:32Z</time>
      </trkpt>
      <trkpt lat="43.41125" lon="6.76454">
        <ele>1</ele>
        <time>2012-06-29T15:16:35Z</time>
      </trkpt>
      <trkpt lat="43.41135" lon="6.76453">
        <ele>1</ele>
        <time>2012-06-29T15:16:38Z</time>
      </trkpt>
      <trkpt lat="43.41145" lon="6.76453">
        <ele>1</ele>
        <time>2012-06-29T15:16:41Z</time>
      </trkpt>
      <trkpt lat="43.41155" lon="6.76453">
        <ele>1</ele>
        <time>2012-06-29T15:16:45Z</time>
      </trkpt>
      <trkpt lat="43.41164" lon="6.76453">
        <ele>1</ele>
        <time>2012-06-29T15:16:48Z</time>
      </trkpt>
      <trkpt lat="43.41175" lon="6.76454">
        <ele>1</ele>
        <time>2012-06-29T15:16:51Z</time>
      </trkpt>
      <trkpt lat="43.41185" lon="6.76453">
        <ele>1</ele>
        <time>2012-06-29T15:16:54Z</time>
      </trkpt>
      <trkpt lat="43.41194" lon="6.76451">
        <ele>1</ele>
        <time>2012-06-29T15:16:57Z</time>
      </trkpt>
      <trkpt lat="43.41204" lon="6.7645">
        <ele>1</ele>
        <time>2012-06-29T15:17:01Z</time>
      </trkpt>
      <trkpt lat="43.41214" lon="6.76449">
        <ele>1</ele>
        <time>2012-06-29T15:17:04Z</time>
      </trkpt>
      <trkpt lat="43.41223" lon="6.76448">
        <ele>1</ele>
        <time>2012-06-29T15:17:07Z</time>
      </trkpt>
      <trkpt lat="43.41233" lon="6.76447">
        <ele>1</ele>
        <time>2012-06-29T15:17:11Z</time>
      </trkpt>
      <trkpt lat="43.41243" lon="6.76445">
        <ele>1</ele>
        <time>2012-06-29T15:17:14Z</time>
      </trkpt>
      <trkpt lat="43.41253" lon="6.76442">
        <ele>1</ele>
        <time>2012-06-29T15:17:18Z</time>
      </trkpt>
      <trkpt lat="43.41264" lon="6.76441">
        <ele>1</ele>
        <time>2012-06-29T15:17:23Z</time>
      </trkpt>
      <trkpt lat="43.41274" lon="6.7644">
        <ele>1</ele>
        <time>2012-06-29T15:17:26Z</time>
      </trkpt>
      <trkpt lat="43.41284" lon="6.7644">
        <ele>1</ele>
        <time>2012-06-29T15:17:30Z</time>
      </trkpt>
      <trkpt lat="43.41296" lon="6.76438">
        <ele>1</ele>
        <time>2012-06-29T15:17:34Z</time>
      </trkpt>
      <trkpt lat="43.41306" lon="6.76436">
        <ele>1</ele>
        <time>2012-06-29T15:17:38Z</time>
      </trkpt>
      <trkpt lat="43.41316" lon="6.76433">
        <ele>1</ele>
        <time>2012-06-29T15:17:42Z</time>
      </trkpt>
      <trkpt lat="43.41325" lon="6.76431">
        <ele>1</ele>
        <time>2012-06-29T15:17:46Z</time>
      </trkpt>
      <trkpt lat="43.41336" lon="6.76428">
        <ele>1</ele>
        <time>2012-06-29T15:17:50Z</time>
      </trkpt>
      <trkpt lat="43.41346" lon="6.76425">
        <ele>1</ele>
        <time>2012-06-29T15:17:54Z</time>
      </trkpt>
      <trkpt lat="43.41355" lon="6.76424">
        <ele>1</ele>
        <time>2012-06-29T15:17:57Z</time>
      </trkpt>
      <trkpt lat="43.41364" lon="6.76422">
        <ele>1</ele>
        <time>2012-06-29T15:18:01Z</time>
      </trkpt>
      <trkpt lat="43.41374" lon="6.76418">
        <ele>1</ele>
        <time>2012-06-29T15:18:05Z</time>
      </trkpt>
      <trkpt lat="43.41384" lon="6.76416">
        <ele>1</ele>
        <time>2012-06-29T15:18:09Z</time>
      </trkpt>
      <trkpt lat="43.41395" lon="6.76414">
        <ele>1</ele>
        <time>2012-06-29T15:18:13Z</time>
      </trkpt>
      <trkpt lat="43.41405" lon="6.76412">
        <ele>1</ele>
        <time>2012-06-29T15:18:17Z</time>
      </trkpt>
      <trkpt lat="43.41414" lon="6.7641">
        <ele>1</ele>
        <time>2012-06-29T15:18:21Z</time>
      </trkpt>
      <trkpt lat="43.41423" lon="6.76407">
        <ele>1</ele>
        <time>2012-06-29T15:18:25Z</time>
      </trkpt>
      <trkpt lat="43.41433" lon="6.76405">
        <ele>1</ele>
        <time>2012-06-29T15:18:29Z</time>
      </trkpt>
      <trkpt lat="43.41444" lon="6.76404">
        <ele>1</ele>
        <time>2012-06-29T15:18:33Z</time>
      </trkpt>
      <trkpt lat="43.41455" lon="6.76401">
        <ele>1</ele>
        <time>2012-06-29T15:18:37Z</time>
      </trkpt>
      <trkpt lat="43.41466" lon="6.76399">
        <ele>1</ele>
        <time>2012-06-29T15:18:41Z</time>
      </trkpt>
      <trkpt lat="43.41477" lon="6.76398">
        <ele>1</ele>
        <time>2012-06-29T15:18:45Z</time>
      </trkpt>
      <trkpt lat="43.41486" lon="6.76395">
        <ele>1</ele>
        <time>2012-06-29T15:18:49Z</time>
      </trkpt>
      <trkpt lat="43.41497" lon="6.76391">
        <ele>1</ele>
        <time>2012-06-29T15:18:53Z</time>
      </trkpt>
      <trkpt lat="43.41507" lon="6.76387">
        <ele>1</ele>
        <time>2012-06-29T15:18:57Z</time>
      </trkpt>
      <trkpt lat="43.41516" lon="6.76383">
        <ele>1</ele>
        <time>2012-06-29T15:19:01Z</time>
      </trkpt>
      <trkpt lat="43.41526" lon="6.76378">
        <ele>1</ele>
        <time>2012-06-29T15:19:05Z</time>
      </trkpt>
      <trkpt lat="43.41536" lon="6.76373">
        <ele>1</ele>
        <time>2012-06-29T15:19:09Z</time>
      </trkpt>
      <trkpt lat="43.41546" lon="6.76369">
        <ele>1</ele>
        <time>2012-06-29T15:19:13Z</time>
      </trkpt>
      <trkpt lat="43.41557" lon="6.76365">
        <ele>1</ele>
        <time>2012-06-29T15:19:17Z</time>
      </trkpt>
      <trkpt lat="43.41568" lon="6.76362">
        <ele>1</ele>
        <time>2012-06-29T15:19:21Z</time>
      </trkpt>
      <trkpt lat="43.41576" lon="6.76359">
        <ele>1</ele>
        <time>2012-06-29T15:19:24Z</time>
      </trkpt>
      <trkpt lat="43.41585" lon="6.76355">
        <ele>1</ele>
        <time>2012-06-29T15:19:27Z</time>
      </trkpt>
      <trkpt lat="43.41594" lon="6.76352">
        <ele>1</ele>
        <time>2012-06-29T15:19:31Z</time>
      </trkpt>
      <trkpt lat="43.41604" lon="6.76348">
        <ele>1</ele>
        <time>2012-06-29T15:19:35Z</time>
      </trkpt>
      <trkpt lat="43.41613" lon="6.76343">
        <ele>1</ele>
        <time>2012-06-29T15:19:39Z</time>
      </trkpt>
      <trkpt lat="43.41623" lon="6.7634">
        <ele>1</ele>
        <time>2012-06-29T15:19:43Z</time>
      </trkpt>
      <trkpt lat="43.41634" lon="6.76335">
        <ele>1</ele>
        <time>2012-06-29T15:19:47Z</time>
      </trkpt>
      <trkpt lat="43.41644" lon="6.76332">
        <ele>1</ele>
        <time>2012-06-29T15:19:51Z</time>
      </trkpt>
      <trkpt lat="43.41655" lon="6.76326">
        <ele>1</ele>
        <time>2012-06-29T15:19:56Z</time>
      </trkpt>
      <trkpt lat="43.41665" lon="6.7632">
        <ele>1</ele>
        <time>2012-06-29T15:20:00Z</time>
      </trkpt>
      <trkpt lat="43.41673" lon="6.76315">
        <ele>1</ele>
        <time>2012-06-29T15:20:03Z</time>
      </trkpt>
      <trkpt lat="43.41684" lon="6.76308">
        <ele>1</ele>
        <time>2012-06-29T15:20:07Z</time>
      </trkpt>
      <trkpt lat="43.41695" lon="6.76304">
        <ele>1</ele>
        <time>2012-06-29T15:20:11Z</time>
      </trkpt>
      <trkpt lat="43.41703" lon="6.76299">
        <ele>1</ele>
        <time>2012-06-29T15:20:14Z</time>
      </trkpt>
      <trkpt lat="43.41712" lon="6.76294">
        <ele>1</ele>
        <time>2012-06-29T15:20:18Z</time>
      </trkpt>
      <trkpt lat="43.41722" lon="6.76289">
        <ele>1</ele>
        <time>2012-06-29T15:20:23Z</time>
      </trkpt>
      <trkpt lat="43.41731" lon="6.76284">
        <ele>1</ele>
        <time>2012-06-29T15:20:27Z</time>
      </trkpt>
      <trkpt lat="43.41742" lon="6.76281">
        <ele>1</ele>
        <time>2012-06-29T15:20:32Z</time>
      </trkpt>
      <trkpt lat="43.41751" lon="6.76276">
        <ele>1</ele>
        <time>2012-06-29T15:20:36Z</time>
      </trkpt>
      <trkpt lat="43.4176" lon="6.76272">
        <ele>1</ele>
        <time>2012-06-29T15:20:39Z</time>
      </trkpt>
      <trkpt lat="43.41768" lon="6.76268">
        <ele>1</ele>
        <time>2012-06-29T15:20:42Z</time>
      </trkpt>
      <trkpt lat="43.41777" lon="6.76263">
        <ele>1</ele>
        <time>2012-06-29T15:20:45Z</time>
      </trkpt>
      <trkpt lat="43.41786" lon="6.76259">
        <ele>1</ele>
        <time>2012-06-29T15:20:48Z</time>
      </trkpt>
      <trkpt lat="43.41794" lon="6.76254">
        <ele>1</ele>
        <time>2012-06-29T15:20:51Z</time>
      </trkpt>
      <trkpt lat="43.41805" lon="6.76248">
        <ele>1</ele>
        <time>2012-06-29T15:20:55Z</time>
      </trkpt>
      <trkpt lat="43.41813" lon="6.76245">
        <ele>1</ele>
        <time>2012-06-29T15:20:58Z</time>
      </trkpt>
      <trkpt lat="43.41824" lon="6.76241">
        <ele>1</ele>
        <time>2012-06-29T15:21:02Z</time>
      </trkpt>
      <trkpt lat="43.41835" lon="6.76234">
        <ele>1</ele>
        <time>2012-06-29T15:21:06Z</time>
      </trkpt>
      <trkpt lat="43.41844" lon="6.76226">
        <ele>1</ele>
        <time>2012-06-29T15:21:10Z</time>
      </trkpt>
      <trkpt lat="43.41853" lon="6.76219">
        <ele>1</ele>
        <time>2012-06-29T15:21:15Z</time>
      </trkpt>
      <trkpt lat="43.41863" lon="6.76214">
        <ele>1</ele>
        <time>2012-06-29T15:21:20Z</time>
      </trkpt>
      <trkpt lat="43.41871" lon="6.7621">
        <ele>1</ele>
        <time>2012-06-29T15:21:24Z</time>
      </trkpt>
      <trkpt lat="43.41883" lon="6.76206">
        <ele>1</ele>
        <time>2012-06-29T15:21:29Z</time>
      </trkpt>
      <trkpt lat="43.41891" lon="6.76202">
        <ele>1</ele>
        <time>2012-06-29T15:21:33Z</time>
      </trkpt>
      <trkpt lat="43.41901" lon="6.76199">
        <ele>1</ele>
        <time>2012-06-29T15:21:38Z</time>
      </trkpt>
      <trkpt lat="43.41911" lon="6.76199">
        <ele>1</ele>
        <time>2012-06-29T15:21:42Z</time>
      </trkpt>
      <trkpt lat="43.41921" lon="6.76199">
        <ele>1</ele>
        <time>2012-06-29T15:21:46Z</time>
      </trkpt>
      <trkpt lat="43.4193" lon="6.76199">
        <ele>1</ele>
        <time>2012-06-29T15:21:50Z</time>
      </trkpt>
      <trkpt lat="43.41941" lon="6.76201">
        <ele>1</ele>
        <time>2012-06-29T15:21:54Z</time>
      </trkpt>
      <trkpt lat="43.41949" lon="6.7621">
        <ele>1</ele>
        <time>2012-06-29T15:21:58Z</time>
      </trkpt>
      <trkpt lat="43.41951" lon="6.76222">
        <ele>1</ele>
        <time>2012-06-29T15:22:02Z</time>
      </trkpt>
      <trkpt lat="43.41952" lon="6.76237">
        <ele>1</ele>
        <time>2012-06-29T15:22:06Z</time>
      </trkpt>
      <trkpt lat="43.41953" lon="6.76251">
        <ele>1</ele>
        <time>2012-06-29T15:22:10Z</time>
      </trkpt>
      <trkpt lat="43.41952" lon="6.76264">
        <ele>1</ele>
        <time>2012-06-29T15:22:14Z</time>
      </trkpt>
      <trkpt lat="43.41951" lon="6.76277">
        <ele>1</ele>
        <time>2012-06-29T15:22:18Z</time>
      </trkpt>
      <trkpt lat="43.41952" lon="6.76291">
        <ele>1</ele>
        <time>2012-06-29T15:22:23Z</time>
      </trkpt>
      <trkpt lat="43.41952" lon="6.76307">
        <ele>1</ele>
        <time>2012-06-29T15:22:28Z</time>
      </trkpt>
      <trkpt lat="43.4195" lon="6.76319">
        <ele>1</ele>
        <time>2012-06-29T15:22:32Z</time>
      </trkpt>
      <trkpt lat="43.41948" lon="6.76332">
        <ele>1</ele>
        <time>2012-06-29T15:22:36Z</time>
      </trkpt>
      <trkpt lat="43.41947" lon="6.76344">
        <ele>1</ele>
        <time>2012-06-29T15:22:40Z</time>
      </trkpt>
      <trkpt lat="43.41945" lon="6.76358">
        <ele>1</ele>
        <time>2012-06-29T15:22:44Z</time>
      </trkpt>
      <trkpt lat="43.41944" lon="6.7637">
        <ele>1</ele>
        <time>2012-06-29T15:22:48Z</time>
      </trkpt>
      <trkpt lat="43.41942" lon="6.76385">
        <ele>1</ele>
        <time>2012-06-29T15:22:52Z</time>
      </trkpt>
      <trkpt lat="43.41942" lon="6.76398">
        <ele>1</ele>
        <time>2012-06-29T15:22:56Z</time>
      </trkpt>
      <trkpt lat="43.41942" lon="6.76411">
        <ele>1</ele>
        <time>2012-06-29T15:23:00Z</time>
      </trkpt>
      <trkpt lat="43.4194" lon="6.76425">
        <ele>1</ele>
        <time>2012-06-29T15:23:04Z</time>
      </trkpt>
      <trkpt lat="43.41939" lon="6.76439">
        <ele>1</ele>
        <time>2012-06-29T15:23:08Z</time>
      </trkpt>
      <trkpt lat="43.41938" lon="6.76452">
        <ele>1</ele>
        <time>2012-06-29T15:23:12Z</time>
      </trkpt>
      <trkpt lat="43.41937" lon="6.76466">
        <ele>1</ele>
        <time>2012-06-29T15:23:16Z</time>
      </trkpt>
      <trkpt lat="43.41936" lon="6.7648">
        <ele>1</ele>
        <time>2012-06-29T15:23:20Z</time>
      </trkpt>
      <trkpt lat="43.41935" lon="6.76493">
        <ele>1</ele>
        <time>2012-06-29T15:23:24Z</time>
      </trkpt>
      <trkpt lat="43.41934" lon="6.76507">
        <ele>1</ele>
        <time>2012-06-29T15:23:28Z</time>
      </trkpt>
      <trkpt lat="43.41934" lon="6.76519">
        <ele>1</ele>
        <time>2012-06-29T15:23:32Z</time>
      </trkpt>
      <trkpt lat="43.41933" lon="6.76533">
        <ele>1</ele>
        <time>2012-06-29T15:23:36Z</time>
      </trkpt>
      <trkpt lat="43.41932" lon="6.76547">
        <ele>1</ele>
        <time>2012-06-29T15:23:40Z</time>
      </trkpt>
      <trkpt lat="43.41931" lon="6.76562">
        <ele>1</ele>
        <time>2012-06-29T15:23:44Z</time>
      </trkpt>
      <trkpt lat="43.41931" lon="6.76575">
        <ele>1</ele>
        <time>2012-06-29T15:23:48Z</time>
      </trkpt>
      <trkpt lat="43.4193" lon="6.76589">
        <ele>1</ele>
        <time>2012-06-29T15:23:52Z</time>
      </trkpt>
      <trkpt lat="43.41929" lon="6.76603">
        <ele>1</ele>
        <time>2012-06-29T15:23:56Z</time>
      </trkpt>
      <trkpt lat="43.41928" lon="6.76617">
        <ele>1</ele>
        <time>2012-06-29T15:24:00Z</time>
      </trkpt>
      <trkpt lat="43.41928" lon="6.76631">
        <ele>1</ele>
        <time>2012-06-29T15:24:04Z</time>
      </trkpt>
      <trkpt lat="43.41928" lon="6.76644">
        <ele>1</ele>
        <time>2012-06-29T15:24:08Z</time>
      </trkpt>
      <trkpt lat="43.41928" lon="6.7666">
        <ele>1</ele>
        <time>2012-06-29T15:24:12Z</time>
      </trkpt>
      <trkpt lat="43.41927" lon="6.76674">
        <ele>1</ele>
        <time>2012-06-29T15:24:16Z</time>
      </trkpt>
      <trkpt lat="43.41927" lon="6.76688">
        <ele>1</ele>
        <time>2012-06-29T15:24:20Z</time>
      </trkpt>
      <trkpt lat="43.41922" lon="6.76698">
        <ele>1</ele>
        <time>2012-06-29T15:24:25Z</time>
      </trkpt>
      <trkpt lat="43.41911" lon="6.76696">
        <ele>1</ele>
        <time>2012-06-29T15:24:32Z</time>
      </trkpt>
      <trkpt lat="43.419" lon="6.76694">
        <ele>1</ele>
        <time>2012-06-29T15:24:37Z</time>
      </trkpt>
      <trkpt lat="43.4189" lon="6.7669">
        <ele>1</ele>
        <time>2012-06-29T15:24:42Z</time>
      </trkpt>
      <trkpt lat="43.41881" lon="6.76687">
        <ele>1</ele>
        <time>2012-06-29T15:24:46Z</time>
      </trkpt>
      <trkpt lat="43.4187" lon="6.76684">
        <ele>1</ele>
        <time>2012-06-29T15:24:51Z</time>
      </trkpt>
      <trkpt lat="43.41858" lon="6.76681">
        <ele>1</ele>
        <time>2012-06-29T15:24:56Z</time>
      </trkpt>
      <trkpt lat="43.41848" lon="6.7668">
        <ele>1</ele>
        <time>2012-06-29T15:25:00Z</time>
      </trkpt>
      <trkpt lat="43.41838" lon="6.76678">
        <ele>1</ele>
        <time>2012-06-29T15:25:04Z</time>
      </trkpt>
      <trkpt lat="43.41828" lon="6.76674">
        <ele>1</ele>
        <time>2012-06-29T15:25:08Z</time>
      </trkpt>
      <trkpt lat="43.41818" lon="6.7667">
        <ele>1</ele>
        <time>2012-06-29T15:25:12Z</time>
      </trkpt>
      <trkpt lat="43.41808" lon="6.76666">
        <ele>1</ele>
        <time>2012-06-29T15:25:16Z</time>
      </trkpt>
      <trkpt lat="43.41799" lon="6.76664">
        <ele>1</ele>
        <time>2012-06-29T15:25:20Z</time>
      </trkpt>
      <trkpt lat="43.41788" lon="6.76667">
        <ele>1</ele>
        <time>2012-06-29T15:25:25Z</time>
      </trkpt>
      <trkpt lat="43.41777" lon="6.7667">
        <ele>1</ele>
        <time>2012-06-29T15:25:29Z</time>
      </trkpt>
      <trkpt lat="43.41766" lon="6.76669">
        <ele>1</ele>
        <time>2012-06-29T15:25:33Z</time>
      </trkpt>
      <trkpt lat="43.41756" lon="6.76669">
        <ele>1</ele>
        <time>2012-06-29T15:25:37Z</time>
      </trkpt>
      <trkpt lat="43.41745" lon="6.76669">
        <ele>1</ele>
        <time>2012-06-29T15:25:41Z</time>
      </trkpt>
      <trkpt lat="43.41735" lon="6.76669">
        <ele>1</ele>
        <time>2012-06-29T15:25:45Z</time>
      </trkpt>
      <trkpt lat="43.41724" lon="6.76668">
        <ele>1</ele>
        <time>2012-06-29T15:25:49Z</time>
      </trkpt>
      <trkpt lat="43.41714" lon="6.76667">
        <ele>1</ele>
        <time>2012-06-29T15:25:53Z</time>
      </trkpt>
      <trkpt lat="43.41704" lon="6.76667">
        <ele>1</ele>
        <time>2012-06-29T15:25:57Z</time>
      </trkpt>
      <trkpt lat="43.41693" lon="6.76667">
        <ele>1</ele>
        <time>2012-06-29T15:26:01Z</time>
      </trkpt>
      <trkpt lat="43.41683" lon="6.76667">
        <ele>1</ele>
        <time>2012-06-29T15:26:05Z</time>
      </trkpt>
      <trkpt lat="43.41673" lon="6.76666">
        <ele>1</ele>
        <time>2012-06-29T15:26:09Z</time>
      </trkpt>
      <trkpt lat="43.41663" lon="6.76665">
        <ele>1</ele>
        <time>2012-06-29T15:26:13Z</time>
      </trkpt>
      <trkpt lat="43.41652" lon="6.76664">
        <ele>1</ele>
        <time>2012-06-29T15:26:17Z</time>
      </trkpt>
      <trkpt lat="43.41642" lon="6.76662">
        <ele>1</ele>
        <time>2012-06-29T15:26:21Z</time>
      </trkpt>
      <trkpt lat="43.41632" lon="6.76662">
        <ele>1</ele>
        <time>2012-06-29T15:26:25Z</time>
      </trkpt>
      <trkpt lat="43.41621" lon="6.76662">
        <ele>1</ele>
        <time>2012-06-29T15:26:29Z</time>
      </trkpt>
      <trkpt lat="43.4161" lon="6.76663">
        <ele>1</ele>
        <time>2012-06-29T15:26:33Z</time>
      </trkpt>
      <trkpt lat="43.41598" lon="6.76664">
        <ele>1</ele>
        <time>2012-06-29T15:26:37Z</time>
      </trkpt>
      <trkpt lat="43.41588" lon="6.76665">
        <ele>1</ele>
        <time>2012-06-29T15:26:41Z</time>
      </trkpt>
      <trkpt lat="43.41577" lon="6.76665">
        <ele>1</ele>
        <time>2012-06-29T15:26:45Z</time>
      </trkpt>
      <trkpt lat="43.41568" lon="6.76669">
        <ele>1</ele>
        <time>2012-06-29T15:26:50Z</time>
      </trkpt>
      <trkpt lat="43.41568" lon="6.76681">
        <ele>1</ele>
        <time>2012-06-29T15:26:56Z</time>
      </trkpt>
      <trkpt lat="43.41571" lon="6.76693">
        <ele>1</ele>
        <time>2012-06-29T15:27:01Z</time>
      </trkpt>
      <trkpt lat="43.41574" lon="6.76706">
        <ele>1</ele>
        <time>2012-06-29T15:27:06Z</time>
      </trkpt>
      <trkpt lat="43.41575" lon="6.76721">
        <ele>1</ele>
        <time>2012-06-29T15:27:11Z</time>
      </trkpt>
      <trkpt lat="43.41576" lon="6.76735">
        <ele>1</ele>
        <time>2012-06-29T15:27:16Z</time>
      </trkpt>
      <trkpt lat="43.41577" lon="6.76749">
        <ele>1</ele>
        <time>2012-06-29T15:27:21Z</time>
      </trkpt>
      <trkpt lat="43.41578" lon="6.76762">
        <ele>1</ele>
        <time>2012-06-29T15:27:25Z</time>
      </trkpt>
      <trkpt lat="43.41579" lon="6.76775">
        <ele>1</ele>
        <time>2012-06-29T15:27:29Z</time>
      </trkpt>
      <trkpt lat="43.41579" lon="6.76787">
        <ele>1</ele>
        <time>2012-06-29T15:27:33Z</time>
      </trkpt>
      <trkpt lat="43.41581" lon="6.76801">
        <ele>1</ele>
        <time>2012-06-29T15:27:37Z</time>
      </trkpt>
      <trkpt lat="43.41582" lon="6.76814">
        <ele>1</ele>
        <time>2012-06-29T15:27:41Z</time>
      </trkpt>
      <trkpt lat="43.41583" lon="6.76827">
        <ele>1</ele>
        <time>2012-06-29T15:27:45Z</time>
      </trkpt>
      <trkpt lat="43.41584" lon="6.7684">
        <ele>1</ele>
        <time>2012-06-29T15:27:49Z</time>
      </trkpt>
      <trkpt lat="43.41584" lon="6.76853">
        <ele>1</ele>
        <time>2012-06-29T15:27:53Z</time>
      </trkpt>
      <trkpt lat="43.41585" lon="6.76866">
        <ele>1</ele>
        <time>2012-06-29T15:27:57Z</time>
      </trkpt>
      <trkpt lat="43.41586" lon="6.76879">
        <ele>1</ele>
        <time>2012-06-29T15:28:01Z</time>
      </trkpt>
      <trkpt lat="43.41586" lon="6.76892">
        <ele>1</ele>
        <time>2012-06-29T15:28:05Z</time>
      </trkpt>
      <trkpt lat="43.41586" lon="6.76906">
        <ele>1</ele>
        <time>2012-06-29T15:28:09Z</time>
      </trkpt>
      <trkpt lat="43.41587" lon="6.76918">
        <ele>1</ele>
        <time>2012-06-29T15:28:13Z</time>
      </trkpt>
      <trkpt lat="43.41587" lon="6.76932">
        <ele>1</ele>
        <time>2012-06-29T15:28:17Z</time>
      </trkpt>
      <trkpt lat="43.41587" lon="6.76944">
        <ele>1</ele>
        <time>2012-06-29T15:28:21Z</time>
      </trkpt>
      <trkpt lat="43.41587" lon="6.76957">
        <ele>1</ele>
        <time>2012-06-29T15:28:25Z</time>
      </trkpt>
      <trkpt lat="43.41586" lon="6.7697">
        <ele>1</ele>
        <time>2012-06-29T15:28:29Z</time>
      </trkpt>
      <trkpt lat="43.41585" lon="6.76986">
        <ele>1</ele>
        <time>2012-06-29T15:28:34Z</time>
      </trkpt>
      <trkpt lat="43.41586" lon="6.76999">
        <ele>1</ele>
        <time>2012-06-29T15:28:38Z</time>
      </trkpt>
      <trkpt lat="43.41586" lon="6.77012">
        <ele>1</ele>
        <time>2012-06-29T15:28:42Z</time>
      </trkpt>
      <trkpt lat="43.41586" lon="6.77025">
        <ele>1</ele>
        <time>2012-06-29T15:28:46Z</time>
      </trkpt>
      <trkpt lat="43.41587" lon="6.77039">
        <ele>1</ele>
        <time>2012-06-29T15:28:50Z</time>
      </trkpt>
      <trkpt lat="43.41588" lon="6.77052">
        <ele>1</ele>
        <time>2012-06-29T15:28:54Z</time>
      </trkpt>
      <trkpt lat="43.41588" lon="6.77067">
        <ele>1</ele>
        <time>2012-06-29T15:28:58Z</time>
      </trkpt>
      <trkpt lat="43.41588" lon="6.77079">
        <ele>1</ele>
        <time>2012-06-29T15:29:02Z</time>
      </trkpt>
      <trkpt lat="43.41589" lon="6.77093">
        <ele>1</ele>
        <time>2012-06-29T15:29:06Z</time>
      </trkpt>
      <trkpt lat="43.41589" lon="6.77106">
        <ele>1</ele>
        <time>2012-06-29T15:29:10Z</time>
      </trkpt>
      <trkpt lat="43.4159" lon="6.77119">
        <ele>1</ele>
        <time>2012-06-29T15:29:14Z</time>
      </trkpt>
      <trkpt lat="43.41591" lon="6.77132">
        <ele>1</ele>
        <time>2012-06-29T15:29:18Z</time>
      </trkpt>
      <trkpt lat="43.41592" lon="6.77146">
        <ele>1</ele>
        <time>2012-06-29T15:29:22Z</time>
      </trkpt>
      <trkpt lat="43.41591" lon="6.77161">
        <ele>1</ele>
        <time>2012-06-29T15:29:27Z</time>
      </trkpt>
      <trkpt lat="43.41591" lon="6.77174">
        <ele>1</ele>
        <time>2012-06-29T15:29:31Z</time>
      </trkpt>
      <trkpt lat="43.41593" lon="6.77188">
        <ele>1</ele>
        <time>2012-06-29T15:29:35Z</time>
      </trkpt>
      <trkpt lat="43.41594" lon="6.77202">
        <ele>1</ele>
        <time>2012-06-29T15:29:39Z</time>
      </trkpt>
      <trkpt lat="43.41596" lon="6.77216">
        <ele>1</ele>
        <time>2012-06-29T15:29:43Z</time>
      </trkpt>
      <trkpt lat="43.41598" lon="6.77229">
        <ele>1</ele>
        <time>2012-06-29T15:29:47Z</time>
      </trkpt>
      <trkpt lat="43.41599" lon="6.77244">
        <ele>1</ele>
        <time>2012-06-29T15:29:51Z</time>
      </trkpt>
      <trkpt lat="43.41601" lon="6.77256">
        <ele>1</ele>
        <time>2012-06-29T15:29:55Z</time>
      </trkpt>
      <trkpt lat="43.41602" lon="6.77269">
        <ele>1</ele>
        <time>2012-06-29T15:29:59Z</time>
      </trkpt>
      <trkpt lat="43.41602" lon="6.77281">
        <ele>1</ele>
        <time>2012-06-29T15:30:03Z</time>
      </trkpt>
      <trkpt lat="43.41602" lon="6.77294">
        <ele>1</ele>
        <time>2012-06-29T15:30:07Z</time>
      </trkpt>
      <trkpt lat="43.41603" lon="6.77307">
        <ele>1</ele>
        <time>2012-06-29T15:30:11Z</time>
      </trkpt>
      <trkpt lat="43.41607" lon="6.77323">
        <ele>1</ele>
        <time>2012-06-29T15:30:15Z</time>
      </trkpt>
      <trkpt lat="43.41612" lon="6.77337">
        <ele>1</ele>
        <time>2012-06-29T15:30:19Z</time>
      </trkpt>
      <trkpt lat="43.41617" lon="6.7735">
        <ele>1</ele>
        <time>2012-06-29T15:30:23Z</time>
      </trkpt>
      <trkpt lat="43.41621" lon="6.77363">
        <ele>1</ele>
        <time>2012-06-29T15:30:27Z</time>
      </trkpt>
      <trkpt lat="43.41625" lon="6.77376">
        <ele>1</ele>
        <time>2012-06-29T15:30:31Z</time>
      </trkpt>
      <trkpt lat="43.41629" lon="6.7739">
        <ele>1</ele>
        <time>2012-06-29T15:30:35Z</time>
      </trkpt>
      <trkpt lat="43.41634" lon="6.77403">
        <ele>1</ele>
        <time>2012-06-29T15:30:39Z</time>
      </trkpt>
      <trkpt lat="43.41639" lon="6.77415">
        <ele>1</ele>
        <time>2012-06-29T15:30:44Z</time>
      </trkpt>
      <trkpt lat="43.41644" lon="6.77426">
        <ele>1</ele>
        <time>2012-06-29T15:30:48Z</time>
      </trkpt>
      <trkpt lat="43.41648" lon="6.77437">
        <ele>1</ele>
        <time>2012-06-29T15:30:52Z</time>
      </trkpt>
      <trkpt lat="43.41654" lon="6.77447">
        <ele>1</ele>
        <time>2012-06-29T15:30:57Z</time>
      </trkpt>
      <trkpt lat="43.41657" lon="6.77459">
        <ele>1</ele>
        <time>2012-06-29T15:31:05Z</time>
      </trkpt>
      <trkpt lat="43.41659" lon="6.77472">
        <ele>1</ele>
        <time>2012-06-29T15:32:00Z</time>
      </trkpt>
      <trkpt lat="43.41663" lon="6.7746">
        <ele>1</ele>
        <time>2012-06-29T15:34:26Z</time>
      </trkpt>
      <trkpt lat="43.41656" lon="6.77469">
        <ele>1</ele>
        <time>2012-06-29T15:39:35Z</time>
      </trkpt>
      <trkpt lat="43.41665" lon="6.77473">
        <ele>1</ele>
        <time>2012-06-29T15:39:58Z</time>
      </trkpt>
      <trkpt lat="43.41672" lon="6.77466">
        <ele>1</ele>
        <time>2012-06-29T15:40:13Z</time>
      </trkpt>
      <trkpt lat="43.4168" lon="6.77459">
        <ele>1</ele>
        <time>2012-06-29T15:40:30Z</time>
      </trkpt>
      <trkpt lat="43.41688" lon="6.77456">
        <ele>1</ele>
        <time>2012-06-29T15:40:50Z</time>
      </trkpt>
      <trkpt lat="43.41697" lon="6.77454">
        <ele>1</ele>
        <time>2012-06-29T15:41:16Z</time>
      </trkpt>
      <trkpt lat="43.41706" lon="6.77453">
        <ele>1</ele>
        <time>2012-06-29T15:41:44Z</time>
      </trkpt>
      <trkpt lat="43.41716" lon="6.77452">
        <ele>1</ele>
        <time>2012-06-29T15:42:44Z</time>
      </trkpt>
    </trkseg>
  </trk>
</gpx>